<?xml version="1.0" encoding="UTF-8" standalone="no" ?>
<gpx xmlns="http://www.topografix.com/GPX/1/1" xmlns:xsi="http://www.w3.org/2001/XMLSchema-instance" xsi:schemaLocation="http://www.topografix.com/GPX/1/1 http://www.topografix.com/GPX/1/1/gpx.xsd" version="1.1" creator="VisuGPX - https://www.visugpx.com">
  <metadata>
    <name>2019-05-21 12:22:00</name>
    <desc><![CDATA[

]]></desc>
  </metadata>
  <trk>
    <name><![CDATA[2019-05-21 12:22:00]]></name>
    <trkseg>
      <trkpt lat="40.10589" lon="-8.48781">
        <ele>124.15</ele>
        <time>2019-05-21T06:23:02Z</time>
      </trkpt>
      <trkpt lat="40.10589" lon="-8.48781">
        <ele>124.15</ele>
        <time>2019-05-21T06:23:03Z</time>
      </trkpt>
      <trkpt lat="40.10598" lon="-8.48781">
        <ele>123.19</ele>
        <time>2019-05-21T06:23:22Z</time>
      </trkpt>
      <trkpt lat="40.10595" lon="-8.48779">
        <ele>123.19</ele>
        <time>2019-05-21T06:23:49Z</time>
      </trkpt>
      <trkpt lat="40.10594" lon="-8.48779">
        <ele>123.67</ele>
        <time>2019-05-21T06:23:51Z</time>
      </trkpt>
      <trkpt lat="40.10592" lon="-8.48782">
        <ele>124.63</ele>
        <time>2019-05-21T06:24:01Z</time>
      </trkpt>
      <trkpt lat="40.10593" lon="-8.4878">
        <ele>124.63</ele>
        <time>2019-05-21T06:24:14Z</time>
      </trkpt>
      <trkpt lat="40.10593" lon="-8.48781">
        <ele>124.15</ele>
        <time>2019-05-21T06:24:28Z</time>
      </trkpt>
      <trkpt lat="40.10595" lon="-8.48777">
        <ele>124.15</ele>
        <time>2019-05-21T06:24:53Z</time>
      </trkpt>
      <trkpt lat="40.10596" lon="-8.48778">
        <ele>124.63</ele>
        <time>2019-05-21T06:25:16Z</time>
      </trkpt>
      <trkpt lat="40.10597" lon="-8.48779">
        <ele>124.15</ele>
        <time>2019-05-21T06:25:41Z</time>
      </trkpt>
      <trkpt lat="40.10596" lon="-8.48778">
        <ele>124.63</ele>
        <time>2019-05-21T06:25:56Z</time>
      </trkpt>
      <trkpt lat="40.10594" lon="-8.48776">
        <ele>123.67</ele>
        <time>2019-05-21T06:26:06Z</time>
      </trkpt>
      <trkpt lat="40.10581" lon="-8.48763">
        <ele>124.15</ele>
        <time>2019-05-21T06:26:23Z</time>
      </trkpt>
      <trkpt lat="40.10578" lon="-8.4876">
        <ele>124.15</ele>
        <time>2019-05-21T06:26:26Z</time>
      </trkpt>
      <trkpt lat="40.10576" lon="-8.48758">
        <ele>124.63</ele>
        <time>2019-05-21T06:26:29Z</time>
      </trkpt>
      <trkpt lat="40.10568" lon="-8.48753">
        <ele>124.63</ele>
        <time>2019-05-21T06:26:41Z</time>
      </trkpt>
      <trkpt lat="40.10566" lon="-8.48749">
        <ele>125.11</ele>
        <time>2019-05-21T06:26:45Z</time>
      </trkpt>
      <trkpt lat="40.10557" lon="-8.48739">
        <ele>125.59</ele>
        <time>2019-05-21T06:26:54Z</time>
      </trkpt>
      <trkpt lat="40.10552" lon="-8.48735">
        <ele>125.59</ele>
        <time>2019-05-21T06:26:58Z</time>
      </trkpt>
      <trkpt lat="40.10538" lon="-8.4875">
        <ele>125.59</ele>
        <time>2019-05-21T06:27:14Z</time>
      </trkpt>
      <trkpt lat="40.10531" lon="-8.4875">
        <ele>126.07</ele>
        <time>2019-05-21T06:27:22Z</time>
      </trkpt>
      <trkpt lat="40.10515" lon="-8.48748">
        <ele>126.07</ele>
        <time>2019-05-21T06:27:36Z</time>
      </trkpt>
      <trkpt lat="40.10502" lon="-8.48745">
        <ele>125.59</ele>
        <time>2019-05-21T06:27:48Z</time>
      </trkpt>
      <trkpt lat="40.10487" lon="-8.4874">
        <ele>126.07</ele>
        <time>2019-05-21T06:28:02Z</time>
      </trkpt>
      <trkpt lat="40.10472" lon="-8.48733">
        <ele>126.07</ele>
        <time>2019-05-21T06:28:16Z</time>
      </trkpt>
      <trkpt lat="40.10452" lon="-8.48726">
        <ele>126.07</ele>
        <time>2019-05-21T06:28:33Z</time>
      </trkpt>
      <trkpt lat="40.10451" lon="-8.48726">
        <ele>126.07</ele>
        <time>2019-05-21T06:28:34Z</time>
      </trkpt>
      <trkpt lat="40.10431" lon="-8.4872">
        <ele>126.55</ele>
        <time>2019-05-21T06:28:50Z</time>
      </trkpt>
      <trkpt lat="40.10416" lon="-8.48706">
        <ele>126.55</ele>
        <time>2019-05-21T06:29:06Z</time>
      </trkpt>
      <trkpt lat="40.10402" lon="-8.48691">
        <ele>127.51</ele>
        <time>2019-05-21T06:29:23Z</time>
      </trkpt>
      <trkpt lat="40.10384" lon="-8.48676">
        <ele>127.51</ele>
        <time>2019-05-21T06:29:41Z</time>
      </trkpt>
      <trkpt lat="40.10371" lon="-8.48662">
        <ele>127.99</ele>
        <time>2019-05-21T06:29:57Z</time>
      </trkpt>
      <trkpt lat="40.1037" lon="-8.48659">
        <ele>127.51</ele>
        <time>2019-05-21T06:30:00Z</time>
      </trkpt>
      <trkpt lat="40.1037" lon="-8.48651">
        <ele>127.99</ele>
        <time>2019-05-21T06:30:06Z</time>
      </trkpt>
      <trkpt lat="40.10376" lon="-8.48639">
        <ele>127.51</ele>
        <time>2019-05-21T06:30:16Z</time>
      </trkpt>
      <trkpt lat="40.10376" lon="-8.48637">
        <ele>127.51</ele>
        <time>2019-05-21T06:30:18Z</time>
      </trkpt>
      <trkpt lat="40.10376" lon="-8.48631">
        <ele>127.99</ele>
        <time>2019-05-21T06:30:22Z</time>
      </trkpt>
      <trkpt lat="40.1038" lon="-8.48622">
        <ele>127.03</ele>
        <time>2019-05-21T06:30:28Z</time>
      </trkpt>
      <trkpt lat="40.10394" lon="-8.48604">
        <ele>127.03</ele>
        <time>2019-05-21T06:30:44Z</time>
      </trkpt>
      <trkpt lat="40.10399" lon="-8.48598">
        <ele>127.03</ele>
        <time>2019-05-21T06:30:49Z</time>
      </trkpt>
      <trkpt lat="40.10414" lon="-8.48582">
        <ele>126.55</ele>
        <time>2019-05-21T06:31:06Z</time>
      </trkpt>
      <trkpt lat="40.10418" lon="-8.48577">
        <ele>126.07</ele>
        <time>2019-05-21T06:31:11Z</time>
      </trkpt>
      <trkpt lat="40.1042" lon="-8.4857">
        <ele>125.59</ele>
        <time>2019-05-21T06:31:16Z</time>
      </trkpt>
      <trkpt lat="40.10433" lon="-8.48548">
        <ele>124.63</ele>
        <time>2019-05-21T06:31:33Z</time>
      </trkpt>
      <trkpt lat="40.10438" lon="-8.4853">
        <ele>123.67</ele>
        <time>2019-05-21T06:31:47Z</time>
      </trkpt>
      <trkpt lat="40.1044" lon="-8.48521">
        <ele>123.67</ele>
        <time>2019-05-21T06:31:53Z</time>
      </trkpt>
      <trkpt lat="40.1045" lon="-8.48494">
        <ele>123.19</ele>
        <time>2019-05-21T06:32:10Z</time>
      </trkpt>
      <trkpt lat="40.10451" lon="-8.48477">
        <ele>122.71</ele>
        <time>2019-05-21T06:32:23Z</time>
      </trkpt>
      <trkpt lat="40.10452" lon="-8.48475">
        <ele>122.71</ele>
        <time>2019-05-21T06:32:24Z</time>
      </trkpt>
      <trkpt lat="40.10457" lon="-8.48451">
        <ele>122.71</ele>
        <time>2019-05-21T06:32:39Z</time>
      </trkpt>
      <trkpt lat="40.10464" lon="-8.48423">
        <ele>122.22</ele>
        <time>2019-05-21T06:32:57Z</time>
      </trkpt>
      <trkpt lat="40.10466" lon="-8.4841">
        <ele>122.22</ele>
        <time>2019-05-21T06:33:11Z</time>
      </trkpt>
      <trkpt lat="40.10469" lon="-8.48392">
        <ele>122.22</ele>
        <time>2019-05-21T06:33:25Z</time>
      </trkpt>
      <trkpt lat="40.10471" lon="-8.48373">
        <ele>122.22</ele>
        <time>2019-05-21T06:33:39Z</time>
      </trkpt>
      <trkpt lat="40.10474" lon="-8.48356">
        <ele>122.22</ele>
        <time>2019-05-21T06:33:51Z</time>
      </trkpt>
      <trkpt lat="40.10477" lon="-8.48336">
        <ele>121.74</ele>
        <time>2019-05-21T06:34:05Z</time>
      </trkpt>
      <trkpt lat="40.10482" lon="-8.48319">
        <ele>121.74</ele>
        <time>2019-05-21T06:34:15Z</time>
      </trkpt>
      <trkpt lat="40.10485" lon="-8.48291">
        <ele>121.26</ele>
        <time>2019-05-21T06:34:32Z</time>
      </trkpt>
      <trkpt lat="40.10486" lon="-8.48283">
        <ele>121.74</ele>
        <time>2019-05-21T06:34:37Z</time>
      </trkpt>
      <trkpt lat="40.1049" lon="-8.48256">
        <ele>121.74</ele>
        <time>2019-05-21T06:34:54Z</time>
      </trkpt>
      <trkpt lat="40.1049" lon="-8.4825">
        <ele>121.74</ele>
        <time>2019-05-21T06:34:58Z</time>
      </trkpt>
      <trkpt lat="40.10491" lon="-8.48245">
        <ele>122.22</ele>
        <time>2019-05-21T06:35:01Z</time>
      </trkpt>
      <trkpt lat="40.10495" lon="-8.48226">
        <ele>121.74</ele>
        <time>2019-05-21T06:35:15Z</time>
      </trkpt>
      <trkpt lat="40.10497" lon="-8.48203">
        <ele>121.26</ele>
        <time>2019-05-21T06:35:30Z</time>
      </trkpt>
      <trkpt lat="40.10499" lon="-8.48176">
        <ele>121.26</ele>
        <time>2019-05-21T06:35:47Z</time>
      </trkpt>
      <trkpt lat="40.10502" lon="-8.48156">
        <ele>121.26</ele>
        <time>2019-05-21T06:36:01Z</time>
      </trkpt>
      <trkpt lat="40.10506" lon="-8.48132">
        <ele>120.78</ele>
        <time>2019-05-21T06:36:16Z</time>
      </trkpt>
      <trkpt lat="40.10512" lon="-8.48108">
        <ele>121.26</ele>
        <time>2019-05-21T06:36:33Z</time>
      </trkpt>
      <trkpt lat="40.10518" lon="-8.48108">
        <ele>120.78</ele>
        <time>2019-05-21T06:36:38Z</time>
      </trkpt>
      <trkpt lat="40.10536" lon="-8.48112">
        <ele>121.26</ele>
        <time>2019-05-21T06:36:54Z</time>
      </trkpt>
      <trkpt lat="40.10552" lon="-8.48121">
        <ele>122.22</ele>
        <time>2019-05-21T06:37:10Z</time>
      </trkpt>
      <trkpt lat="40.1057" lon="-8.48125">
        <ele>123.19</ele>
        <time>2019-05-21T06:37:26Z</time>
      </trkpt>
      <trkpt lat="40.10589" lon="-8.48128">
        <ele>124.15</ele>
        <time>2019-05-21T06:37:43Z</time>
      </trkpt>
      <trkpt lat="40.10606" lon="-8.48133">
        <ele>124.15</ele>
        <time>2019-05-21T06:37:58Z</time>
      </trkpt>
      <trkpt lat="40.10623" lon="-8.48138">
        <ele>124.63</ele>
        <time>2019-05-21T06:38:14Z</time>
      </trkpt>
      <trkpt lat="40.10642" lon="-8.48143">
        <ele>123.67</ele>
        <time>2019-05-21T06:38:29Z</time>
      </trkpt>
      <trkpt lat="40.10643" lon="-8.48142">
        <ele>123.67</ele>
        <time>2019-05-21T06:38:30Z</time>
      </trkpt>
      <trkpt lat="40.10647" lon="-8.48134">
        <ele>123.19</ele>
        <time>2019-05-21T06:38:35Z</time>
      </trkpt>
      <trkpt lat="40.10648" lon="-8.48119">
        <ele>122.71</ele>
        <time>2019-05-21T06:38:45Z</time>
      </trkpt>
      <trkpt lat="40.1065" lon="-8.48095">
        <ele>122.71</ele>
        <time>2019-05-21T06:38:59Z</time>
      </trkpt>
      <trkpt lat="40.10652" lon="-8.48081">
        <ele>122.22</ele>
        <time>2019-05-21T06:39:09Z</time>
      </trkpt>
      <trkpt lat="40.10655" lon="-8.48061">
        <ele>122.22</ele>
        <time>2019-05-21T06:39:22Z</time>
      </trkpt>
      <trkpt lat="40.1066" lon="-8.48037">
        <ele>122.71</ele>
        <time>2019-05-21T06:39:39Z</time>
      </trkpt>
      <trkpt lat="40.10669" lon="-8.4802">
        <ele>122.22</ele>
        <time>2019-05-21T06:39:53Z</time>
      </trkpt>
      <trkpt lat="40.10675" lon="-8.48012">
        <ele>121.74</ele>
        <time>2019-05-21T06:40:00Z</time>
      </trkpt>
      <trkpt lat="40.1068" lon="-8.48005">
        <ele>121.26</ele>
        <time>2019-05-21T06:40:06Z</time>
      </trkpt>
      <trkpt lat="40.10686" lon="-8.47995">
        <ele>121.74</ele>
        <time>2019-05-21T06:40:14Z</time>
      </trkpt>
      <trkpt lat="40.107" lon="-8.47976">
        <ele>122.22</ele>
        <time>2019-05-21T06:40:31Z</time>
      </trkpt>
      <trkpt lat="40.10713" lon="-8.47966">
        <ele>122.22</ele>
        <time>2019-05-21T06:40:46Z</time>
      </trkpt>
      <trkpt lat="40.10725" lon="-8.47959">
        <ele>121.26</ele>
        <time>2019-05-21T06:40:59Z</time>
      </trkpt>
      <trkpt lat="40.10732" lon="-8.47954">
        <ele>121.26</ele>
        <time>2019-05-21T06:41:06Z</time>
      </trkpt>
      <trkpt lat="40.10742" lon="-8.47946">
        <ele>120.78</ele>
        <time>2019-05-21T06:41:16Z</time>
      </trkpt>
      <trkpt lat="40.10748" lon="-8.47941">
        <ele>120.3</ele>
        <time>2019-05-21T06:41:22Z</time>
      </trkpt>
      <trkpt lat="40.10766" lon="-8.47928">
        <ele>119.34</ele>
        <time>2019-05-21T06:41:37Z</time>
      </trkpt>
      <trkpt lat="40.1077" lon="-8.47924">
        <ele>118.38</ele>
        <time>2019-05-21T06:41:41Z</time>
      </trkpt>
      <trkpt lat="40.10772" lon="-8.47923">
        <ele>119.34</ele>
        <time>2019-05-21T06:41:43Z</time>
      </trkpt>
      <trkpt lat="40.10789" lon="-8.4791">
        <ele>117.42</ele>
        <time>2019-05-21T06:41:59Z</time>
      </trkpt>
      <trkpt lat="40.10801" lon="-8.47896">
        <ele>115.98</ele>
        <time>2019-05-21T06:42:13Z</time>
      </trkpt>
      <trkpt lat="40.10816" lon="-8.47885">
        <ele>115.5</ele>
        <time>2019-05-21T06:42:27Z</time>
      </trkpt>
      <trkpt lat="40.10832" lon="-8.47875">
        <ele>115.01</ele>
        <time>2019-05-21T06:42:43Z</time>
      </trkpt>
      <trkpt lat="40.10835" lon="-8.47874">
        <ele>114.05</ele>
        <time>2019-05-21T06:42:46Z</time>
      </trkpt>
      <trkpt lat="40.10843" lon="-8.47871">
        <ele>114.53</ele>
        <time>2019-05-21T06:42:53Z</time>
      </trkpt>
      <trkpt lat="40.1085" lon="-8.47868">
        <ele>114.05</ele>
        <time>2019-05-21T06:42:58Z</time>
      </trkpt>
      <trkpt lat="40.10874" lon="-8.47857">
        <ele>114.53</ele>
        <time>2019-05-21T06:43:14Z</time>
      </trkpt>
      <trkpt lat="40.10889" lon="-8.47844">
        <ele>114.05</ele>
        <time>2019-05-21T06:43:28Z</time>
      </trkpt>
      <trkpt lat="40.10895" lon="-8.47834">
        <ele>114.05</ele>
        <time>2019-05-21T06:43:36Z</time>
      </trkpt>
      <trkpt lat="40.10898" lon="-8.47833">
        <ele>114.05</ele>
        <time>2019-05-21T06:43:39Z</time>
      </trkpt>
      <trkpt lat="40.109" lon="-8.47831">
        <ele>114.05</ele>
        <time>2019-05-21T06:43:41Z</time>
      </trkpt>
      <trkpt lat="40.10922" lon="-8.47826">
        <ele>113.57</ele>
        <time>2019-05-21T06:43:59Z</time>
      </trkpt>
      <trkpt lat="40.10944" lon="-8.47819">
        <ele>113.09</ele>
        <time>2019-05-21T06:44:17Z</time>
      </trkpt>
      <trkpt lat="40.10959" lon="-8.47814">
        <ele>113.57</ele>
        <time>2019-05-21T06:44:30Z</time>
      </trkpt>
      <trkpt lat="40.10979" lon="-8.47809">
        <ele>113.09</ele>
        <time>2019-05-21T06:44:47Z</time>
      </trkpt>
      <trkpt lat="40.10995" lon="-8.47802">
        <ele>113.09</ele>
        <time>2019-05-21T06:45:01Z</time>
      </trkpt>
      <trkpt lat="40.11012" lon="-8.47796">
        <ele>113.57</ele>
        <time>2019-05-21T06:45:15Z</time>
      </trkpt>
      <trkpt lat="40.11029" lon="-8.4779">
        <ele>114.05</ele>
        <time>2019-05-21T06:45:30Z</time>
      </trkpt>
      <trkpt lat="40.11048" lon="-8.47783">
        <ele>113.57</ele>
        <time>2019-05-21T06:45:46Z</time>
      </trkpt>
      <trkpt lat="40.11057" lon="-8.47779">
        <ele>113.57</ele>
        <time>2019-05-21T06:46:00Z</time>
      </trkpt>
      <trkpt lat="40.11076" lon="-8.47773">
        <ele>114.05</ele>
        <time>2019-05-21T06:46:15Z</time>
      </trkpt>
      <trkpt lat="40.11095" lon="-8.47767">
        <ele>114.05</ele>
        <time>2019-05-21T06:46:31Z</time>
      </trkpt>
      <trkpt lat="40.11115" lon="-8.4776">
        <ele>114.05</ele>
        <time>2019-05-21T06:46:48Z</time>
      </trkpt>
      <trkpt lat="40.11134" lon="-8.47752">
        <ele>114.53</ele>
        <time>2019-05-21T06:47:06Z</time>
      </trkpt>
      <trkpt lat="40.11153" lon="-8.47746">
        <ele>114.05</ele>
        <time>2019-05-21T06:47:21Z</time>
      </trkpt>
      <trkpt lat="40.11173" lon="-8.47739">
        <ele>114.05</ele>
        <time>2019-05-21T06:47:37Z</time>
      </trkpt>
      <trkpt lat="40.11194" lon="-8.47733">
        <ele>114.05</ele>
        <time>2019-05-21T06:47:55Z</time>
      </trkpt>
      <trkpt lat="40.11214" lon="-8.47724">
        <ele>114.05</ele>
        <time>2019-05-21T06:48:12Z</time>
      </trkpt>
      <trkpt lat="40.11234" lon="-8.47719">
        <ele>114.05</ele>
        <time>2019-05-21T06:48:28Z</time>
      </trkpt>
      <trkpt lat="40.11254" lon="-8.47712">
        <ele>114.53</ele>
        <time>2019-05-21T06:48:45Z</time>
      </trkpt>
      <trkpt lat="40.11268" lon="-8.47707">
        <ele>114.05</ele>
        <time>2019-05-21T06:48:58Z</time>
      </trkpt>
      <trkpt lat="40.11282" lon="-8.47698">
        <ele>114.53</ele>
        <time>2019-05-21T06:49:12Z</time>
      </trkpt>
      <trkpt lat="40.11294" lon="-8.47692">
        <ele>114.53</ele>
        <time>2019-05-21T06:49:25Z</time>
      </trkpt>
      <trkpt lat="40.11301" lon="-8.47686">
        <ele>113.57</ele>
        <time>2019-05-21T06:49:33Z</time>
      </trkpt>
      <trkpt lat="40.11313" lon="-8.47667">
        <ele>114.05</ele>
        <time>2019-05-21T06:49:48Z</time>
      </trkpt>
      <trkpt lat="40.11326" lon="-8.4765">
        <ele>113.09</ele>
        <time>2019-05-21T06:50:02Z</time>
      </trkpt>
      <trkpt lat="40.11327" lon="-8.47649">
        <ele>113.09</ele>
        <time>2019-05-21T06:50:03Z</time>
      </trkpt>
      <trkpt lat="40.1134" lon="-8.47642">
        <ele>112.61</ele>
        <time>2019-05-21T06:50:14Z</time>
      </trkpt>
      <trkpt lat="40.1136" lon="-8.47635">
        <ele>112.13</ele>
        <time>2019-05-21T06:50:31Z</time>
      </trkpt>
      <trkpt lat="40.11379" lon="-8.47629">
        <ele>112.13</ele>
        <time>2019-05-21T06:50:47Z</time>
      </trkpt>
      <trkpt lat="40.11401" lon="-8.4762">
        <ele>111.65</ele>
        <time>2019-05-21T06:51:05Z</time>
      </trkpt>
      <trkpt lat="40.11415" lon="-8.47605">
        <ele>111.65</ele>
        <time>2019-05-21T06:51:19Z</time>
      </trkpt>
      <trkpt lat="40.11419" lon="-8.47596">
        <ele>111.65</ele>
        <time>2019-05-21T06:51:26Z</time>
      </trkpt>
      <trkpt lat="40.11431" lon="-8.47577">
        <ele>111.65</ele>
        <time>2019-05-21T06:51:41Z</time>
      </trkpt>
      <trkpt lat="40.1144" lon="-8.47566">
        <ele>110.69</ele>
        <time>2019-05-21T06:51:54Z</time>
      </trkpt>
      <trkpt lat="40.11449" lon="-8.47555">
        <ele>109.73</ele>
        <time>2019-05-21T06:52:04Z</time>
      </trkpt>
      <trkpt lat="40.1146" lon="-8.47544">
        <ele>110.21</ele>
        <time>2019-05-21T06:52:15Z</time>
      </trkpt>
      <trkpt lat="40.11464" lon="-8.47545">
        <ele>109.73</ele>
        <time>2019-05-21T06:52:20Z</time>
      </trkpt>
      <trkpt lat="40.11466" lon="-8.47544">
        <ele>109.25</ele>
        <time>2019-05-21T06:52:22Z</time>
      </trkpt>
      <trkpt lat="40.11479" lon="-8.47527">
        <ele>108.77</ele>
        <time>2019-05-21T06:52:37Z</time>
      </trkpt>
      <trkpt lat="40.11491" lon="-8.47515">
        <ele>108.77</ele>
        <time>2019-05-21T06:52:50Z</time>
      </trkpt>
      <trkpt lat="40.1151" lon="-8.47503">
        <ele>108.29</ele>
        <time>2019-05-21T06:53:07Z</time>
      </trkpt>
      <trkpt lat="40.11527" lon="-8.47496">
        <ele>107.81</ele>
        <time>2019-05-21T06:53:21Z</time>
      </trkpt>
      <trkpt lat="40.1154" lon="-8.4749">
        <ele>107.32</ele>
        <time>2019-05-21T06:53:34Z</time>
      </trkpt>
      <trkpt lat="40.11554" lon="-8.47487">
        <ele>107.32</ele>
        <time>2019-05-21T06:53:47Z</time>
      </trkpt>
      <trkpt lat="40.11571" lon="-8.47481">
        <ele>106.84</ele>
        <time>2019-05-21T06:54:01Z</time>
      </trkpt>
      <trkpt lat="40.11588" lon="-8.47471">
        <ele>106.84</ele>
        <time>2019-05-21T06:54:16Z</time>
      </trkpt>
      <trkpt lat="40.11604" lon="-8.47462">
        <ele>106.84</ele>
        <time>2019-05-21T06:54:30Z</time>
      </trkpt>
      <trkpt lat="40.11614" lon="-8.47455">
        <ele>106.84</ele>
        <time>2019-05-21T06:54:39Z</time>
      </trkpt>
      <trkpt lat="40.1163" lon="-8.47445">
        <ele>106.36</ele>
        <time>2019-05-21T06:54:53Z</time>
      </trkpt>
      <trkpt lat="40.11645" lon="-8.47432">
        <ele>106.36</ele>
        <time>2019-05-21T06:55:08Z</time>
      </trkpt>
      <trkpt lat="40.11661" lon="-8.47419">
        <ele>106.84</ele>
        <time>2019-05-21T06:55:24Z</time>
      </trkpt>
      <trkpt lat="40.11677" lon="-8.4741">
        <ele>106.36</ele>
        <time>2019-05-21T06:55:38Z</time>
      </trkpt>
      <trkpt lat="40.11694" lon="-8.47402">
        <ele>106.84</ele>
        <time>2019-05-21T06:55:52Z</time>
      </trkpt>
      <trkpt lat="40.11714" lon="-8.47392">
        <ele>106.84</ele>
        <time>2019-05-21T06:56:09Z</time>
      </trkpt>
      <trkpt lat="40.11722" lon="-8.47386">
        <ele>106.84</ele>
        <time>2019-05-21T06:56:17Z</time>
      </trkpt>
      <trkpt lat="40.11741" lon="-8.47382">
        <ele>106.84</ele>
        <time>2019-05-21T06:56:32Z</time>
      </trkpt>
      <trkpt lat="40.11761" lon="-8.47391">
        <ele>105.88</ele>
        <time>2019-05-21T06:56:50Z</time>
      </trkpt>
      <trkpt lat="40.11777" lon="-8.47404">
        <ele>106.36</ele>
        <time>2019-05-21T06:57:06Z</time>
      </trkpt>
      <trkpt lat="40.11781" lon="-8.47407">
        <ele>105.88</ele>
        <time>2019-05-21T06:57:10Z</time>
      </trkpt>
      <trkpt lat="40.11794" lon="-8.47415">
        <ele>105.88</ele>
        <time>2019-05-21T06:57:21Z</time>
      </trkpt>
      <trkpt lat="40.11807" lon="-8.47421">
        <ele>106.36</ele>
        <time>2019-05-21T06:57:36Z</time>
      </trkpt>
      <trkpt lat="40.11816" lon="-8.47427">
        <ele>106.84</ele>
        <time>2019-05-21T06:57:48Z</time>
      </trkpt>
      <trkpt lat="40.11819" lon="-8.47429">
        <ele>106.84</ele>
        <time>2019-05-21T06:57:51Z</time>
      </trkpt>
      <trkpt lat="40.11825" lon="-8.47432">
        <ele>107.32</ele>
        <time>2019-05-21T06:57:56Z</time>
      </trkpt>
      <trkpt lat="40.11839" lon="-8.4744">
        <ele>108.29</ele>
        <time>2019-05-21T06:58:11Z</time>
      </trkpt>
      <trkpt lat="40.1184" lon="-8.47442">
        <ele>108.29</ele>
        <time>2019-05-21T06:58:13Z</time>
      </trkpt>
      <trkpt lat="40.11858" lon="-8.47454">
        <ele>109.73</ele>
        <time>2019-05-21T06:58:31Z</time>
      </trkpt>
      <trkpt lat="40.11875" lon="-8.47466">
        <ele>111.17</ele>
        <time>2019-05-21T06:58:48Z</time>
      </trkpt>
      <trkpt lat="40.11892" lon="-8.47478">
        <ele>112.61</ele>
        <time>2019-05-21T06:59:04Z</time>
      </trkpt>
      <trkpt lat="40.11893" lon="-8.47478">
        <ele>112.61</ele>
        <time>2019-05-21T06:59:05Z</time>
      </trkpt>
      <trkpt lat="40.11895" lon="-8.4748">
        <ele>112.61</ele>
        <time>2019-05-21T06:59:07Z</time>
      </trkpt>
      <trkpt lat="40.11909" lon="-8.47492">
        <ele>113.09</ele>
        <time>2019-05-21T06:59:22Z</time>
      </trkpt>
      <trkpt lat="40.11915" lon="-8.47497">
        <ele>112.61</ele>
        <time>2019-05-21T06:59:27Z</time>
      </trkpt>
      <trkpt lat="40.11931" lon="-8.4751">
        <ele>113.09</ele>
        <time>2019-05-21T06:59:43Z</time>
      </trkpt>
      <trkpt lat="40.11934" lon="-8.47513">
        <ele>113.09</ele>
        <time>2019-05-21T06:59:46Z</time>
      </trkpt>
      <trkpt lat="40.11953" lon="-8.47527">
        <ele>112.61</ele>
        <time>2019-05-21T07:00:03Z</time>
      </trkpt>
      <trkpt lat="40.11967" lon="-8.47537">
        <ele>111.17</ele>
        <time>2019-05-21T07:00:16Z</time>
      </trkpt>
      <trkpt lat="40.11979" lon="-8.47551">
        <ele>110.21</ele>
        <time>2019-05-21T07:00:29Z</time>
      </trkpt>
      <trkpt lat="40.11985" lon="-8.47555">
        <ele>110.21</ele>
        <time>2019-05-21T07:00:38Z</time>
      </trkpt>
      <trkpt lat="40.11999" lon="-8.47567">
        <ele>110.21</ele>
        <time>2019-05-21T07:00:52Z</time>
      </trkpt>
      <trkpt lat="40.12012" lon="-8.4758">
        <ele>109.73</ele>
        <time>2019-05-21T07:01:05Z</time>
      </trkpt>
      <trkpt lat="40.12028" lon="-8.47595">
        <ele>110.21</ele>
        <time>2019-05-21T07:01:20Z</time>
      </trkpt>
      <trkpt lat="40.12041" lon="-8.47606">
        <ele>109.25</ele>
        <time>2019-05-21T07:01:33Z</time>
      </trkpt>
      <trkpt lat="40.1205" lon="-8.47614">
        <ele>109.73</ele>
        <time>2019-05-21T07:01:45Z</time>
      </trkpt>
      <trkpt lat="40.12049" lon="-8.47615">
        <ele>109.73</ele>
        <time>2019-05-21T07:01:52Z</time>
      </trkpt>
      <trkpt lat="40.12051" lon="-8.47616">
        <ele>109.73</ele>
        <time>2019-05-21T07:01:54Z</time>
      </trkpt>
      <trkpt lat="40.12071" lon="-8.47625">
        <ele>109.25</ele>
        <time>2019-05-21T07:02:10Z</time>
      </trkpt>
      <trkpt lat="40.12091" lon="-8.47633">
        <ele>109.25</ele>
        <time>2019-05-21T07:02:25Z</time>
      </trkpt>
      <trkpt lat="40.1211" lon="-8.47645">
        <ele>108.77</ele>
        <time>2019-05-21T07:02:41Z</time>
      </trkpt>
      <trkpt lat="40.12129" lon="-8.47657">
        <ele>108.77</ele>
        <time>2019-05-21T07:02:58Z</time>
      </trkpt>
      <trkpt lat="40.12146" lon="-8.47668">
        <ele>109.25</ele>
        <time>2019-05-21T07:03:14Z</time>
      </trkpt>
      <trkpt lat="40.12164" lon="-8.47679">
        <ele>108.77</ele>
        <time>2019-05-21T07:03:30Z</time>
      </trkpt>
      <trkpt lat="40.12184" lon="-8.47692">
        <ele>107.81</ele>
        <time>2019-05-21T07:03:48Z</time>
      </trkpt>
      <trkpt lat="40.12199" lon="-8.47704">
        <ele>108.29</ele>
        <time>2019-05-21T07:04:02Z</time>
      </trkpt>
      <trkpt lat="40.12216" lon="-8.47719">
        <ele>106.84</ele>
        <time>2019-05-21T07:04:18Z</time>
      </trkpt>
      <trkpt lat="40.12234" lon="-8.47738">
        <ele>106.36</ele>
        <time>2019-05-21T07:04:36Z</time>
      </trkpt>
      <trkpt lat="40.12251" lon="-8.47755">
        <ele>105.4</ele>
        <time>2019-05-21T07:04:53Z</time>
      </trkpt>
      <trkpt lat="40.12267" lon="-8.47763">
        <ele>104.44</ele>
        <time>2019-05-21T07:05:10Z</time>
      </trkpt>
      <trkpt lat="40.12285" lon="-8.47769">
        <ele>103.96</ele>
        <time>2019-05-21T07:05:25Z</time>
      </trkpt>
      <trkpt lat="40.1229" lon="-8.47768">
        <ele>103.48</ele>
        <time>2019-05-21T07:05:40Z</time>
      </trkpt>
      <trkpt lat="40.12308" lon="-8.47772">
        <ele>102.52</ele>
        <time>2019-05-21T07:05:55Z</time>
      </trkpt>
      <trkpt lat="40.12329" lon="-8.47775">
        <ele>101.56</ele>
        <time>2019-05-21T07:06:12Z</time>
      </trkpt>
      <trkpt lat="40.12348" lon="-8.47776">
        <ele>101.08</ele>
        <time>2019-05-21T07:06:26Z</time>
      </trkpt>
      <trkpt lat="40.1237" lon="-8.47784">
        <ele>100.11</ele>
        <time>2019-05-21T07:06:45Z</time>
      </trkpt>
      <trkpt lat="40.12387" lon="-8.47789">
        <ele>100.11</ele>
        <time>2019-05-21T07:06:59Z</time>
      </trkpt>
      <trkpt lat="40.12391" lon="-8.47791">
        <ele>99.63</ele>
        <time>2019-05-21T07:07:03Z</time>
      </trkpt>
      <trkpt lat="40.12413" lon="-8.47797">
        <ele>99.15</ele>
        <time>2019-05-21T07:07:20Z</time>
      </trkpt>
      <trkpt lat="40.12429" lon="-8.478">
        <ele>98.19</ele>
        <time>2019-05-21T07:07:35Z</time>
      </trkpt>
      <trkpt lat="40.1243" lon="-8.478">
        <ele>98.19</ele>
        <time>2019-05-21T07:07:37Z</time>
      </trkpt>
      <trkpt lat="40.12447" lon="-8.47804">
        <ele>97.71</ele>
        <time>2019-05-21T07:07:51Z</time>
      </trkpt>
      <trkpt lat="40.12465" lon="-8.47803">
        <ele>96.75</ele>
        <time>2019-05-21T07:08:06Z</time>
      </trkpt>
      <trkpt lat="40.12484" lon="-8.478">
        <ele>95.31</ele>
        <time>2019-05-21T07:08:21Z</time>
      </trkpt>
      <trkpt lat="40.12499" lon="-8.47797">
        <ele>95.79</ele>
        <time>2019-05-21T07:08:33Z</time>
      </trkpt>
      <trkpt lat="40.12517" lon="-8.47794">
        <ele>95.79</ele>
        <time>2019-05-21T07:08:47Z</time>
      </trkpt>
      <trkpt lat="40.12527" lon="-8.47791">
        <ele>95.79</ele>
        <time>2019-05-21T07:08:56Z</time>
      </trkpt>
      <trkpt lat="40.12542" lon="-8.47787">
        <ele>95.31</ele>
        <time>2019-05-21T07:09:10Z</time>
      </trkpt>
      <trkpt lat="40.12555" lon="-8.47785">
        <ele>93.87</ele>
        <time>2019-05-21T07:09:23Z</time>
      </trkpt>
      <trkpt lat="40.12566" lon="-8.47784">
        <ele>93.39</ele>
        <time>2019-05-21T07:09:31Z</time>
      </trkpt>
      <trkpt lat="40.1258" lon="-8.4778">
        <ele>93.39</ele>
        <time>2019-05-21T07:09:43Z</time>
      </trkpt>
      <trkpt lat="40.12588" lon="-8.47771">
        <ele>92.9</ele>
        <time>2019-05-21T07:09:57Z</time>
      </trkpt>
      <trkpt lat="40.126" lon="-8.47759">
        <ele>92.42</ele>
        <time>2019-05-21T07:10:08Z</time>
      </trkpt>
      <trkpt lat="40.12607" lon="-8.4775">
        <ele>92.42</ele>
        <time>2019-05-21T07:10:16Z</time>
      </trkpt>
      <trkpt lat="40.12616" lon="-8.47743">
        <ele>91.46</ele>
        <time>2019-05-21T07:10:28Z</time>
      </trkpt>
      <trkpt lat="40.12624" lon="-8.47745">
        <ele>90.98</ele>
        <time>2019-05-21T07:10:39Z</time>
      </trkpt>
      <trkpt lat="40.12626" lon="-8.47746">
        <ele>90.5</ele>
        <time>2019-05-21T07:10:42Z</time>
      </trkpt>
      <trkpt lat="40.12649" lon="-8.47755">
        <ele>89.06</ele>
        <time>2019-05-21T07:10:56Z</time>
      </trkpt>
      <trkpt lat="40.12665" lon="-8.47757">
        <ele>86.66</ele>
        <time>2019-05-21T07:11:08Z</time>
      </trkpt>
      <trkpt lat="40.12674" lon="-8.47755">
        <ele>86.18</ele>
        <time>2019-05-21T07:11:15Z</time>
      </trkpt>
      <trkpt lat="40.12676" lon="-8.47752">
        <ele>85.69</ele>
        <time>2019-05-21T07:11:18Z</time>
      </trkpt>
      <trkpt lat="40.12678" lon="-8.47744">
        <ele>83.77</ele>
        <time>2019-05-21T07:11:26Z</time>
      </trkpt>
      <trkpt lat="40.12682" lon="-8.47736">
        <ele>82.81</ele>
        <time>2019-05-21T07:11:33Z</time>
      </trkpt>
      <trkpt lat="40.12685" lon="-8.47729">
        <ele>81.85</ele>
        <time>2019-05-21T07:11:38Z</time>
      </trkpt>
      <trkpt lat="40.12685" lon="-8.47707">
        <ele>80.41</ele>
        <time>2019-05-21T07:11:51Z</time>
      </trkpt>
      <trkpt lat="40.12685" lon="-8.47703">
        <ele>80.89</ele>
        <time>2019-05-21T07:11:53Z</time>
      </trkpt>
      <trkpt lat="40.12689" lon="-8.47698">
        <ele>80.41</ele>
        <time>2019-05-21T07:12:05Z</time>
      </trkpt>
      <trkpt lat="40.12692" lon="-8.47697">
        <ele>80.41</ele>
        <time>2019-05-21T07:12:21Z</time>
      </trkpt>
      <trkpt lat="40.12693" lon="-8.47692">
        <ele>79.93</ele>
        <time>2019-05-21T07:12:25Z</time>
      </trkpt>
      <trkpt lat="40.12701" lon="-8.47667">
        <ele>78.97</ele>
        <time>2019-05-21T07:12:41Z</time>
      </trkpt>
      <trkpt lat="40.12704" lon="-8.47648">
        <ele>77.04</ele>
        <time>2019-05-21T07:12:53Z</time>
      </trkpt>
      <trkpt lat="40.12705" lon="-8.47628">
        <ele>74.64</ele>
        <time>2019-05-21T07:13:05Z</time>
      </trkpt>
      <trkpt lat="40.12706" lon="-8.47603">
        <ele>73.2</ele>
        <time>2019-05-21T07:13:21Z</time>
      </trkpt>
      <trkpt lat="40.12703" lon="-8.47577">
        <ele>71.76</ele>
        <time>2019-05-21T07:13:36Z</time>
      </trkpt>
      <trkpt lat="40.12703" lon="-8.47554">
        <ele>70.31</ele>
        <time>2019-05-21T07:13:50Z</time>
      </trkpt>
      <trkpt lat="40.12715" lon="-8.47536">
        <ele>69.83</ele>
        <time>2019-05-21T07:14:04Z</time>
      </trkpt>
      <trkpt lat="40.12731" lon="-8.47521">
        <ele>69.83</ele>
        <time>2019-05-21T07:14:19Z</time>
      </trkpt>
      <trkpt lat="40.12746" lon="-8.47502">
        <ele>70.31</ele>
        <time>2019-05-21T07:14:36Z</time>
      </trkpt>
      <trkpt lat="40.12753" lon="-8.47491">
        <ele>70.31</ele>
        <time>2019-05-21T07:14:48Z</time>
      </trkpt>
      <trkpt lat="40.12753" lon="-8.47493">
        <ele>69.83</ele>
        <time>2019-05-21T07:14:59Z</time>
      </trkpt>
      <trkpt lat="40.12758" lon="-8.47481">
        <ele>70.31</ele>
        <time>2019-05-21T07:15:16Z</time>
      </trkpt>
      <trkpt lat="40.12766" lon="-8.4746">
        <ele>71.76</ele>
        <time>2019-05-21T07:15:32Z</time>
      </trkpt>
      <trkpt lat="40.12771" lon="-8.47441">
        <ele>72.24</ele>
        <time>2019-05-21T07:15:47Z</time>
      </trkpt>
      <trkpt lat="40.12777" lon="-8.47421">
        <ele>74.16</ele>
        <time>2019-05-21T07:16:03Z</time>
      </trkpt>
      <trkpt lat="40.12781" lon="-8.47403">
        <ele>76.56</ele>
        <time>2019-05-21T07:16:17Z</time>
      </trkpt>
      <trkpt lat="40.12785" lon="-8.47389">
        <ele>77.04</ele>
        <time>2019-05-21T07:16:28Z</time>
      </trkpt>
      <trkpt lat="40.12789" lon="-8.47366">
        <ele>78.48</ele>
        <time>2019-05-21T07:16:44Z</time>
      </trkpt>
      <trkpt lat="40.12793" lon="-8.47358">
        <ele>78.97</ele>
        <time>2019-05-21T07:16:50Z</time>
      </trkpt>
      <trkpt lat="40.12797" lon="-8.4734">
        <ele>78.97</ele>
        <time>2019-05-21T07:17:02Z</time>
      </trkpt>
      <trkpt lat="40.12799" lon="-8.47335">
        <ele>78.97</ele>
        <time>2019-05-21T07:17:06Z</time>
      </trkpt>
      <trkpt lat="40.128" lon="-8.47329">
        <ele>79.45</ele>
        <time>2019-05-21T07:17:10Z</time>
      </trkpt>
      <trkpt lat="40.12802" lon="-8.4732">
        <ele>79.45</ele>
        <time>2019-05-21T07:17:16Z</time>
      </trkpt>
      <trkpt lat="40.12805" lon="-8.47302">
        <ele>80.89</ele>
        <time>2019-05-21T07:17:30Z</time>
      </trkpt>
      <trkpt lat="40.1281" lon="-8.4728">
        <ele>80.89</ele>
        <time>2019-05-21T07:17:44Z</time>
      </trkpt>
      <trkpt lat="40.12817" lon="-8.4727">
        <ele>81.37</ele>
        <time>2019-05-21T07:17:53Z</time>
      </trkpt>
      <trkpt lat="40.12822" lon="-8.47263">
        <ele>81.85</ele>
        <time>2019-05-21T07:17:59Z</time>
      </trkpt>
      <trkpt lat="40.12828" lon="-8.47241">
        <ele>82.33</ele>
        <time>2019-05-21T07:18:13Z</time>
      </trkpt>
      <trkpt lat="40.12829" lon="-8.47232">
        <ele>82.81</ele>
        <time>2019-05-21T07:18:19Z</time>
      </trkpt>
      <trkpt lat="40.1283" lon="-8.47221">
        <ele>83.29</ele>
        <time>2019-05-21T07:18:26Z</time>
      </trkpt>
      <trkpt lat="40.12833" lon="-8.4721">
        <ele>83.77</ele>
        <time>2019-05-21T07:18:34Z</time>
      </trkpt>
      <trkpt lat="40.12844" lon="-8.47192">
        <ele>84.25</ele>
        <time>2019-05-21T07:18:48Z</time>
      </trkpt>
      <trkpt lat="40.12855" lon="-8.47174">
        <ele>84.73</ele>
        <time>2019-05-21T07:19:02Z</time>
      </trkpt>
      <trkpt lat="40.12862" lon="-8.4715">
        <ele>85.69</ele>
        <time>2019-05-21T07:19:18Z</time>
      </trkpt>
      <trkpt lat="40.12863" lon="-8.47137">
        <ele>86.18</ele>
        <time>2019-05-21T07:19:26Z</time>
      </trkpt>
      <trkpt lat="40.12868" lon="-8.47113">
        <ele>87.14</ele>
        <time>2019-05-21T07:19:43Z</time>
      </trkpt>
      <trkpt lat="40.1288" lon="-8.47095">
        <ele>87.62</ele>
        <time>2019-05-21T07:19:57Z</time>
      </trkpt>
      <trkpt lat="40.12898" lon="-8.47091">
        <ele>88.58</ele>
        <time>2019-05-21T07:20:13Z</time>
      </trkpt>
      <trkpt lat="40.1291" lon="-8.47093">
        <ele>90.5</ele>
        <time>2019-05-21T07:20:27Z</time>
      </trkpt>
      <trkpt lat="40.12926" lon="-8.47094">
        <ele>90.98</ele>
        <time>2019-05-21T07:20:41Z</time>
      </trkpt>
      <trkpt lat="40.12945" lon="-8.47096">
        <ele>90.98</ele>
        <time>2019-05-21T07:20:56Z</time>
      </trkpt>
      <trkpt lat="40.12958" lon="-8.47098">
        <ele>90.98</ele>
        <time>2019-05-21T07:21:10Z</time>
      </trkpt>
      <trkpt lat="40.12974" lon="-8.47109">
        <ele>90.98</ele>
        <time>2019-05-21T07:21:24Z</time>
      </trkpt>
      <trkpt lat="40.12986" lon="-8.47124">
        <ele>90.5</ele>
        <time>2019-05-21T07:21:39Z</time>
      </trkpt>
      <trkpt lat="40.13004" lon="-8.47135">
        <ele>90.5</ele>
        <time>2019-05-21T07:21:53Z</time>
      </trkpt>
      <trkpt lat="40.13011" lon="-8.47137">
        <ele>90.98</ele>
        <time>2019-05-21T07:21:59Z</time>
      </trkpt>
      <trkpt lat="40.13021" lon="-8.47143">
        <ele>91.46</ele>
        <time>2019-05-21T07:22:16Z</time>
      </trkpt>
      <trkpt lat="40.13022" lon="-8.47141">
        <ele>90.98</ele>
        <time>2019-05-21T07:22:28Z</time>
      </trkpt>
      <trkpt lat="40.13022" lon="-8.47141">
        <ele>90.98</ele>
        <time>2019-05-21T07:22:58Z</time>
      </trkpt>
      <trkpt lat="40.13022" lon="-8.47142">
        <ele>90.5</ele>
        <time>2019-05-21T07:23:21Z</time>
      </trkpt>
      <trkpt lat="40.13021" lon="-8.47142">
        <ele>90.98</ele>
        <time>2019-05-21T07:23:49Z</time>
      </trkpt>
      <trkpt lat="40.13021" lon="-8.47141">
        <ele>91.46</ele>
        <time>2019-05-21T07:24:17Z</time>
      </trkpt>
      <trkpt lat="40.1302" lon="-8.47141">
        <ele>90.5</ele>
        <time>2019-05-21T07:24:28Z</time>
      </trkpt>
      <trkpt lat="40.13022" lon="-8.47141">
        <ele>95.79</ele>
        <time>2019-05-21T07:24:43Z</time>
      </trkpt>
      <trkpt lat="40.13023" lon="-8.47142">
        <ele>91.94</ele>
        <time>2019-05-21T07:24:44Z</time>
      </trkpt>
      <trkpt lat="40.13026" lon="-8.47148">
        <ele>91.94</ele>
        <time>2019-05-21T07:25:00Z</time>
      </trkpt>
      <trkpt lat="40.13026" lon="-8.47148">
        <ele>92.42</ele>
        <time>2019-05-21T07:25:18Z</time>
      </trkpt>
      <trkpt lat="40.13025" lon="-8.47151">
        <ele>92.42</ele>
        <time>2019-05-21T07:25:27Z</time>
      </trkpt>
      <trkpt lat="40.13034" lon="-8.47166">
        <ele>93.39</ele>
        <time>2019-05-21T07:25:43Z</time>
      </trkpt>
      <trkpt lat="40.13045" lon="-8.47176">
        <ele>95.79</ele>
        <time>2019-05-21T07:25:58Z</time>
      </trkpt>
      <trkpt lat="40.13061" lon="-8.47183">
        <ele>97.71</ele>
        <time>2019-05-21T07:26:14Z</time>
      </trkpt>
      <trkpt lat="40.13065" lon="-8.47182">
        <ele>97.23</ele>
        <time>2019-05-21T07:26:19Z</time>
      </trkpt>
      <trkpt lat="40.13077" lon="-8.47176">
        <ele>100.11</ele>
        <time>2019-05-21T07:26:35Z</time>
      </trkpt>
      <trkpt lat="40.13088" lon="-8.47176">
        <ele>101.56</ele>
        <time>2019-05-21T07:26:50Z</time>
      </trkpt>
      <trkpt lat="40.13098" lon="-8.47174">
        <ele>103.96</ele>
        <time>2019-05-21T07:27:02Z</time>
      </trkpt>
      <trkpt lat="40.13111" lon="-8.47179">
        <ele>104.92</ele>
        <time>2019-05-21T07:27:15Z</time>
      </trkpt>
      <trkpt lat="40.13117" lon="-8.47185">
        <ele>104.92</ele>
        <time>2019-05-21T07:27:22Z</time>
      </trkpt>
      <trkpt lat="40.13131" lon="-8.47198">
        <ele>105.4</ele>
        <time>2019-05-21T07:27:37Z</time>
      </trkpt>
      <trkpt lat="40.13147" lon="-8.47205">
        <ele>104.92</ele>
        <time>2019-05-21T07:27:52Z</time>
      </trkpt>
      <trkpt lat="40.13163" lon="-8.4721">
        <ele>105.88</ele>
        <time>2019-05-21T07:28:05Z</time>
      </trkpt>
      <trkpt lat="40.13181" lon="-8.4721">
        <ele>106.36</ele>
        <time>2019-05-21T07:28:20Z</time>
      </trkpt>
      <trkpt lat="40.13198" lon="-8.47211">
        <ele>106.36</ele>
        <time>2019-05-21T07:28:34Z</time>
      </trkpt>
      <trkpt lat="40.13204" lon="-8.47211">
        <ele>106.36</ele>
        <time>2019-05-21T07:28:39Z</time>
      </trkpt>
      <trkpt lat="40.13212" lon="-8.47214">
        <ele>106.84</ele>
        <time>2019-05-21T07:28:46Z</time>
      </trkpt>
      <trkpt lat="40.13217" lon="-8.47213">
        <ele>106.84</ele>
        <time>2019-05-21T07:28:54Z</time>
      </trkpt>
      <trkpt lat="40.13219" lon="-8.47212">
        <ele>106.84</ele>
        <time>2019-05-21T07:28:56Z</time>
      </trkpt>
      <trkpt lat="40.13222" lon="-8.47213">
        <ele>106.84</ele>
        <time>2019-05-21T07:29:02Z</time>
      </trkpt>
      <trkpt lat="40.13233" lon="-8.47211">
        <ele>106.84</ele>
        <time>2019-05-21T07:29:11Z</time>
      </trkpt>
      <trkpt lat="40.13257" lon="-8.47213">
        <ele>106.84</ele>
        <time>2019-05-21T07:29:30Z</time>
      </trkpt>
      <trkpt lat="40.13271" lon="-8.47213">
        <ele>106.84</ele>
        <time>2019-05-21T07:29:43Z</time>
      </trkpt>
      <trkpt lat="40.13292" lon="-8.4721">
        <ele>106.84</ele>
        <time>2019-05-21T07:29:59Z</time>
      </trkpt>
      <trkpt lat="40.13302" lon="-8.47208">
        <ele>107.32</ele>
        <time>2019-05-21T07:30:10Z</time>
      </trkpt>
      <trkpt lat="40.13324" lon="-8.47208">
        <ele>107.32</ele>
        <time>2019-05-21T07:30:26Z</time>
      </trkpt>
      <trkpt lat="40.13341" lon="-8.47206">
        <ele>107.32</ele>
        <time>2019-05-21T07:30:41Z</time>
      </trkpt>
      <trkpt lat="40.13351" lon="-8.47208">
        <ele>107.81</ele>
        <time>2019-05-21T07:30:52Z</time>
      </trkpt>
      <trkpt lat="40.13351" lon="-8.47212">
        <ele>106.36</ele>
        <time>2019-05-21T07:30:55Z</time>
      </trkpt>
      <trkpt lat="40.13346" lon="-8.47234">
        <ele>106.36</ele>
        <time>2019-05-21T07:31:10Z</time>
      </trkpt>
      <trkpt lat="40.13344" lon="-8.47245">
        <ele>106.36</ele>
        <time>2019-05-21T07:31:21Z</time>
      </trkpt>
      <trkpt lat="40.13339" lon="-8.47269">
        <ele>105.4</ele>
        <time>2019-05-21T07:31:36Z</time>
      </trkpt>
      <trkpt lat="40.13335" lon="-8.47293">
        <ele>105.4</ele>
        <time>2019-05-21T07:31:51Z</time>
      </trkpt>
      <trkpt lat="40.13336" lon="-8.47318">
        <ele>105.4</ele>
        <time>2019-05-21T07:32:06Z</time>
      </trkpt>
      <trkpt lat="40.13346" lon="-8.47343">
        <ele>104.92</ele>
        <time>2019-05-21T07:32:23Z</time>
      </trkpt>
      <trkpt lat="40.13356" lon="-8.4736">
        <ele>105.4</ele>
        <time>2019-05-21T07:32:37Z</time>
      </trkpt>
      <trkpt lat="40.13362" lon="-8.4737">
        <ele>105.88</ele>
        <time>2019-05-21T07:32:50Z</time>
      </trkpt>
      <trkpt lat="40.13372" lon="-8.47388">
        <ele>105.88</ele>
        <time>2019-05-21T07:33:03Z</time>
      </trkpt>
      <trkpt lat="40.13376" lon="-8.47393">
        <ele>105.4</ele>
        <time>2019-05-21T07:33:08Z</time>
      </trkpt>
      <trkpt lat="40.13384" lon="-8.47389">
        <ele>105.4</ele>
        <time>2019-05-21T07:33:16Z</time>
      </trkpt>
      <trkpt lat="40.13404" lon="-8.47393">
        <ele>105.88</ele>
        <time>2019-05-21T07:33:33Z</time>
      </trkpt>
      <trkpt lat="40.13406" lon="-8.47392">
        <ele>106.36</ele>
        <time>2019-05-21T07:33:36Z</time>
      </trkpt>
      <trkpt lat="40.13409" lon="-8.47388">
        <ele>106.36</ele>
        <time>2019-05-21T07:33:40Z</time>
      </trkpt>
      <trkpt lat="40.13413" lon="-8.47387">
        <ele>105.88</ele>
        <time>2019-05-21T07:33:43Z</time>
      </trkpt>
      <trkpt lat="40.13422" lon="-8.47379">
        <ele>105.88</ele>
        <time>2019-05-21T07:33:52Z</time>
      </trkpt>
      <trkpt lat="40.13424" lon="-8.47357">
        <ele>106.36</ele>
        <time>2019-05-21T07:34:06Z</time>
      </trkpt>
      <trkpt lat="40.13424" lon="-8.47335">
        <ele>106.84</ele>
        <time>2019-05-21T07:34:19Z</time>
      </trkpt>
      <trkpt lat="40.13424" lon="-8.47327">
        <ele>106.36</ele>
        <time>2019-05-21T07:34:24Z</time>
      </trkpt>
      <trkpt lat="40.13426" lon="-8.47304">
        <ele>107.32</ele>
        <time>2019-05-21T07:34:39Z</time>
      </trkpt>
      <trkpt lat="40.1343" lon="-8.47281">
        <ele>106.84</ele>
        <time>2019-05-21T07:34:54Z</time>
      </trkpt>
      <trkpt lat="40.13442" lon="-8.4726">
        <ele>107.81</ele>
        <time>2019-05-21T07:35:10Z</time>
      </trkpt>
      <trkpt lat="40.13454" lon="-8.47241">
        <ele>106.84</ele>
        <time>2019-05-21T07:35:25Z</time>
      </trkpt>
      <trkpt lat="40.13465" lon="-8.47223">
        <ele>106.84</ele>
        <time>2019-05-21T07:35:40Z</time>
      </trkpt>
      <trkpt lat="40.13478" lon="-8.47206">
        <ele>106.36</ele>
        <time>2019-05-21T07:35:55Z</time>
      </trkpt>
      <trkpt lat="40.1349" lon="-8.47189">
        <ele>106.84</ele>
        <time>2019-05-21T07:36:10Z</time>
      </trkpt>
      <trkpt lat="40.13492" lon="-8.47187">
        <ele>107.32</ele>
        <time>2019-05-21T07:36:12Z</time>
      </trkpt>
      <trkpt lat="40.13492" lon="-8.47184">
        <ele>106.84</ele>
        <time>2019-05-21T07:36:26Z</time>
      </trkpt>
      <trkpt lat="40.13504" lon="-8.47176">
        <ele>106.36</ele>
        <time>2019-05-21T07:36:39Z</time>
      </trkpt>
      <trkpt lat="40.13521" lon="-8.4717">
        <ele>106.36</ele>
        <time>2019-05-21T07:36:55Z</time>
      </trkpt>
      <trkpt lat="40.13536" lon="-8.4716">
        <ele>106.36</ele>
        <time>2019-05-21T07:37:08Z</time>
      </trkpt>
      <trkpt lat="40.13543" lon="-8.47153">
        <ele>106.36</ele>
        <time>2019-05-21T07:37:15Z</time>
      </trkpt>
      <trkpt lat="40.13549" lon="-8.4715">
        <ele>106.84</ele>
        <time>2019-05-21T07:37:19Z</time>
      </trkpt>
      <trkpt lat="40.13566" lon="-8.47137">
        <ele>106.84</ele>
        <time>2019-05-21T07:37:35Z</time>
      </trkpt>
      <trkpt lat="40.13573" lon="-8.47134">
        <ele>106.84</ele>
        <time>2019-05-21T07:37:42Z</time>
      </trkpt>
      <trkpt lat="40.13579" lon="-8.4713">
        <ele>106.36</ele>
        <time>2019-05-21T07:37:48Z</time>
      </trkpt>
      <trkpt lat="40.13598" lon="-8.47122">
        <ele>106.36</ele>
        <time>2019-05-21T07:38:04Z</time>
      </trkpt>
      <trkpt lat="40.13603" lon="-8.47119">
        <ele>106.36</ele>
        <time>2019-05-21T07:38:09Z</time>
      </trkpt>
      <trkpt lat="40.1362" lon="-8.47109">
        <ele>105.88</ele>
        <time>2019-05-21T07:38:25Z</time>
      </trkpt>
      <trkpt lat="40.13641" lon="-8.4709">
        <ele>106.84</ele>
        <time>2019-05-21T07:38:42Z</time>
      </trkpt>
      <trkpt lat="40.13654" lon="-8.47072">
        <ele>107.32</ele>
        <time>2019-05-21T07:38:58Z</time>
      </trkpt>
      <trkpt lat="40.13664" lon="-8.47059">
        <ele>107.32</ele>
        <time>2019-05-21T07:39:10Z</time>
      </trkpt>
      <trkpt lat="40.13665" lon="-8.47056">
        <ele>107.32</ele>
        <time>2019-05-21T07:39:13Z</time>
      </trkpt>
      <trkpt lat="40.1368" lon="-8.47043">
        <ele>107.32</ele>
        <time>2019-05-21T07:39:26Z</time>
      </trkpt>
      <trkpt lat="40.13689" lon="-8.47033">
        <ele>107.32</ele>
        <time>2019-05-21T07:39:38Z</time>
      </trkpt>
      <trkpt lat="40.13696" lon="-8.47026">
        <ele>108.29</ele>
        <time>2019-05-21T07:39:45Z</time>
      </trkpt>
      <trkpt lat="40.13699" lon="-8.47022">
        <ele>107.32</ele>
        <time>2019-05-21T07:39:49Z</time>
      </trkpt>
      <trkpt lat="40.13703" lon="-8.4701">
        <ele>107.81</ele>
        <time>2019-05-21T07:39:59Z</time>
      </trkpt>
      <trkpt lat="40.13705" lon="-8.47005">
        <ele>107.81</ele>
        <time>2019-05-21T07:40:08Z</time>
      </trkpt>
      <trkpt lat="40.13715" lon="-8.47002">
        <ele>107.32</ele>
        <time>2019-05-21T07:40:19Z</time>
      </trkpt>
      <trkpt lat="40.13717" lon="-8.47001">
        <ele>107.32</ele>
        <time>2019-05-21T07:40:21Z</time>
      </trkpt>
      <trkpt lat="40.13728" lon="-8.46994">
        <ele>106.36</ele>
        <time>2019-05-21T07:40:33Z</time>
      </trkpt>
      <trkpt lat="40.1374" lon="-8.46984">
        <ele>105.88</ele>
        <time>2019-05-21T07:40:45Z</time>
      </trkpt>
      <trkpt lat="40.13752" lon="-8.46986">
        <ele>105.88</ele>
        <time>2019-05-21T07:40:57Z</time>
      </trkpt>
      <trkpt lat="40.13764" lon="-8.46984">
        <ele>105.88</ele>
        <time>2019-05-21T07:41:09Z</time>
      </trkpt>
      <trkpt lat="40.1378" lon="-8.46978">
        <ele>104.92</ele>
        <time>2019-05-21T07:41:22Z</time>
      </trkpt>
      <trkpt lat="40.13793" lon="-8.46968">
        <ele>104.92</ele>
        <time>2019-05-21T07:41:34Z</time>
      </trkpt>
      <trkpt lat="40.13803" lon="-8.4696">
        <ele>104.92</ele>
        <time>2019-05-21T07:41:47Z</time>
      </trkpt>
      <trkpt lat="40.13809" lon="-8.46955">
        <ele>103.96</ele>
        <time>2019-05-21T07:41:54Z</time>
      </trkpt>
      <trkpt lat="40.13811" lon="-8.46953">
        <ele>104.44</ele>
        <time>2019-05-21T07:41:56Z</time>
      </trkpt>
      <trkpt lat="40.13825" lon="-8.46948">
        <ele>104.44</ele>
        <time>2019-05-21T07:42:08Z</time>
      </trkpt>
      <trkpt lat="40.13839" lon="-8.46951">
        <ele>104.44</ele>
        <time>2019-05-21T07:42:21Z</time>
      </trkpt>
      <trkpt lat="40.13849" lon="-8.46956">
        <ele>104.92</ele>
        <time>2019-05-21T07:42:29Z</time>
      </trkpt>
      <trkpt lat="40.13857" lon="-8.46955">
        <ele>103.96</ele>
        <time>2019-05-21T07:42:35Z</time>
      </trkpt>
      <trkpt lat="40.13867" lon="-8.46954">
        <ele>104.44</ele>
        <time>2019-05-21T07:42:43Z</time>
      </trkpt>
      <trkpt lat="40.13872" lon="-8.4695">
        <ele>103.96</ele>
        <time>2019-05-21T07:42:47Z</time>
      </trkpt>
      <trkpt lat="40.13884" lon="-8.46925">
        <ele>103.96</ele>
        <time>2019-05-21T07:42:55Z</time>
      </trkpt>
      <trkpt lat="40.1389" lon="-8.46919">
        <ele>104.44</ele>
        <time>2019-05-21T07:43:00Z</time>
      </trkpt>
      <trkpt lat="40.13904" lon="-8.46902">
        <ele>104.92</ele>
        <time>2019-05-21T07:43:14Z</time>
      </trkpt>
      <trkpt lat="40.13917" lon="-8.46895">
        <ele>104.92</ele>
        <time>2019-05-21T07:43:25Z</time>
      </trkpt>
      <trkpt lat="40.13926" lon="-8.46892">
        <ele>104.44</ele>
        <time>2019-05-21T07:43:34Z</time>
      </trkpt>
      <trkpt lat="40.13933" lon="-8.46888">
        <ele>104.44</ele>
        <time>2019-05-21T07:43:41Z</time>
      </trkpt>
      <trkpt lat="40.1394" lon="-8.4688">
        <ele>104.44</ele>
        <time>2019-05-21T07:43:49Z</time>
      </trkpt>
      <trkpt lat="40.13944" lon="-8.46877">
        <ele>103</ele>
        <time>2019-05-21T07:43:53Z</time>
      </trkpt>
      <trkpt lat="40.13954" lon="-8.46865">
        <ele>103.48</ele>
        <time>2019-05-21T07:44:05Z</time>
      </trkpt>
      <trkpt lat="40.13958" lon="-8.46863">
        <ele>103.48</ele>
        <time>2019-05-21T07:44:08Z</time>
      </trkpt>
      <trkpt lat="40.13961" lon="-8.46862">
        <ele>103</ele>
        <time>2019-05-21T07:44:11Z</time>
      </trkpt>
      <trkpt lat="40.13973" lon="-8.46857">
        <ele>102.04</ele>
        <time>2019-05-21T07:44:24Z</time>
      </trkpt>
      <trkpt lat="40.13986" lon="-8.46853">
        <ele>101.56</ele>
        <time>2019-05-21T07:44:35Z</time>
      </trkpt>
      <trkpt lat="40.14001" lon="-8.46839">
        <ele>101.56</ele>
        <time>2019-05-21T07:44:48Z</time>
      </trkpt>
      <trkpt lat="40.14005" lon="-8.46838">
        <ele>101.08</ele>
        <time>2019-05-21T07:44:52Z</time>
      </trkpt>
      <trkpt lat="40.14017" lon="-8.46833">
        <ele>101.56</ele>
        <time>2019-05-21T07:45:05Z</time>
      </trkpt>
      <trkpt lat="40.14021" lon="-8.46827">
        <ele>101.08</ele>
        <time>2019-05-21T07:45:18Z</time>
      </trkpt>
      <trkpt lat="40.14023" lon="-8.46822">
        <ele>101.08</ele>
        <time>2019-05-21T07:45:22Z</time>
      </trkpt>
      <trkpt lat="40.14034" lon="-8.46798">
        <ele>101.56</ele>
        <time>2019-05-21T07:45:37Z</time>
      </trkpt>
      <trkpt lat="40.14034" lon="-8.46789">
        <ele>103</ele>
        <time>2019-05-21T07:45:44Z</time>
      </trkpt>
      <trkpt lat="40.14035" lon="-8.46778">
        <ele>102.52</ele>
        <time>2019-05-21T07:45:51Z</time>
      </trkpt>
      <trkpt lat="40.14042" lon="-8.4676">
        <ele>103.96</ele>
        <time>2019-05-21T07:46:06Z</time>
      </trkpt>
      <trkpt lat="40.14044" lon="-8.46754">
        <ele>103.48</ele>
        <time>2019-05-21T07:46:18Z</time>
      </trkpt>
      <trkpt lat="40.14046" lon="-8.4674">
        <ele>104.44</ele>
        <time>2019-05-21T07:46:30Z</time>
      </trkpt>
      <trkpt lat="40.14051" lon="-8.46729">
        <ele>104.44</ele>
        <time>2019-05-21T07:46:40Z</time>
      </trkpt>
      <trkpt lat="40.14053" lon="-8.46718">
        <ele>105.4</ele>
        <time>2019-05-21T07:46:50Z</time>
      </trkpt>
      <trkpt lat="40.14052" lon="-8.4669">
        <ele>107.32</ele>
        <time>2019-05-21T07:47:09Z</time>
      </trkpt>
      <trkpt lat="40.14054" lon="-8.46674">
        <ele>108.29</ele>
        <time>2019-05-21T07:47:20Z</time>
      </trkpt>
      <trkpt lat="40.14057" lon="-8.46654">
        <ele>111.17</ele>
        <time>2019-05-21T07:47:36Z</time>
      </trkpt>
      <trkpt lat="40.14057" lon="-8.4663">
        <ele>111.65</ele>
        <time>2019-05-21T07:47:53Z</time>
      </trkpt>
      <trkpt lat="40.14057" lon="-8.46625">
        <ele>111.65</ele>
        <time>2019-05-21T07:47:57Z</time>
      </trkpt>
      <trkpt lat="40.14056" lon="-8.46622">
        <ele>114.05</ele>
        <time>2019-05-21T07:47:59Z</time>
      </trkpt>
      <trkpt lat="40.14053" lon="-8.46607">
        <ele>115.5</ele>
        <time>2019-05-21T07:48:11Z</time>
      </trkpt>
      <trkpt lat="40.14047" lon="-8.46582">
        <ele>116.94</ele>
        <time>2019-05-21T07:48:30Z</time>
      </trkpt>
      <trkpt lat="40.14043" lon="-8.46572">
        <ele>119.34</ele>
        <time>2019-05-21T07:48:39Z</time>
      </trkpt>
      <trkpt lat="40.14041" lon="-8.46567">
        <ele>119.34</ele>
        <time>2019-05-21T07:48:43Z</time>
      </trkpt>
      <trkpt lat="40.14037" lon="-8.46561">
        <ele>117.9</ele>
        <time>2019-05-21T07:48:49Z</time>
      </trkpt>
      <trkpt lat="40.14035" lon="-8.46556">
        <ele>119.34</ele>
        <time>2019-05-21T07:48:57Z</time>
      </trkpt>
      <trkpt lat="40.1403" lon="-8.46551">
        <ele>119.34</ele>
        <time>2019-05-21T07:49:03Z</time>
      </trkpt>
      <trkpt lat="40.14017" lon="-8.46536">
        <ele>118.86</ele>
        <time>2019-05-21T07:49:17Z</time>
      </trkpt>
      <trkpt lat="40.14011" lon="-8.46528">
        <ele>118.38</ele>
        <time>2019-05-21T07:49:32Z</time>
      </trkpt>
      <trkpt lat="40.14007" lon="-8.4652">
        <ele>117.9</ele>
        <time>2019-05-21T07:49:46Z</time>
      </trkpt>
      <trkpt lat="40.14007" lon="-8.46515">
        <ele>118.38</ele>
        <time>2019-05-21T07:49:50Z</time>
      </trkpt>
      <trkpt lat="40.14011" lon="-8.46496">
        <ele>119.82</ele>
        <time>2019-05-21T07:50:04Z</time>
      </trkpt>
      <trkpt lat="40.14018" lon="-8.46477">
        <ele>120.78</ele>
        <time>2019-05-21T07:50:19Z</time>
      </trkpt>
      <trkpt lat="40.14028" lon="-8.46454">
        <ele>121.74</ele>
        <time>2019-05-21T07:50:35Z</time>
      </trkpt>
      <trkpt lat="40.14037" lon="-8.46432">
        <ele>122.71</ele>
        <time>2019-05-21T07:50:51Z</time>
      </trkpt>
      <trkpt lat="40.14044" lon="-8.46408">
        <ele>123.67</ele>
        <time>2019-05-21T07:51:05Z</time>
      </trkpt>
      <trkpt lat="40.14043" lon="-8.46385">
        <ele>123.19</ele>
        <time>2019-05-21T07:51:19Z</time>
      </trkpt>
      <trkpt lat="40.14044" lon="-8.46371">
        <ele>123.19</ele>
        <time>2019-05-21T07:51:29Z</time>
      </trkpt>
      <trkpt lat="40.14043" lon="-8.46363">
        <ele>122.71</ele>
        <time>2019-05-21T07:51:34Z</time>
      </trkpt>
      <trkpt lat="40.14043" lon="-8.46335">
        <ele>121.74</ele>
        <time>2019-05-21T07:51:50Z</time>
      </trkpt>
      <trkpt lat="40.14043" lon="-8.46328">
        <ele>122.22</ele>
        <time>2019-05-21T07:52:04Z</time>
      </trkpt>
      <trkpt lat="40.14043" lon="-8.4631">
        <ele>121.74</ele>
        <time>2019-05-21T07:52:18Z</time>
      </trkpt>
      <trkpt lat="40.14042" lon="-8.46282">
        <ele>120.78</ele>
        <time>2019-05-21T07:52:35Z</time>
      </trkpt>
      <trkpt lat="40.14042" lon="-8.46278">
        <ele>121.26</ele>
        <time>2019-05-21T07:52:37Z</time>
      </trkpt>
      <trkpt lat="40.14036" lon="-8.46249">
        <ele>120.78</ele>
        <time>2019-05-21T07:52:55Z</time>
      </trkpt>
      <trkpt lat="40.14034" lon="-8.46226">
        <ele>120.78</ele>
        <time>2019-05-21T07:53:09Z</time>
      </trkpt>
      <trkpt lat="40.14033" lon="-8.46216">
        <ele>119.82</ele>
        <time>2019-05-21T07:53:15Z</time>
      </trkpt>
      <trkpt lat="40.14031" lon="-8.46192">
        <ele>119.34</ele>
        <time>2019-05-21T07:53:30Z</time>
      </trkpt>
      <trkpt lat="40.14034" lon="-8.46163">
        <ele>118.38</ele>
        <time>2019-05-21T07:53:47Z</time>
      </trkpt>
      <trkpt lat="40.14036" lon="-8.46136">
        <ele>118.38</ele>
        <time>2019-05-21T07:54:02Z</time>
      </trkpt>
      <trkpt lat="40.14037" lon="-8.46106">
        <ele>117.9</ele>
        <time>2019-05-21T07:54:19Z</time>
      </trkpt>
      <trkpt lat="40.14037" lon="-8.4608">
        <ele>116.94</ele>
        <time>2019-05-21T07:54:34Z</time>
      </trkpt>
      <trkpt lat="40.14038" lon="-8.46055">
        <ele>116.94</ele>
        <time>2019-05-21T07:54:50Z</time>
      </trkpt>
      <trkpt lat="40.14038" lon="-8.46056">
        <ele>117.42</ele>
        <time>2019-05-21T07:54:51Z</time>
      </trkpt>
      <trkpt lat="40.14041" lon="-8.4604">
        <ele>117.9</ele>
        <time>2019-05-21T07:55:06Z</time>
      </trkpt>
      <trkpt lat="40.14039" lon="-8.46013">
        <ele>116.94</ele>
        <time>2019-05-21T07:55:23Z</time>
      </trkpt>
      <trkpt lat="40.14037" lon="-8.45999">
        <ele>117.9</ele>
        <time>2019-05-21T07:55:32Z</time>
      </trkpt>
      <trkpt lat="40.14034" lon="-8.45976">
        <ele>117.9</ele>
        <time>2019-05-21T07:55:46Z</time>
      </trkpt>
      <trkpt lat="40.1403" lon="-8.45947">
        <ele>117.9</ele>
        <time>2019-05-21T07:56:04Z</time>
      </trkpt>
      <trkpt lat="40.1403" lon="-8.45942">
        <ele>118.86</ele>
        <time>2019-05-21T07:56:08Z</time>
      </trkpt>
      <trkpt lat="40.14033" lon="-8.45919">
        <ele>118.38</ele>
        <time>2019-05-21T07:56:23Z</time>
      </trkpt>
      <trkpt lat="40.14037" lon="-8.45892">
        <ele>119.34</ele>
        <time>2019-05-21T07:56:39Z</time>
      </trkpt>
      <trkpt lat="40.14043" lon="-8.45871">
        <ele>118.86</ele>
        <time>2019-05-21T07:56:54Z</time>
      </trkpt>
      <trkpt lat="40.14047" lon="-8.45858">
        <ele>119.34</ele>
        <time>2019-05-21T07:57:08Z</time>
      </trkpt>
      <trkpt lat="40.1405" lon="-8.45842">
        <ele>119.34</ele>
        <time>2019-05-21T07:57:28Z</time>
      </trkpt>
      <trkpt lat="40.14051" lon="-8.4584">
        <ele>118.86</ele>
        <time>2019-05-21T07:57:29Z</time>
      </trkpt>
      <trkpt lat="40.14053" lon="-8.45816">
        <ele>119.82</ele>
        <time>2019-05-21T07:57:45Z</time>
      </trkpt>
      <trkpt lat="40.1406" lon="-8.45794">
        <ele>119.82</ele>
        <time>2019-05-21T07:58:00Z</time>
      </trkpt>
      <trkpt lat="40.14066" lon="-8.45769">
        <ele>120.3</ele>
        <time>2019-05-21T07:58:17Z</time>
      </trkpt>
      <trkpt lat="40.14071" lon="-8.45746">
        <ele>120.3</ele>
        <time>2019-05-21T07:58:32Z</time>
      </trkpt>
      <trkpt lat="40.1408" lon="-8.45723">
        <ele>120.3</ele>
        <time>2019-05-21T07:58:48Z</time>
      </trkpt>
      <trkpt lat="40.14084" lon="-8.45706">
        <ele>120.3</ele>
        <time>2019-05-21T07:59:01Z</time>
      </trkpt>
      <trkpt lat="40.14085" lon="-8.45698">
        <ele>121.26</ele>
        <time>2019-05-21T07:59:05Z</time>
      </trkpt>
      <trkpt lat="40.14082" lon="-8.45674">
        <ele>120.78</ele>
        <time>2019-05-21T07:59:21Z</time>
      </trkpt>
      <trkpt lat="40.1408" lon="-8.45656">
        <ele>120.78</ele>
        <time>2019-05-21T07:59:34Z</time>
      </trkpt>
      <trkpt lat="40.14077" lon="-8.45639">
        <ele>121.26</ele>
        <time>2019-05-21T07:59:48Z</time>
      </trkpt>
      <trkpt lat="40.14074" lon="-8.45618">
        <ele>121.74</ele>
        <time>2019-05-21T08:00:01Z</time>
      </trkpt>
      <trkpt lat="40.14072" lon="-8.45606">
        <ele>122.22</ele>
        <time>2019-05-21T08:00:08Z</time>
      </trkpt>
      <trkpt lat="40.14071" lon="-8.45582">
        <ele>122.71</ele>
        <time>2019-05-21T08:00:23Z</time>
      </trkpt>
      <trkpt lat="40.14072" lon="-8.45565">
        <ele>124.15</ele>
        <time>2019-05-21T08:00:37Z</time>
      </trkpt>
      <trkpt lat="40.14076" lon="-8.45543">
        <ele>125.11</ele>
        <time>2019-05-21T08:00:52Z</time>
      </trkpt>
      <trkpt lat="40.14079" lon="-8.45534">
        <ele>127.99</ele>
        <time>2019-05-21T08:00:59Z</time>
      </trkpt>
      <trkpt lat="40.14078" lon="-8.45524">
        <ele>126.55</ele>
        <time>2019-05-21T08:01:16Z</time>
      </trkpt>
      <trkpt lat="40.14078" lon="-8.45516">
        <ele>127.03</ele>
        <time>2019-05-21T08:01:23Z</time>
      </trkpt>
      <trkpt lat="40.1408" lon="-8.45505">
        <ele>127.99</ele>
        <time>2019-05-21T08:01:30Z</time>
      </trkpt>
      <trkpt lat="40.14086" lon="-8.45495">
        <ele>128.47</ele>
        <time>2019-05-21T08:01:39Z</time>
      </trkpt>
      <trkpt lat="40.14096" lon="-8.45493">
        <ele>129.92</ele>
        <time>2019-05-21T08:01:51Z</time>
      </trkpt>
      <trkpt lat="40.14104" lon="-8.45497">
        <ele>130.88</ele>
        <time>2019-05-21T08:01:59Z</time>
      </trkpt>
      <trkpt lat="40.14111" lon="-8.455">
        <ele>132.32</ele>
        <time>2019-05-21T08:02:06Z</time>
      </trkpt>
      <trkpt lat="40.14116" lon="-8.45502">
        <ele>133.76</ele>
        <time>2019-05-21T08:02:12Z</time>
      </trkpt>
      <trkpt lat="40.14134" lon="-8.45499">
        <ele>135.2</ele>
        <time>2019-05-21T08:02:29Z</time>
      </trkpt>
      <trkpt lat="40.14141" lon="-8.45492">
        <ele>135.2</ele>
        <time>2019-05-21T08:02:44Z</time>
      </trkpt>
      <trkpt lat="40.14144" lon="-8.45492">
        <ele>135.68</ele>
        <time>2019-05-21T08:03:09Z</time>
      </trkpt>
      <trkpt lat="40.14151" lon="-8.45474">
        <ele>133.28</ele>
        <time>2019-05-21T08:03:24Z</time>
      </trkpt>
      <trkpt lat="40.14156" lon="-8.45471">
        <ele>132.32</ele>
        <time>2019-05-21T08:03:30Z</time>
      </trkpt>
      <trkpt lat="40.14166" lon="-8.45452">
        <ele>131.84</ele>
        <time>2019-05-21T08:03:44Z</time>
      </trkpt>
      <trkpt lat="40.14174" lon="-8.4543">
        <ele>130.88</ele>
        <time>2019-05-21T08:03:58Z</time>
      </trkpt>
      <trkpt lat="40.14174" lon="-8.45424">
        <ele>131.84</ele>
        <time>2019-05-21T08:04:02Z</time>
      </trkpt>
      <trkpt lat="40.14181" lon="-8.45408">
        <ele>131.36</ele>
        <time>2019-05-21T08:04:13Z</time>
      </trkpt>
      <trkpt lat="40.14183" lon="-8.45403">
        <ele>131.84</ele>
        <time>2019-05-21T08:04:16Z</time>
      </trkpt>
      <trkpt lat="40.14185" lon="-8.454">
        <ele>131.84</ele>
        <time>2019-05-21T08:04:21Z</time>
      </trkpt>
      <trkpt lat="40.14187" lon="-8.45394">
        <ele>131.84</ele>
        <time>2019-05-21T08:04:26Z</time>
      </trkpt>
      <trkpt lat="40.14184" lon="-8.45367">
        <ele>132.32</ele>
        <time>2019-05-21T08:04:43Z</time>
      </trkpt>
      <trkpt lat="40.14182" lon="-8.4534">
        <ele>132.32</ele>
        <time>2019-05-21T08:04:59Z</time>
      </trkpt>
      <trkpt lat="40.1418" lon="-8.45314">
        <ele>131.84</ele>
        <time>2019-05-21T08:05:15Z</time>
      </trkpt>
      <trkpt lat="40.14187" lon="-8.45299">
        <ele>132.8</ele>
        <time>2019-05-21T08:05:29Z</time>
      </trkpt>
      <trkpt lat="40.142" lon="-8.45296">
        <ele>132.8</ele>
        <time>2019-05-21T08:05:40Z</time>
      </trkpt>
      <trkpt lat="40.1422" lon="-8.45285">
        <ele>133.28</ele>
        <time>2019-05-21T08:05:57Z</time>
      </trkpt>
      <trkpt lat="40.14232" lon="-8.45279">
        <ele>132.8</ele>
        <time>2019-05-21T08:06:09Z</time>
      </trkpt>
      <trkpt lat="40.14235" lon="-8.45278">
        <ele>134.24</ele>
        <time>2019-05-21T08:06:11Z</time>
      </trkpt>
      <trkpt lat="40.14238" lon="-8.45277">
        <ele>134.72</ele>
        <time>2019-05-21T08:06:14Z</time>
      </trkpt>
      <trkpt lat="40.14246" lon="-8.45271">
        <ele>135.68</ele>
        <time>2019-05-21T08:06:23Z</time>
      </trkpt>
      <trkpt lat="40.14257" lon="-8.45264">
        <ele>136.64</ele>
        <time>2019-05-21T08:06:34Z</time>
      </trkpt>
      <trkpt lat="40.14267" lon="-8.45258">
        <ele>136.64</ele>
        <time>2019-05-21T08:06:43Z</time>
      </trkpt>
      <trkpt lat="40.14283" lon="-8.45248">
        <ele>137.13</ele>
        <time>2019-05-21T08:06:59Z</time>
      </trkpt>
      <trkpt lat="40.14289" lon="-8.45243">
        <ele>137.61</ele>
        <time>2019-05-21T08:07:05Z</time>
      </trkpt>
      <trkpt lat="40.14301" lon="-8.45229">
        <ele>139.05</ele>
        <time>2019-05-21T08:07:20Z</time>
      </trkpt>
      <trkpt lat="40.14314" lon="-8.45214">
        <ele>139.53</ele>
        <time>2019-05-21T08:07:34Z</time>
      </trkpt>
      <trkpt lat="40.14325" lon="-8.45202">
        <ele>140.97</ele>
        <time>2019-05-21T08:07:47Z</time>
      </trkpt>
      <trkpt lat="40.14337" lon="-8.4519">
        <ele>143.37</ele>
        <time>2019-05-21T08:08:02Z</time>
      </trkpt>
      <trkpt lat="40.14339" lon="-8.45187">
        <ele>143.37</ele>
        <time>2019-05-21T08:08:06Z</time>
      </trkpt>
      <trkpt lat="40.14352" lon="-8.45174">
        <ele>145.78</ele>
        <time>2019-05-21T08:08:22Z</time>
      </trkpt>
      <trkpt lat="40.14358" lon="-8.45169">
        <ele>146.74</ele>
        <time>2019-05-21T08:08:29Z</time>
      </trkpt>
      <trkpt lat="40.14377" lon="-8.45164">
        <ele>147.7</ele>
        <time>2019-05-21T08:08:47Z</time>
      </trkpt>
      <trkpt lat="40.14392" lon="-8.45159">
        <ele>147.22</ele>
        <time>2019-05-21T08:09:01Z</time>
      </trkpt>
      <trkpt lat="40.14409" lon="-8.45157">
        <ele>147.7</ele>
        <time>2019-05-21T08:09:16Z</time>
      </trkpt>
      <trkpt lat="40.14422" lon="-8.45159">
        <ele>148.18</ele>
        <time>2019-05-21T08:09:28Z</time>
      </trkpt>
      <trkpt lat="40.14428" lon="-8.45159">
        <ele>148.18</ele>
        <time>2019-05-21T08:09:34Z</time>
      </trkpt>
      <trkpt lat="40.14436" lon="-8.45159">
        <ele>147.7</ele>
        <time>2019-05-21T08:09:42Z</time>
      </trkpt>
      <trkpt lat="40.14453" lon="-8.4516">
        <ele>148.18</ele>
        <time>2019-05-21T08:09:58Z</time>
      </trkpt>
      <trkpt lat="40.14454" lon="-8.45161">
        <ele>148.18</ele>
        <time>2019-05-21T08:09:59Z</time>
      </trkpt>
      <trkpt lat="40.14458" lon="-8.45165">
        <ele>148.66</ele>
        <time>2019-05-21T08:10:04Z</time>
      </trkpt>
      <trkpt lat="40.14469" lon="-8.45172">
        <ele>149.14</ele>
        <time>2019-05-21T08:10:18Z</time>
      </trkpt>
      <trkpt lat="40.1447" lon="-8.45171">
        <ele>148.66</ele>
        <time>2019-05-21T08:10:22Z</time>
      </trkpt>
      <trkpt lat="40.14485" lon="-8.45168">
        <ele>148.66</ele>
        <time>2019-05-21T08:10:35Z</time>
      </trkpt>
      <trkpt lat="40.14503" lon="-8.45164">
        <ele>149.14</ele>
        <time>2019-05-21T08:10:50Z</time>
      </trkpt>
      <trkpt lat="40.14521" lon="-8.4516">
        <ele>149.62</ele>
        <time>2019-05-21T08:11:04Z</time>
      </trkpt>
      <trkpt lat="40.14537" lon="-8.45156">
        <ele>150.1</ele>
        <time>2019-05-21T08:11:18Z</time>
      </trkpt>
      <trkpt lat="40.14552" lon="-8.45151">
        <ele>150.1</ele>
        <time>2019-05-21T08:11:31Z</time>
      </trkpt>
      <trkpt lat="40.14566" lon="-8.45143">
        <ele>150.58</ele>
        <time>2019-05-21T08:11:44Z</time>
      </trkpt>
      <trkpt lat="40.14572" lon="-8.4514">
        <ele>150.58</ele>
        <time>2019-05-21T08:11:50Z</time>
      </trkpt>
      <trkpt lat="40.14582" lon="-8.45134">
        <ele>151.06</ele>
        <time>2019-05-21T08:12:00Z</time>
      </trkpt>
      <trkpt lat="40.14587" lon="-8.45132">
        <ele>151.06</ele>
        <time>2019-05-21T08:12:05Z</time>
      </trkpt>
      <trkpt lat="40.14601" lon="-8.45132">
        <ele>151.06</ele>
        <time>2019-05-21T08:12:16Z</time>
      </trkpt>
      <trkpt lat="40.14618" lon="-8.45128">
        <ele>151.54</ele>
        <time>2019-05-21T08:12:30Z</time>
      </trkpt>
      <trkpt lat="40.14638" lon="-8.45126">
        <ele>152.03</ele>
        <time>2019-05-21T08:12:45Z</time>
      </trkpt>
      <trkpt lat="40.14657" lon="-8.4513">
        <ele>152.51</ele>
        <time>2019-05-21T08:13:01Z</time>
      </trkpt>
      <trkpt lat="40.14664" lon="-8.4513">
        <ele>153.47</ele>
        <time>2019-05-21T08:13:07Z</time>
      </trkpt>
      <trkpt lat="40.14681" lon="-8.45126">
        <ele>154.43</ele>
        <time>2019-05-21T08:13:22Z</time>
      </trkpt>
      <trkpt lat="40.14696" lon="-8.4512">
        <ele>156.35</ele>
        <time>2019-05-21T08:13:37Z</time>
      </trkpt>
      <trkpt lat="40.14706" lon="-8.45112">
        <ele>158.27</ele>
        <time>2019-05-21T08:13:51Z</time>
      </trkpt>
      <trkpt lat="40.14722" lon="-8.45104">
        <ele>159.72</ele>
        <time>2019-05-21T08:14:06Z</time>
      </trkpt>
      <trkpt lat="40.1473" lon="-8.45088">
        <ele>160.68</ele>
        <time>2019-05-21T08:14:21Z</time>
      </trkpt>
      <trkpt lat="40.14738" lon="-8.45073">
        <ele>161.16</ele>
        <time>2019-05-21T08:14:35Z</time>
      </trkpt>
      <trkpt lat="40.14745" lon="-8.45061">
        <ele>161.64</ele>
        <time>2019-05-21T08:14:50Z</time>
      </trkpt>
      <trkpt lat="40.14756" lon="-8.45043">
        <ele>163.56</ele>
        <time>2019-05-21T08:15:07Z</time>
      </trkpt>
      <trkpt lat="40.14766" lon="-8.45029">
        <ele>165.48</ele>
        <time>2019-05-21T08:15:24Z</time>
      </trkpt>
      <trkpt lat="40.14774" lon="-8.45015">
        <ele>168.37</ele>
        <time>2019-05-21T08:15:41Z</time>
      </trkpt>
      <trkpt lat="40.14776" lon="-8.45008">
        <ele>168.85</ele>
        <time>2019-05-21T08:15:46Z</time>
      </trkpt>
      <trkpt lat="40.14784" lon="-8.44987">
        <ele>169.33</ele>
        <time>2019-05-21T08:16:01Z</time>
      </trkpt>
      <trkpt lat="40.14791" lon="-8.44965">
        <ele>168.85</ele>
        <time>2019-05-21T08:16:16Z</time>
      </trkpt>
      <trkpt lat="40.14793" lon="-8.44962">
        <ele>168.85</ele>
        <time>2019-05-21T08:16:18Z</time>
      </trkpt>
      <trkpt lat="40.14797" lon="-8.44959">
        <ele>168.85</ele>
        <time>2019-05-21T08:16:22Z</time>
      </trkpt>
      <trkpt lat="40.14809" lon="-8.44956">
        <ele>168.85</ele>
        <time>2019-05-21T08:16:32Z</time>
      </trkpt>
      <trkpt lat="40.14813" lon="-8.44952">
        <ele>168.37</ele>
        <time>2019-05-21T08:16:37Z</time>
      </trkpt>
      <trkpt lat="40.1482" lon="-8.44946">
        <ele>168.85</ele>
        <time>2019-05-21T08:16:50Z</time>
      </trkpt>
      <trkpt lat="40.14826" lon="-8.44947">
        <ele>169.33</ele>
        <time>2019-05-21T08:17:02Z</time>
      </trkpt>
      <trkpt lat="40.14832" lon="-8.44943">
        <ele>169.33</ele>
        <time>2019-05-21T08:17:19Z</time>
      </trkpt>
      <trkpt lat="40.14835" lon="-8.4494">
        <ele>168.85</ele>
        <time>2019-05-21T08:17:29Z</time>
      </trkpt>
      <trkpt lat="40.14842" lon="-8.44936">
        <ele>168.85</ele>
        <time>2019-05-21T08:17:35Z</time>
      </trkpt>
      <trkpt lat="40.14859" lon="-8.44922">
        <ele>168.37</ele>
        <time>2019-05-21T08:17:51Z</time>
      </trkpt>
      <trkpt lat="40.14865" lon="-8.44919">
        <ele>168.37</ele>
        <time>2019-05-21T08:17:56Z</time>
      </trkpt>
      <trkpt lat="40.14874" lon="-8.44909">
        <ele>168.85</ele>
        <time>2019-05-21T08:18:09Z</time>
      </trkpt>
      <trkpt lat="40.14878" lon="-8.44911">
        <ele>168.37</ele>
        <time>2019-05-21T08:18:42Z</time>
      </trkpt>
      <trkpt lat="40.14882" lon="-8.4491">
        <ele>168.37</ele>
        <time>2019-05-21T08:18:53Z</time>
      </trkpt>
      <trkpt lat="40.149" lon="-8.449">
        <ele>168.85</ele>
        <time>2019-05-21T08:19:10Z</time>
      </trkpt>
      <trkpt lat="40.14919" lon="-8.44893">
        <ele>168.37</ele>
        <time>2019-05-21T08:19:27Z</time>
      </trkpt>
      <trkpt lat="40.14938" lon="-8.44885">
        <ele>168.85</ele>
        <time>2019-05-21T08:19:44Z</time>
      </trkpt>
      <trkpt lat="40.14948" lon="-8.44881">
        <ele>168.37</ele>
        <time>2019-05-21T08:19:53Z</time>
      </trkpt>
      <trkpt lat="40.14952" lon="-8.44877">
        <ele>168.85</ele>
        <time>2019-05-21T08:19:57Z</time>
      </trkpt>
      <trkpt lat="40.14955" lon="-8.44875">
        <ele>168.85</ele>
        <time>2019-05-21T08:20:01Z</time>
      </trkpt>
      <trkpt lat="40.14977" lon="-8.4487">
        <ele>168.37</ele>
        <time>2019-05-21T08:20:15Z</time>
      </trkpt>
      <trkpt lat="40.14987" lon="-8.44867">
        <ele>168.85</ele>
        <time>2019-05-21T08:20:24Z</time>
      </trkpt>
      <trkpt lat="40.15" lon="-8.44858">
        <ele>169.33</ele>
        <time>2019-05-21T08:20:38Z</time>
      </trkpt>
      <trkpt lat="40.1502" lon="-8.44855">
        <ele>169.33</ele>
        <time>2019-05-21T08:20:50Z</time>
      </trkpt>
      <trkpt lat="40.15025" lon="-8.44853">
        <ele>168.85</ele>
        <time>2019-05-21T08:20:55Z</time>
      </trkpt>
      <trkpt lat="40.15042" lon="-8.4485">
        <ele>169.33</ele>
        <time>2019-05-21T08:21:08Z</time>
      </trkpt>
      <trkpt lat="40.15044" lon="-8.44849">
        <ele>168.85</ele>
        <time>2019-05-21T08:21:10Z</time>
      </trkpt>
      <trkpt lat="40.15054" lon="-8.44846">
        <ele>169.33</ele>
        <time>2019-05-21T08:21:18Z</time>
      </trkpt>
      <trkpt lat="40.15069" lon="-8.44839">
        <ele>169.81</ele>
        <time>2019-05-21T08:21:32Z</time>
      </trkpt>
      <trkpt lat="40.15079" lon="-8.44837">
        <ele>169.81</ele>
        <time>2019-05-21T08:21:39Z</time>
      </trkpt>
      <trkpt lat="40.15089" lon="-8.44835">
        <ele>170.29</ele>
        <time>2019-05-21T08:21:46Z</time>
      </trkpt>
      <trkpt lat="40.15111" lon="-8.44831">
        <ele>170.77</ele>
        <time>2019-05-21T08:22:02Z</time>
      </trkpt>
      <trkpt lat="40.15125" lon="-8.44828">
        <ele>171.73</ele>
        <time>2019-05-21T08:22:16Z</time>
      </trkpt>
      <trkpt lat="40.15133" lon="-8.44826">
        <ele>172.21</ele>
        <time>2019-05-21T08:22:30Z</time>
      </trkpt>
      <trkpt lat="40.15129" lon="-8.44828">
        <ele>171.73</ele>
        <time>2019-05-21T08:22:41Z</time>
      </trkpt>
      <trkpt lat="40.15135" lon="-8.44825">
        <ele>172.69</ele>
        <time>2019-05-21T08:22:54Z</time>
      </trkpt>
      <trkpt lat="40.15141" lon="-8.44824">
        <ele>172.69</ele>
        <time>2019-05-21T08:23:01Z</time>
      </trkpt>
      <trkpt lat="40.15156" lon="-8.44809">
        <ele>174.62</ele>
        <time>2019-05-21T08:23:19Z</time>
      </trkpt>
      <trkpt lat="40.15169" lon="-8.44795">
        <ele>175.58</ele>
        <time>2019-05-21T08:23:34Z</time>
      </trkpt>
      <trkpt lat="40.1518" lon="-8.44783">
        <ele>177.98</ele>
        <time>2019-05-21T08:23:48Z</time>
      </trkpt>
      <trkpt lat="40.15194" lon="-8.44769">
        <ele>180.87</ele>
        <time>2019-05-21T08:24:07Z</time>
      </trkpt>
      <trkpt lat="40.15205" lon="-8.44759">
        <ele>181.83</ele>
        <time>2019-05-21T08:24:21Z</time>
      </trkpt>
      <trkpt lat="40.15212" lon="-8.44754">
        <ele>182.79</ele>
        <time>2019-05-21T08:24:32Z</time>
      </trkpt>
      <trkpt lat="40.15222" lon="-8.44761">
        <ele>183.27</ele>
        <time>2019-05-21T08:24:42Z</time>
      </trkpt>
      <trkpt lat="40.15235" lon="-8.44767">
        <ele>184.23</ele>
        <time>2019-05-21T08:24:58Z</time>
      </trkpt>
      <trkpt lat="40.15235" lon="-8.44766">
        <ele>184.23</ele>
        <time>2019-05-21T08:25:20Z</time>
      </trkpt>
      <trkpt lat="40.15237" lon="-8.44767">
        <ele>184.23</ele>
        <time>2019-05-21T08:25:42Z</time>
      </trkpt>
      <trkpt lat="40.15236" lon="-8.44767">
        <ele>184.23</ele>
        <time>2019-05-21T08:26:07Z</time>
      </trkpt>
      <trkpt lat="40.15235" lon="-8.44767">
        <ele>184.23</ele>
        <time>2019-05-21T08:26:32Z</time>
      </trkpt>
      <trkpt lat="40.15235" lon="-8.44766">
        <ele>183.75</ele>
        <time>2019-05-21T08:26:53Z</time>
      </trkpt>
      <trkpt lat="40.15245" lon="-8.44766">
        <ele>183.75</ele>
        <time>2019-05-21T08:27:05Z</time>
      </trkpt>
      <trkpt lat="40.15256" lon="-8.44764">
        <ele>182.79</ele>
        <time>2019-05-21T08:27:14Z</time>
      </trkpt>
      <trkpt lat="40.15259" lon="-8.44762">
        <ele>181.83</ele>
        <time>2019-05-21T08:27:17Z</time>
      </trkpt>
      <trkpt lat="40.15281" lon="-8.4476">
        <ele>179.42</ele>
        <time>2019-05-21T08:27:35Z</time>
      </trkpt>
      <trkpt lat="40.15287" lon="-8.44759">
        <ele>178.46</ele>
        <time>2019-05-21T08:27:40Z</time>
      </trkpt>
      <trkpt lat="40.15304" lon="-8.44757">
        <ele>176.06</ele>
        <time>2019-05-21T08:27:55Z</time>
      </trkpt>
      <trkpt lat="40.15307" lon="-8.44756">
        <ele>175.1</ele>
        <time>2019-05-21T08:27:58Z</time>
      </trkpt>
      <trkpt lat="40.15309" lon="-8.44754">
        <ele>175.58</ele>
        <time>2019-05-21T08:28:00Z</time>
      </trkpt>
      <trkpt lat="40.15327" lon="-8.44752">
        <ele>173.66</ele>
        <time>2019-05-21T08:28:15Z</time>
      </trkpt>
      <trkpt lat="40.15349" lon="-8.4475">
        <ele>173.17</ele>
        <time>2019-05-21T08:28:33Z</time>
      </trkpt>
      <trkpt lat="40.15363" lon="-8.4475">
        <ele>173.17</ele>
        <time>2019-05-21T08:28:45Z</time>
      </trkpt>
      <trkpt lat="40.15386" lon="-8.44751">
        <ele>173.17</ele>
        <time>2019-05-21T08:29:02Z</time>
      </trkpt>
      <trkpt lat="40.15402" lon="-8.44751">
        <ele>173.17</ele>
        <time>2019-05-21T08:29:15Z</time>
      </trkpt>
      <trkpt lat="40.1542" lon="-8.44758">
        <ele>172.69</ele>
        <time>2019-05-21T08:29:30Z</time>
      </trkpt>
      <trkpt lat="40.15438" lon="-8.44763">
        <ele>173.17</ele>
        <time>2019-05-21T08:29:45Z</time>
      </trkpt>
      <trkpt lat="40.15455" lon="-8.44771">
        <ele>174.14</ele>
        <time>2019-05-21T08:30:00Z</time>
      </trkpt>
      <trkpt lat="40.15457" lon="-8.44771">
        <ele>173.66</ele>
        <time>2019-05-21T08:30:02Z</time>
      </trkpt>
      <trkpt lat="40.15479" lon="-8.44771">
        <ele>175.1</ele>
        <time>2019-05-21T08:30:19Z</time>
      </trkpt>
      <trkpt lat="40.15496" lon="-8.44769">
        <ele>175.58</ele>
        <time>2019-05-21T08:30:34Z</time>
      </trkpt>
      <trkpt lat="40.15516" lon="-8.44768">
        <ele>175.58</ele>
        <time>2019-05-21T08:30:50Z</time>
      </trkpt>
      <trkpt lat="40.15526" lon="-8.44766">
        <ele>175.1</ele>
        <time>2019-05-21T08:31:06Z</time>
      </trkpt>
      <trkpt lat="40.15543" lon="-8.44767">
        <ele>174.14</ele>
        <time>2019-05-21T08:31:21Z</time>
      </trkpt>
      <trkpt lat="40.15547" lon="-8.44767">
        <ele>174.62</ele>
        <time>2019-05-21T08:31:24Z</time>
      </trkpt>
      <trkpt lat="40.15566" lon="-8.44764">
        <ele>173.66</ele>
        <time>2019-05-21T08:31:39Z</time>
      </trkpt>
      <trkpt lat="40.15585" lon="-8.44762">
        <ele>173.17</ele>
        <time>2019-05-21T08:31:54Z</time>
      </trkpt>
      <trkpt lat="40.15603" lon="-8.44759">
        <ele>173.17</ele>
        <time>2019-05-21T08:32:08Z</time>
      </trkpt>
      <trkpt lat="40.15618" lon="-8.44758">
        <ele>173.66</ele>
        <time>2019-05-21T08:32:21Z</time>
      </trkpt>
      <trkpt lat="40.15638" lon="-8.44751">
        <ele>173.66</ele>
        <time>2019-05-21T08:32:37Z</time>
      </trkpt>
      <trkpt lat="40.1564" lon="-8.4475">
        <ele>174.14</ele>
        <time>2019-05-21T08:32:39Z</time>
      </trkpt>
      <trkpt lat="40.15658" lon="-8.44756">
        <ele>174.14</ele>
        <time>2019-05-21T08:32:55Z</time>
      </trkpt>
      <trkpt lat="40.15662" lon="-8.4476">
        <ele>173.66</ele>
        <time>2019-05-21T08:33:00Z</time>
      </trkpt>
      <trkpt lat="40.15675" lon="-8.44772">
        <ele>172.21</ele>
        <time>2019-05-21T08:33:15Z</time>
      </trkpt>
      <trkpt lat="40.15684" lon="-8.44785">
        <ele>170.77</ele>
        <time>2019-05-21T08:33:28Z</time>
      </trkpt>
      <trkpt lat="40.1569" lon="-8.44787">
        <ele>170.29</ele>
        <time>2019-05-21T08:33:40Z</time>
      </trkpt>
      <trkpt lat="40.15692" lon="-8.44787">
        <ele>170.29</ele>
        <time>2019-05-21T08:34:10Z</time>
      </trkpt>
      <trkpt lat="40.15691" lon="-8.44791">
        <ele>170.29</ele>
        <time>2019-05-21T08:34:37Z</time>
      </trkpt>
      <trkpt lat="40.1569" lon="-8.44795">
        <ele>170.29</ele>
        <time>2019-05-21T08:34:40Z</time>
      </trkpt>
      <trkpt lat="40.15707" lon="-8.44801">
        <ele>167.41</ele>
        <time>2019-05-21T08:34:53Z</time>
      </trkpt>
      <trkpt lat="40.15723" lon="-8.44805">
        <ele>164.52</ele>
        <time>2019-05-21T08:35:07Z</time>
      </trkpt>
      <trkpt lat="40.15745" lon="-8.44811">
        <ele>163.08</ele>
        <time>2019-05-21T08:35:24Z</time>
      </trkpt>
      <trkpt lat="40.15764" lon="-8.44818">
        <ele>162.6</ele>
        <time>2019-05-21T08:35:39Z</time>
      </trkpt>
      <trkpt lat="40.1578" lon="-8.4482">
        <ele>162.6</ele>
        <time>2019-05-21T08:35:53Z</time>
      </trkpt>
      <trkpt lat="40.15795" lon="-8.44823">
        <ele>163.08</ele>
        <time>2019-05-21T08:36:04Z</time>
      </trkpt>
      <trkpt lat="40.15816" lon="-8.44827">
        <ele>163.08</ele>
        <time>2019-05-21T08:36:19Z</time>
      </trkpt>
      <trkpt lat="40.15836" lon="-8.44835">
        <ele>162.12</ele>
        <time>2019-05-21T08:36:33Z</time>
      </trkpt>
      <trkpt lat="40.15858" lon="-8.44837">
        <ele>159.24</ele>
        <time>2019-05-21T08:36:49Z</time>
      </trkpt>
      <trkpt lat="40.15876" lon="-8.44836">
        <ele>156.83</ele>
        <time>2019-05-21T08:37:03Z</time>
      </trkpt>
      <trkpt lat="40.1589" lon="-8.44831">
        <ele>153.47</ele>
        <time>2019-05-21T08:37:15Z</time>
      </trkpt>
      <trkpt lat="40.15897" lon="-8.44829">
        <ele>152.51</ele>
        <time>2019-05-21T08:37:20Z</time>
      </trkpt>
      <trkpt lat="40.15914" lon="-8.44818">
        <ele>151.06</ele>
        <time>2019-05-21T08:37:34Z</time>
      </trkpt>
      <trkpt lat="40.15919" lon="-8.44817">
        <ele>150.58</ele>
        <time>2019-05-21T08:37:38Z</time>
      </trkpt>
      <trkpt lat="40.15942" lon="-8.4481">
        <ele>148.66</ele>
        <time>2019-05-21T08:37:55Z</time>
      </trkpt>
      <trkpt lat="40.15965" lon="-8.44799">
        <ele>148.18</ele>
        <time>2019-05-21T08:38:13Z</time>
      </trkpt>
      <trkpt lat="40.15985" lon="-8.44791">
        <ele>146.26</ele>
        <time>2019-05-21T08:38:28Z</time>
      </trkpt>
      <trkpt lat="40.15993" lon="-8.44786">
        <ele>145.78</ele>
        <time>2019-05-21T08:38:35Z</time>
      </trkpt>
      <trkpt lat="40.16012" lon="-8.44774">
        <ele>143.37</ele>
        <time>2019-05-21T08:38:51Z</time>
      </trkpt>
      <trkpt lat="40.16021" lon="-8.44771">
        <ele>142.89</ele>
        <time>2019-05-21T08:38:58Z</time>
      </trkpt>
      <trkpt lat="40.1604" lon="-8.44757">
        <ele>140.97</ele>
        <time>2019-05-21T08:39:15Z</time>
      </trkpt>
      <trkpt lat="40.16056" lon="-8.44747">
        <ele>138.09</ele>
        <time>2019-05-21T08:39:29Z</time>
      </trkpt>
      <trkpt lat="40.16072" lon="-8.44735">
        <ele>135.68</ele>
        <time>2019-05-21T08:39:44Z</time>
      </trkpt>
      <trkpt lat="40.16091" lon="-8.44725">
        <ele>132.8</ele>
        <time>2019-05-21T08:40:00Z</time>
      </trkpt>
      <trkpt lat="40.16098" lon="-8.44721">
        <ele>132.32</ele>
        <time>2019-05-21T08:40:06Z</time>
      </trkpt>
      <trkpt lat="40.16103" lon="-8.44717">
        <ele>130.88</ele>
        <time>2019-05-21T08:40:11Z</time>
      </trkpt>
      <trkpt lat="40.16121" lon="-8.44703">
        <ele>128.47</ele>
        <time>2019-05-21T08:40:28Z</time>
      </trkpt>
      <trkpt lat="40.16127" lon="-8.44696">
        <ele>127.51</ele>
        <time>2019-05-21T08:40:35Z</time>
      </trkpt>
      <trkpt lat="40.16141" lon="-8.44685">
        <ele>126.55</ele>
        <time>2019-05-21T08:40:49Z</time>
      </trkpt>
      <trkpt lat="40.16148" lon="-8.44682">
        <ele>126.55</ele>
        <time>2019-05-21T08:41:01Z</time>
      </trkpt>
      <trkpt lat="40.16149" lon="-8.44682">
        <ele>126.55</ele>
        <time>2019-05-21T08:41:02Z</time>
      </trkpt>
      <trkpt lat="40.16152" lon="-8.44683">
        <ele>126.07</ele>
        <time>2019-05-21T08:41:04Z</time>
      </trkpt>
      <trkpt lat="40.16165" lon="-8.44675">
        <ele>125.59</ele>
        <time>2019-05-21T08:41:16Z</time>
      </trkpt>
      <trkpt lat="40.16176" lon="-8.44673">
        <ele>125.11</ele>
        <time>2019-05-21T08:41:32Z</time>
      </trkpt>
      <trkpt lat="40.16179" lon="-8.4467">
        <ele>124.63</ele>
        <time>2019-05-21T08:41:52Z</time>
      </trkpt>
      <trkpt lat="40.16195" lon="-8.44659">
        <ele>122.71</ele>
        <time>2019-05-21T08:42:07Z</time>
      </trkpt>
      <trkpt lat="40.16199" lon="-8.44657">
        <ele>122.22</ele>
        <time>2019-05-21T08:42:10Z</time>
      </trkpt>
      <trkpt lat="40.16204" lon="-8.44657">
        <ele>122.71</ele>
        <time>2019-05-21T08:42:14Z</time>
      </trkpt>
      <trkpt lat="40.16216" lon="-8.44667">
        <ele>122.71</ele>
        <time>2019-05-21T08:42:30Z</time>
      </trkpt>
      <trkpt lat="40.16216" lon="-8.44668">
        <ele>122.22</ele>
        <time>2019-05-21T08:42:32Z</time>
      </trkpt>
      <trkpt lat="40.16217" lon="-8.44671">
        <ele>122.22</ele>
        <time>2019-05-21T08:42:34Z</time>
      </trkpt>
      <trkpt lat="40.16228" lon="-8.44695">
        <ele>121.26</ele>
        <time>2019-05-21T08:42:51Z</time>
      </trkpt>
      <trkpt lat="40.16239" lon="-8.44717">
        <ele>121.74</ele>
        <time>2019-05-21T08:43:07Z</time>
      </trkpt>
      <trkpt lat="40.16246" lon="-8.44736">
        <ele>121.74</ele>
        <time>2019-05-21T08:43:20Z</time>
      </trkpt>
      <trkpt lat="40.16257" lon="-8.44759">
        <ele>122.22</ele>
        <time>2019-05-21T08:43:36Z</time>
      </trkpt>
      <trkpt lat="40.16268" lon="-8.44781">
        <ele>121.74</ele>
        <time>2019-05-21T08:43:52Z</time>
      </trkpt>
      <trkpt lat="40.16273" lon="-8.44791">
        <ele>121.74</ele>
        <time>2019-05-21T08:43:59Z</time>
      </trkpt>
      <trkpt lat="40.16283" lon="-8.44809">
        <ele>122.22</ele>
        <time>2019-05-21T08:44:13Z</time>
      </trkpt>
      <trkpt lat="40.16293" lon="-8.44829">
        <ele>123.19</ele>
        <time>2019-05-21T08:44:28Z</time>
      </trkpt>
      <trkpt lat="40.16296" lon="-8.44838">
        <ele>123.67</ele>
        <time>2019-05-21T08:44:35Z</time>
      </trkpt>
      <trkpt lat="40.16299" lon="-8.44844">
        <ele>123.19</ele>
        <time>2019-05-21T08:44:40Z</time>
      </trkpt>
      <trkpt lat="40.16303" lon="-8.4485">
        <ele>124.15</ele>
        <time>2019-05-21T08:44:53Z</time>
      </trkpt>
      <trkpt lat="40.16306" lon="-8.44854">
        <ele>123.67</ele>
        <time>2019-05-21T08:45:06Z</time>
      </trkpt>
      <trkpt lat="40.16318" lon="-8.44872">
        <ele>124.15</ele>
        <time>2019-05-21T08:45:21Z</time>
      </trkpt>
      <trkpt lat="40.16331" lon="-8.4489">
        <ele>125.11</ele>
        <time>2019-05-21T08:45:37Z</time>
      </trkpt>
      <trkpt lat="40.16338" lon="-8.4491">
        <ele>126.07</ele>
        <time>2019-05-21T08:45:51Z</time>
      </trkpt>
      <trkpt lat="40.16344" lon="-8.44934">
        <ele>127.03</ele>
        <time>2019-05-21T08:46:06Z</time>
      </trkpt>
      <trkpt lat="40.16348" lon="-8.4496">
        <ele>127.51</ele>
        <time>2019-05-21T08:46:22Z</time>
      </trkpt>
      <trkpt lat="40.16349" lon="-8.44972">
        <ele>128.47</ele>
        <time>2019-05-21T08:46:35Z</time>
      </trkpt>
      <trkpt lat="40.1635" lon="-8.44995">
        <ele>128.47</ele>
        <time>2019-05-21T08:46:51Z</time>
      </trkpt>
      <trkpt lat="40.16349" lon="-8.4502">
        <ele>128.95</ele>
        <time>2019-05-21T08:47:06Z</time>
      </trkpt>
      <trkpt lat="40.16349" lon="-8.45034">
        <ele>129.92</ele>
        <time>2019-05-21T08:47:15Z</time>
      </trkpt>
      <trkpt lat="40.1635" lon="-8.45037">
        <ele>129.43</ele>
        <time>2019-05-21T08:47:17Z</time>
      </trkpt>
      <trkpt lat="40.16353" lon="-8.45053">
        <ele>130.88</ele>
        <time>2019-05-21T08:47:29Z</time>
      </trkpt>
      <trkpt lat="40.16356" lon="-8.45075">
        <ele>133.28</ele>
        <time>2019-05-21T08:47:46Z</time>
      </trkpt>
      <trkpt lat="40.16356" lon="-8.45092">
        <ele>135.2</ele>
        <time>2019-05-21T08:47:59Z</time>
      </trkpt>
      <trkpt lat="40.16362" lon="-8.45105">
        <ele>136.64</ele>
        <time>2019-05-21T08:48:11Z</time>
      </trkpt>
      <trkpt lat="40.16366" lon="-8.45113">
        <ele>137.61</ele>
        <time>2019-05-21T08:48:25Z</time>
      </trkpt>
      <trkpt lat="40.16366" lon="-8.45114">
        <ele>137.61</ele>
        <time>2019-05-21T08:48:26Z</time>
      </trkpt>
      <trkpt lat="40.16374" lon="-8.45128">
        <ele>137.61</ele>
        <time>2019-05-21T08:48:38Z</time>
      </trkpt>
      <trkpt lat="40.16384" lon="-8.45134">
        <ele>138.57</ele>
        <time>2019-05-21T08:48:50Z</time>
      </trkpt>
      <trkpt lat="40.16396" lon="-8.45139">
        <ele>139.05</ele>
        <time>2019-05-21T08:49:04Z</time>
      </trkpt>
      <trkpt lat="40.16399" lon="-8.45136">
        <ele>140.01</ele>
        <time>2019-05-21T08:49:07Z</time>
      </trkpt>
      <trkpt lat="40.16402" lon="-8.45134">
        <ele>140.01</ele>
        <time>2019-05-21T08:49:09Z</time>
      </trkpt>
      <trkpt lat="40.16406" lon="-8.45132">
        <ele>140.01</ele>
        <time>2019-05-21T08:49:13Z</time>
      </trkpt>
      <trkpt lat="40.16417" lon="-8.45126">
        <ele>141.45</ele>
        <time>2019-05-21T08:49:25Z</time>
      </trkpt>
      <trkpt lat="40.1643" lon="-8.45128">
        <ele>142.41</ele>
        <time>2019-05-21T08:49:36Z</time>
      </trkpt>
      <trkpt lat="40.16433" lon="-8.45131">
        <ele>141.93</ele>
        <time>2019-05-21T08:49:39Z</time>
      </trkpt>
      <trkpt lat="40.16436" lon="-8.45134">
        <ele>142.41</ele>
        <time>2019-05-21T08:49:42Z</time>
      </trkpt>
      <trkpt lat="40.16439" lon="-8.45134">
        <ele>142.41</ele>
        <time>2019-05-21T08:49:46Z</time>
      </trkpt>
      <trkpt lat="40.16455" lon="-8.45124">
        <ele>142.89</ele>
        <time>2019-05-21T08:50:00Z</time>
      </trkpt>
      <trkpt lat="40.16455" lon="-8.45123">
        <ele>143.37</ele>
        <time>2019-05-21T08:50:16Z</time>
      </trkpt>
      <trkpt lat="40.16458" lon="-8.45121">
        <ele>143.37</ele>
        <time>2019-05-21T08:50:34Z</time>
      </trkpt>
      <trkpt lat="40.16458" lon="-8.45121">
        <ele>143.85</ele>
        <time>2019-05-21T08:50:52Z</time>
      </trkpt>
      <trkpt lat="40.16455" lon="-8.45123">
        <ele>143.37</ele>
        <time>2019-05-21T08:51:06Z</time>
      </trkpt>
      <trkpt lat="40.16457" lon="-8.45123">
        <ele>142.89</ele>
        <time>2019-05-21T08:51:21Z</time>
      </trkpt>
      <trkpt lat="40.16455" lon="-8.45122">
        <ele>142.89</ele>
        <time>2019-05-21T08:51:48Z</time>
      </trkpt>
      <trkpt lat="40.16456" lon="-8.45123">
        <ele>142.89</ele>
        <time>2019-05-21T08:52:13Z</time>
      </trkpt>
      <trkpt lat="40.16456" lon="-8.45122">
        <ele>142.89</ele>
        <time>2019-05-21T08:52:50Z</time>
      </trkpt>
      <trkpt lat="40.16458" lon="-8.45125">
        <ele>143.85</ele>
        <time>2019-05-21T08:53:29Z</time>
      </trkpt>
      <trkpt lat="40.16456" lon="-8.45125">
        <ele>143.85</ele>
        <time>2019-05-21T08:53:58Z</time>
      </trkpt>
      <trkpt lat="40.16455" lon="-8.45126">
        <ele>143.85</ele>
        <time>2019-05-21T08:54:19Z</time>
      </trkpt>
      <trkpt lat="40.16458" lon="-8.45129">
        <ele>143.85</ele>
        <time>2019-05-21T08:54:56Z</time>
      </trkpt>
      <trkpt lat="40.16459" lon="-8.45129">
        <ele>144.34</ele>
        <time>2019-05-21T08:55:24Z</time>
      </trkpt>
      <trkpt lat="40.16459" lon="-8.4513">
        <ele>144.34</ele>
        <time>2019-05-21T08:55:54Z</time>
      </trkpt>
      <trkpt lat="40.16459" lon="-8.45128">
        <ele>145.3</ele>
        <time>2019-05-21T08:56:21Z</time>
      </trkpt>
      <trkpt lat="40.16459" lon="-8.45126">
        <ele>145.3</ele>
        <time>2019-05-21T08:56:47Z</time>
      </trkpt>
      <trkpt lat="40.16459" lon="-8.45124">
        <ele>145.3</ele>
        <time>2019-05-21T08:57:16Z</time>
      </trkpt>
      <trkpt lat="40.16459" lon="-8.45125">
        <ele>145.78</ele>
        <time>2019-05-21T08:57:52Z</time>
      </trkpt>
      <trkpt lat="40.16462" lon="-8.45126">
        <ele>145.78</ele>
        <time>2019-05-21T08:58:19Z</time>
      </trkpt>
      <trkpt lat="40.16462" lon="-8.45126">
        <ele>146.26</ele>
        <time>2019-05-21T08:58:53Z</time>
      </trkpt>
      <trkpt lat="40.16459" lon="-8.45126">
        <ele>146.26</ele>
        <time>2019-05-21T08:59:27Z</time>
      </trkpt>
      <trkpt lat="40.16459" lon="-8.45124">
        <ele>146.26</ele>
        <time>2019-05-21T09:00:10Z</time>
      </trkpt>
      <trkpt lat="40.16462" lon="-8.45127">
        <ele>146.74</ele>
        <time>2019-05-21T09:00:39Z</time>
      </trkpt>
      <trkpt lat="40.16458" lon="-8.45127">
        <ele>146.74</ele>
        <time>2019-05-21T09:01:10Z</time>
      </trkpt>
      <trkpt lat="40.16456" lon="-8.45123">
        <ele>146.74</ele>
        <time>2019-05-21T09:01:37Z</time>
      </trkpt>
      <trkpt lat="40.16455" lon="-8.45123">
        <ele>146.74</ele>
        <time>2019-05-21T09:02:09Z</time>
      </trkpt>
      <trkpt lat="40.16455" lon="-8.45121">
        <ele>147.22</ele>
        <time>2019-05-21T09:02:32Z</time>
      </trkpt>
      <trkpt lat="40.16457" lon="-8.45122">
        <ele>147.22</ele>
        <time>2019-05-21T09:03:05Z</time>
      </trkpt>
      <trkpt lat="40.16456" lon="-8.45125">
        <ele>147.22</ele>
        <time>2019-05-21T09:03:36Z</time>
      </trkpt>
      <trkpt lat="40.16455" lon="-8.45124">
        <ele>147.7</ele>
        <time>2019-05-21T09:04:04Z</time>
      </trkpt>
      <trkpt lat="40.16455" lon="-8.45123">
        <ele>147.7</ele>
        <time>2019-05-21T09:04:42Z</time>
      </trkpt>
      <trkpt lat="40.16457" lon="-8.45122">
        <ele>147.7</ele>
        <time>2019-05-21T09:05:16Z</time>
      </trkpt>
      <trkpt lat="40.16458" lon="-8.45123">
        <ele>148.66</ele>
        <time>2019-05-21T09:05:47Z</time>
      </trkpt>
      <trkpt lat="40.16453" lon="-8.45124">
        <ele>149.14</ele>
        <time>2019-05-21T09:06:20Z</time>
      </trkpt>
      <trkpt lat="40.16457" lon="-8.45125">
        <ele>149.14</ele>
        <time>2019-05-21T09:06:51Z</time>
      </trkpt>
      <trkpt lat="40.16453" lon="-8.45123">
        <ele>149.14</ele>
        <time>2019-05-21T09:07:24Z</time>
      </trkpt>
      <trkpt lat="40.16454" lon="-8.45122">
        <ele>149.14</ele>
        <time>2019-05-21T09:07:55Z</time>
      </trkpt>
      <trkpt lat="40.16455" lon="-8.45122">
        <ele>149.62</ele>
        <time>2019-05-21T09:08:28Z</time>
      </trkpt>
      <trkpt lat="40.16456" lon="-8.45119">
        <ele>149.62</ele>
        <time>2019-05-21T09:09:04Z</time>
      </trkpt>
      <trkpt lat="40.16454" lon="-8.4512">
        <ele>149.62</ele>
        <time>2019-05-21T09:09:39Z</time>
      </trkpt>
      <trkpt lat="40.16455" lon="-8.45123">
        <ele>149.62</ele>
        <time>2019-05-21T09:10:07Z</time>
      </trkpt>
      <trkpt lat="40.16458" lon="-8.45122">
        <ele>150.1</ele>
        <time>2019-05-21T09:10:33Z</time>
      </trkpt>
      <trkpt lat="40.16455" lon="-8.45123">
        <ele>150.58</ele>
        <time>2019-05-21T09:11:02Z</time>
      </trkpt>
      <trkpt lat="40.16456" lon="-8.4512">
        <ele>150.58</ele>
        <time>2019-05-21T09:11:25Z</time>
      </trkpt>
      <trkpt lat="40.16454" lon="-8.45121">
        <ele>150.1</ele>
        <time>2019-05-21T09:11:47Z</time>
      </trkpt>
      <trkpt lat="40.16455" lon="-8.45122">
        <ele>150.58</ele>
        <time>2019-05-21T09:12:10Z</time>
      </trkpt>
      <trkpt lat="40.16455" lon="-8.45124">
        <ele>150.58</ele>
        <time>2019-05-21T09:12:23Z</time>
      </trkpt>
      <trkpt lat="40.16461" lon="-8.45128">
        <ele>150.1</ele>
        <time>2019-05-21T09:12:35Z</time>
      </trkpt>
      <trkpt lat="40.16472" lon="-8.45127">
        <ele>150.1</ele>
        <time>2019-05-21T09:12:47Z</time>
      </trkpt>
      <trkpt lat="40.16477" lon="-8.45127">
        <ele>149.62</ele>
        <time>2019-05-21T09:12:51Z</time>
      </trkpt>
      <trkpt lat="40.16491" lon="-8.45123">
        <ele>148.18</ele>
        <time>2019-05-21T09:13:05Z</time>
      </trkpt>
      <trkpt lat="40.16497" lon="-8.45123">
        <ele>147.22</ele>
        <time>2019-05-21T09:13:10Z</time>
      </trkpt>
      <trkpt lat="40.16504" lon="-8.45123">
        <ele>145.78</ele>
        <time>2019-05-21T09:13:16Z</time>
      </trkpt>
      <trkpt lat="40.16516" lon="-8.45123">
        <ele>144.34</ele>
        <time>2019-05-21T09:13:30Z</time>
      </trkpt>
      <trkpt lat="40.16523" lon="-8.45124">
        <ele>142.89</ele>
        <time>2019-05-21T09:13:39Z</time>
      </trkpt>
      <trkpt lat="40.1653" lon="-8.45122">
        <ele>142.41</ele>
        <time>2019-05-21T09:13:45Z</time>
      </trkpt>
      <trkpt lat="40.16548" lon="-8.45116">
        <ele>141.93</ele>
        <time>2019-05-21T09:14:00Z</time>
      </trkpt>
      <trkpt lat="40.1656" lon="-8.45105">
        <ele>141.93</ele>
        <time>2019-05-21T09:14:14Z</time>
      </trkpt>
      <trkpt lat="40.16567" lon="-8.45096">
        <ele>142.41</ele>
        <time>2019-05-21T09:14:23Z</time>
      </trkpt>
      <trkpt lat="40.16581" lon="-8.45084">
        <ele>142.89</ele>
        <time>2019-05-21T09:14:39Z</time>
      </trkpt>
      <trkpt lat="40.16594" lon="-8.45079">
        <ele>144.34</ele>
        <time>2019-05-21T09:14:51Z</time>
      </trkpt>
      <trkpt lat="40.16608" lon="-8.45079">
        <ele>146.26</ele>
        <time>2019-05-21T09:15:07Z</time>
      </trkpt>
      <trkpt lat="40.16622" lon="-8.45079">
        <ele>148.66</ele>
        <time>2019-05-21T09:15:22Z</time>
      </trkpt>
      <trkpt lat="40.16626" lon="-8.45078">
        <ele>148.66</ele>
        <time>2019-05-21T09:15:25Z</time>
      </trkpt>
      <trkpt lat="40.16629" lon="-8.45079">
        <ele>148.66</ele>
        <time>2019-05-21T09:15:28Z</time>
      </trkpt>
      <trkpt lat="40.16644" lon="-8.45076">
        <ele>149.14</ele>
        <time>2019-05-21T09:15:42Z</time>
      </trkpt>
      <trkpt lat="40.16645" lon="-8.45076">
        <ele>149.62</ele>
        <time>2019-05-21T09:15:44Z</time>
      </trkpt>
      <trkpt lat="40.16657" lon="-8.45083">
        <ele>150.58</ele>
        <time>2019-05-21T09:15:58Z</time>
      </trkpt>
      <trkpt lat="40.16673" lon="-8.45089">
        <ele>151.54</ele>
        <time>2019-05-21T09:16:13Z</time>
      </trkpt>
      <trkpt lat="40.16687" lon="-8.45095">
        <ele>152.03</ele>
        <time>2019-05-21T09:16:27Z</time>
      </trkpt>
      <trkpt lat="40.16693" lon="-8.45101">
        <ele>152.99</ele>
        <time>2019-05-21T09:16:39Z</time>
      </trkpt>
      <trkpt lat="40.16707" lon="-8.45108">
        <ele>153.95</ele>
        <time>2019-05-21T09:16:55Z</time>
      </trkpt>
      <trkpt lat="40.1671" lon="-8.45108">
        <ele>154.43</ele>
        <time>2019-05-21T09:16:58Z</time>
      </trkpt>
      <trkpt lat="40.16725" lon="-8.45111">
        <ele>155.87</ele>
        <time>2019-05-21T09:17:14Z</time>
      </trkpt>
      <trkpt lat="40.16727" lon="-8.45107">
        <ele>155.87</ele>
        <time>2019-05-21T09:17:32Z</time>
      </trkpt>
      <trkpt lat="40.16737" lon="-8.45109">
        <ele>157.31</ele>
        <time>2019-05-21T09:17:46Z</time>
      </trkpt>
      <trkpt lat="40.16755" lon="-8.45104">
        <ele>157.31</ele>
        <time>2019-05-21T09:18:02Z</time>
      </trkpt>
      <trkpt lat="40.16768" lon="-8.45096">
        <ele>159.24</ele>
        <time>2019-05-21T09:18:17Z</time>
      </trkpt>
      <trkpt lat="40.16776" lon="-8.4509">
        <ele>160.68</ele>
        <time>2019-05-21T09:18:29Z</time>
      </trkpt>
      <trkpt lat="40.16785" lon="-8.45085">
        <ele>164.52</ele>
        <time>2019-05-21T09:18:41Z</time>
      </trkpt>
      <trkpt lat="40.16794" lon="-8.45075">
        <ele>165</ele>
        <time>2019-05-21T09:18:55Z</time>
      </trkpt>
      <trkpt lat="40.16807" lon="-8.45069">
        <ele>166.93</ele>
        <time>2019-05-21T09:19:10Z</time>
      </trkpt>
      <trkpt lat="40.16817" lon="-8.45064">
        <ele>168.85</ele>
        <time>2019-05-21T09:19:22Z</time>
      </trkpt>
      <trkpt lat="40.16819" lon="-8.45063">
        <ele>168.85</ele>
        <time>2019-05-21T09:19:25Z</time>
      </trkpt>
      <trkpt lat="40.16835" lon="-8.45055">
        <ele>168.85</ele>
        <time>2019-05-21T09:19:42Z</time>
      </trkpt>
      <trkpt lat="40.16845" lon="-8.45055">
        <ele>172.21</ele>
        <time>2019-05-21T09:19:53Z</time>
      </trkpt>
      <trkpt lat="40.16855" lon="-8.45058">
        <ele>173.17</ele>
        <time>2019-05-21T09:20:07Z</time>
      </trkpt>
      <trkpt lat="40.16859" lon="-8.45058">
        <ele>174.14</ele>
        <time>2019-05-21T09:20:12Z</time>
      </trkpt>
      <trkpt lat="40.16872" lon="-8.45048">
        <ele>175.1</ele>
        <time>2019-05-21T09:20:27Z</time>
      </trkpt>
      <trkpt lat="40.16877" lon="-8.45045">
        <ele>175.58</ele>
        <time>2019-05-21T09:20:32Z</time>
      </trkpt>
      <trkpt lat="40.16893" lon="-8.45028">
        <ele>176.54</ele>
        <time>2019-05-21T09:20:51Z</time>
      </trkpt>
      <trkpt lat="40.169" lon="-8.45022">
        <ele>177.98</ele>
        <time>2019-05-21T09:21:02Z</time>
      </trkpt>
      <trkpt lat="40.16909" lon="-8.4501">
        <ele>179.42</ele>
        <time>2019-05-21T09:21:17Z</time>
      </trkpt>
      <trkpt lat="40.16914" lon="-8.45006">
        <ele>179.42</ele>
        <time>2019-05-21T09:21:23Z</time>
      </trkpt>
      <trkpt lat="40.16923" lon="-8.45004">
        <ele>180.87</ele>
        <time>2019-05-21T09:21:32Z</time>
      </trkpt>
      <trkpt lat="40.16934" lon="-8.45004">
        <ele>181.83</ele>
        <time>2019-05-21T09:21:44Z</time>
      </trkpt>
      <trkpt lat="40.16945" lon="-8.45004">
        <ele>182.79</ele>
        <time>2019-05-21T09:21:56Z</time>
      </trkpt>
      <trkpt lat="40.16945" lon="-8.45002">
        <ele>182.79</ele>
        <time>2019-05-21T09:22:11Z</time>
      </trkpt>
      <trkpt lat="40.16944" lon="-8.45003">
        <ele>182.79</ele>
        <time>2019-05-21T09:22:12Z</time>
      </trkpt>
      <trkpt lat="40.16939" lon="-8.45001">
        <ele>182.79</ele>
        <time>2019-05-21T09:22:25Z</time>
      </trkpt>
      <trkpt lat="40.16939" lon="-8.45">
        <ele>182.31</ele>
        <time>2019-05-21T09:22:29Z</time>
      </trkpt>
      <trkpt lat="40.1693" lon="-8.45003">
        <ele>181.35</ele>
        <time>2019-05-21T09:22:38Z</time>
      </trkpt>
      <trkpt lat="40.16921" lon="-8.45006">
        <ele>180.38</ele>
        <time>2019-05-21T09:22:47Z</time>
      </trkpt>
      <trkpt lat="40.16911" lon="-8.45003">
        <ele>179.9</ele>
        <time>2019-05-21T09:23:01Z</time>
      </trkpt>
      <trkpt lat="40.16911" lon="-8.45003">
        <ele>179.9</ele>
        <time>2019-05-21T09:23:33Z</time>
      </trkpt>
      <trkpt lat="40.16911" lon="-8.45003">
        <ele>180.38</ele>
        <time>2019-05-21T09:24:08Z</time>
      </trkpt>
      <trkpt lat="40.1691" lon="-8.45002">
        <ele>177.02</ele>
        <time>2019-05-21T09:24:32Z</time>
      </trkpt>
      <trkpt lat="40.16911" lon="-8.45002">
        <ele>181.83</ele>
        <time>2019-05-21T09:24:33Z</time>
      </trkpt>
      <trkpt lat="40.16912" lon="-8.45003">
        <ele>177.98</ele>
        <time>2019-05-21T09:24:50Z</time>
      </trkpt>
      <trkpt lat="40.16913" lon="-8.45004">
        <ele>180.38</ele>
        <time>2019-05-21T09:25:12Z</time>
      </trkpt>
      <trkpt lat="40.16918" lon="-8.45004">
        <ele>179.9</ele>
        <time>2019-05-21T09:25:36Z</time>
      </trkpt>
      <trkpt lat="40.16921" lon="-8.45003">
        <ele>180.87</ele>
        <time>2019-05-21T09:25:48Z</time>
      </trkpt>
      <trkpt lat="40.16925" lon="-8.45005">
        <ele>179.9</ele>
        <time>2019-05-21T09:25:52Z</time>
      </trkpt>
      <trkpt lat="40.16938" lon="-8.45006">
        <ele>182.31</ele>
        <time>2019-05-21T09:26:05Z</time>
      </trkpt>
      <trkpt lat="40.16948" lon="-8.45006">
        <ele>182.79</ele>
        <time>2019-05-21T09:26:15Z</time>
      </trkpt>
      <trkpt lat="40.16953" lon="-8.45007">
        <ele>183.27</ele>
        <time>2019-05-21T09:26:19Z</time>
      </trkpt>
      <trkpt lat="40.16962" lon="-8.45008">
        <ele>183.75</ele>
        <time>2019-05-21T09:26:32Z</time>
      </trkpt>
      <trkpt lat="40.16963" lon="-8.45009">
        <ele>183.75</ele>
        <time>2019-05-21T09:26:33Z</time>
      </trkpt>
      <trkpt lat="40.16986" lon="-8.45011">
        <ele>183.75</ele>
        <time>2019-05-21T09:26:48Z</time>
      </trkpt>
      <trkpt lat="40.16999" lon="-8.45013">
        <ele>184.23</ele>
        <time>2019-05-21T09:27:00Z</time>
      </trkpt>
      <trkpt lat="40.17009" lon="-8.45009">
        <ele>185.19</ele>
        <time>2019-05-21T09:27:12Z</time>
      </trkpt>
      <trkpt lat="40.17022" lon="-8.45008">
        <ele>185.67</ele>
        <time>2019-05-21T09:27:24Z</time>
      </trkpt>
      <trkpt lat="40.17035" lon="-8.45003">
        <ele>186.63</ele>
        <time>2019-05-21T09:27:37Z</time>
      </trkpt>
      <trkpt lat="40.17046" lon="-8.44998">
        <ele>187.59</ele>
        <time>2019-05-21T09:27:48Z</time>
      </trkpt>
      <trkpt lat="40.17063" lon="-8.44992">
        <ele>187.59</ele>
        <time>2019-05-21T09:28:03Z</time>
      </trkpt>
      <trkpt lat="40.17077" lon="-8.44989">
        <ele>187.59</ele>
        <time>2019-05-21T09:28:16Z</time>
      </trkpt>
      <trkpt lat="40.17082" lon="-8.44989">
        <ele>187.11</ele>
        <time>2019-05-21T09:28:19Z</time>
      </trkpt>
      <trkpt lat="40.17099" lon="-8.44987">
        <ele>187.11</ele>
        <time>2019-05-21T09:28:33Z</time>
      </trkpt>
      <trkpt lat="40.17114" lon="-8.44984">
        <ele>187.59</ele>
        <time>2019-05-21T09:28:46Z</time>
      </trkpt>
      <trkpt lat="40.17117" lon="-8.44983">
        <ele>188.08</ele>
        <time>2019-05-21T09:28:49Z</time>
      </trkpt>
      <trkpt lat="40.17129" lon="-8.44978">
        <ele>188.08</ele>
        <time>2019-05-21T09:28:58Z</time>
      </trkpt>
      <trkpt lat="40.17139" lon="-8.44972">
        <ele>189.04</ele>
        <time>2019-05-21T09:29:09Z</time>
      </trkpt>
      <trkpt lat="40.17142" lon="-8.4497">
        <ele>189.52</ele>
        <time>2019-05-21T09:29:13Z</time>
      </trkpt>
      <trkpt lat="40.17157" lon="-8.44966">
        <ele>190.96</ele>
        <time>2019-05-21T09:29:25Z</time>
      </trkpt>
      <trkpt lat="40.17175" lon="-8.44959">
        <ele>192.88</ele>
        <time>2019-05-21T09:29:40Z</time>
      </trkpt>
      <trkpt lat="40.17188" lon="-8.44951">
        <ele>193.36</ele>
        <time>2019-05-21T09:29:53Z</time>
      </trkpt>
      <trkpt lat="40.17189" lon="-8.4495">
        <ele>194.32</ele>
        <time>2019-05-21T09:29:54Z</time>
      </trkpt>
      <trkpt lat="40.17192" lon="-8.44949">
        <ele>194.32</ele>
        <time>2019-05-21T09:29:56Z</time>
      </trkpt>
      <trkpt lat="40.17202" lon="-8.44942">
        <ele>193.84</ele>
        <time>2019-05-21T09:30:06Z</time>
      </trkpt>
      <trkpt lat="40.17208" lon="-8.44937">
        <ele>194.8</ele>
        <time>2019-05-21T09:30:19Z</time>
      </trkpt>
      <trkpt lat="40.17225" lon="-8.44933">
        <ele>194.32</ele>
        <time>2019-05-21T09:30:34Z</time>
      </trkpt>
      <trkpt lat="40.17243" lon="-8.44933">
        <ele>194.8</ele>
        <time>2019-05-21T09:30:49Z</time>
      </trkpt>
      <trkpt lat="40.17256" lon="-8.44933">
        <ele>195.28</ele>
        <time>2019-05-21T09:31:02Z</time>
      </trkpt>
      <trkpt lat="40.1727" lon="-8.44931">
        <ele>195.77</ele>
        <time>2019-05-21T09:31:14Z</time>
      </trkpt>
      <trkpt lat="40.17288" lon="-8.44927">
        <ele>197.21</ele>
        <time>2019-05-21T09:31:29Z</time>
      </trkpt>
      <trkpt lat="40.17305" lon="-8.44922">
        <ele>196.73</ele>
        <time>2019-05-21T09:31:44Z</time>
      </trkpt>
      <trkpt lat="40.1732" lon="-8.44919">
        <ele>198.17</ele>
        <time>2019-05-21T09:31:57Z</time>
      </trkpt>
      <trkpt lat="40.1733" lon="-8.4492">
        <ele>198.17</ele>
        <time>2019-05-21T09:32:05Z</time>
      </trkpt>
      <trkpt lat="40.1734" lon="-8.44921">
        <ele>198.17</ele>
        <time>2019-05-21T09:32:12Z</time>
      </trkpt>
      <trkpt lat="40.17347" lon="-8.4492">
        <ele>198.65</ele>
        <time>2019-05-21T09:32:17Z</time>
      </trkpt>
      <trkpt lat="40.17355" lon="-8.44928">
        <ele>197.21</ele>
        <time>2019-05-21T09:32:25Z</time>
      </trkpt>
      <trkpt lat="40.17358" lon="-8.44933">
        <ele>197.21</ele>
        <time>2019-05-21T09:32:29Z</time>
      </trkpt>
      <trkpt lat="40.17366" lon="-8.44942">
        <ele>196.73</ele>
        <time>2019-05-21T09:32:38Z</time>
      </trkpt>
      <trkpt lat="40.17379" lon="-8.44958">
        <ele>195.77</ele>
        <time>2019-05-21T09:32:52Z</time>
      </trkpt>
      <trkpt lat="40.17382" lon="-8.44967">
        <ele>195.77</ele>
        <time>2019-05-21T09:32:57Z</time>
      </trkpt>
      <trkpt lat="40.17386" lon="-8.4497">
        <ele>194.8</ele>
        <time>2019-05-21T09:33:01Z</time>
      </trkpt>
      <trkpt lat="40.174" lon="-8.44992">
        <ele>194.32</ele>
        <time>2019-05-21T09:33:16Z</time>
      </trkpt>
      <trkpt lat="40.17415" lon="-8.45002">
        <ele>193.84</ele>
        <time>2019-05-21T09:33:30Z</time>
      </trkpt>
      <trkpt lat="40.1743" lon="-8.44994">
        <ele>192.4</ele>
        <time>2019-05-21T09:33:43Z</time>
      </trkpt>
      <trkpt lat="40.17445" lon="-8.4498">
        <ele>190.96</ele>
        <time>2019-05-21T09:33:56Z</time>
      </trkpt>
      <trkpt lat="40.17457" lon="-8.44973">
        <ele>190.48</ele>
        <time>2019-05-21T09:34:07Z</time>
      </trkpt>
      <trkpt lat="40.17474" lon="-8.44972">
        <ele>189.52</ele>
        <time>2019-05-21T09:34:21Z</time>
      </trkpt>
      <trkpt lat="40.1749" lon="-8.44971">
        <ele>189.52</ele>
        <time>2019-05-21T09:34:33Z</time>
      </trkpt>
      <trkpt lat="40.17505" lon="-8.4497">
        <ele>188.56</ele>
        <time>2019-05-21T09:34:44Z</time>
      </trkpt>
      <trkpt lat="40.17526" lon="-8.44971">
        <ele>187.11</ele>
        <time>2019-05-21T09:35:00Z</time>
      </trkpt>
      <trkpt lat="40.17539" lon="-8.44972">
        <ele>186.63</ele>
        <time>2019-05-21T09:35:12Z</time>
      </trkpt>
      <trkpt lat="40.17554" lon="-8.44978">
        <ele>186.15</ele>
        <time>2019-05-21T09:35:24Z</time>
      </trkpt>
      <trkpt lat="40.17573" lon="-8.4499">
        <ele>185.67</ele>
        <time>2019-05-21T09:35:39Z</time>
      </trkpt>
      <trkpt lat="40.17574" lon="-8.44991">
        <ele>185.67</ele>
        <time>2019-05-21T09:35:40Z</time>
      </trkpt>
      <trkpt lat="40.17584" lon="-8.44992">
        <ele>184.23</ele>
        <time>2019-05-21T09:35:48Z</time>
      </trkpt>
      <trkpt lat="40.17587" lon="-8.4499">
        <ele>184.23</ele>
        <time>2019-05-21T09:36:03Z</time>
      </trkpt>
      <trkpt lat="40.17591" lon="-8.44989">
        <ele>183.27</ele>
        <time>2019-05-21T09:36:17Z</time>
      </trkpt>
      <trkpt lat="40.17599" lon="-8.44988">
        <ele>182.31</ele>
        <time>2019-05-21T09:36:33Z</time>
      </trkpt>
      <trkpt lat="40.17601" lon="-8.4499">
        <ele>182.79</ele>
        <time>2019-05-21T09:36:42Z</time>
      </trkpt>
      <trkpt lat="40.17612" lon="-8.44987">
        <ele>180.87</ele>
        <time>2019-05-21T09:36:53Z</time>
      </trkpt>
      <trkpt lat="40.17613" lon="-8.44987">
        <ele>180.87</ele>
        <time>2019-05-21T09:36:54Z</time>
      </trkpt>
      <trkpt lat="40.17619" lon="-8.44988">
        <ele>180.38</ele>
        <time>2019-05-21T09:36:58Z</time>
      </trkpt>
      <trkpt lat="40.17622" lon="-8.44994">
        <ele>179.42</ele>
        <time>2019-05-21T09:37:02Z</time>
      </trkpt>
      <trkpt lat="40.17622" lon="-8.45">
        <ele>177.98</ele>
        <time>2019-05-21T09:37:06Z</time>
      </trkpt>
      <trkpt lat="40.17617" lon="-8.45009">
        <ele>176.54</ele>
        <time>2019-05-21T09:37:13Z</time>
      </trkpt>
      <trkpt lat="40.17614" lon="-8.45013">
        <ele>176.54</ele>
        <time>2019-05-21T09:37:17Z</time>
      </trkpt>
      <trkpt lat="40.17601" lon="-8.45026">
        <ele>174.62</ele>
        <time>2019-05-21T09:37:30Z</time>
      </trkpt>
      <trkpt lat="40.17591" lon="-8.45038">
        <ele>173.17</ele>
        <time>2019-05-21T09:37:41Z</time>
      </trkpt>
      <trkpt lat="40.1758" lon="-8.45052">
        <ele>171.25</ele>
        <time>2019-05-21T09:37:54Z</time>
      </trkpt>
      <trkpt lat="40.17589" lon="-8.45067">
        <ele>171.73</ele>
        <time>2019-05-21T09:38:07Z</time>
      </trkpt>
      <trkpt lat="40.17594" lon="-8.45079">
        <ele>172.21</ele>
        <time>2019-05-21T09:38:16Z</time>
      </trkpt>
      <trkpt lat="40.176" lon="-8.45085">
        <ele>176.06</ele>
        <time>2019-05-21T09:38:29Z</time>
      </trkpt>
      <trkpt lat="40.17601" lon="-8.45085">
        <ele>176.06</ele>
        <time>2019-05-21T09:38:30Z</time>
      </trkpt>
      <trkpt lat="40.17601" lon="-8.45085">
        <ele>172.69</ele>
        <time>2019-05-21T09:38:32Z</time>
      </trkpt>
      <trkpt lat="40.17602" lon="-8.45086">
        <ele>173.17</ele>
        <time>2019-05-21T09:38:50Z</time>
      </trkpt>
      <trkpt lat="40.17604" lon="-8.45085">
        <ele>173.17</ele>
        <time>2019-05-21T09:38:53Z</time>
      </trkpt>
      <trkpt lat="40.17614" lon="-8.45077">
        <ele>174.14</ele>
        <time>2019-05-21T09:39:06Z</time>
      </trkpt>
      <trkpt lat="40.17616" lon="-8.45075">
        <ele>175.58</ele>
        <time>2019-05-21T09:39:08Z</time>
      </trkpt>
      <trkpt lat="40.17629" lon="-8.45066">
        <ele>176.06</ele>
        <time>2019-05-21T09:39:23Z</time>
      </trkpt>
      <trkpt lat="40.1764" lon="-8.45057">
        <ele>178.46</ele>
        <time>2019-05-21T09:39:37Z</time>
      </trkpt>
      <trkpt lat="40.17656" lon="-8.45047">
        <ele>179.42</ele>
        <time>2019-05-21T09:39:53Z</time>
      </trkpt>
      <trkpt lat="40.17674" lon="-8.45031">
        <ele>179.9</ele>
        <time>2019-05-21T09:40:09Z</time>
      </trkpt>
      <trkpt lat="40.17679" lon="-8.45027">
        <ele>179.9</ele>
        <time>2019-05-21T09:40:14Z</time>
      </trkpt>
      <trkpt lat="40.17685" lon="-8.45025">
        <ele>180.38</ele>
        <time>2019-05-21T09:40:20Z</time>
      </trkpt>
      <trkpt lat="40.17691" lon="-8.45029">
        <ele>179.9</ele>
        <time>2019-05-21T09:40:26Z</time>
      </trkpt>
      <trkpt lat="40.17693" lon="-8.45035">
        <ele>180.38</ele>
        <time>2019-05-21T09:40:30Z</time>
      </trkpt>
      <trkpt lat="40.17695" lon="-8.45046">
        <ele>180.38</ele>
        <time>2019-05-21T09:40:37Z</time>
      </trkpt>
      <trkpt lat="40.17699" lon="-8.45057">
        <ele>180.87</ele>
        <time>2019-05-21T09:40:46Z</time>
      </trkpt>
      <trkpt lat="40.177" lon="-8.45059">
        <ele>181.35</ele>
        <time>2019-05-21T09:40:48Z</time>
      </trkpt>
      <trkpt lat="40.17702" lon="-8.45074">
        <ele>181.83</ele>
        <time>2019-05-21T09:40:57Z</time>
      </trkpt>
      <trkpt lat="40.17707" lon="-8.45082">
        <ele>182.31</ele>
        <time>2019-05-21T09:41:05Z</time>
      </trkpt>
      <trkpt lat="40.17717" lon="-8.4509">
        <ele>184.71</ele>
        <time>2019-05-21T09:41:17Z</time>
      </trkpt>
      <trkpt lat="40.17719" lon="-8.45091">
        <ele>184.23</ele>
        <time>2019-05-21T09:41:19Z</time>
      </trkpt>
      <trkpt lat="40.17721" lon="-8.45094">
        <ele>184.71</ele>
        <time>2019-05-21T09:41:22Z</time>
      </trkpt>
      <trkpt lat="40.17721" lon="-8.45096">
        <ele>184.71</ele>
        <time>2019-05-21T09:41:23Z</time>
      </trkpt>
      <trkpt lat="40.17723" lon="-8.45098">
        <ele>184.71</ele>
        <time>2019-05-21T09:41:25Z</time>
      </trkpt>
      <trkpt lat="40.17726" lon="-8.45103">
        <ele>184.23</ele>
        <time>2019-05-21T09:41:30Z</time>
      </trkpt>
      <trkpt lat="40.1773" lon="-8.45107">
        <ele>184.23</ele>
        <time>2019-05-21T09:41:35Z</time>
      </trkpt>
      <trkpt lat="40.17737" lon="-8.45115">
        <ele>182.79</ele>
        <time>2019-05-21T09:41:42Z</time>
      </trkpt>
      <trkpt lat="40.17739" lon="-8.45117">
        <ele>183.75</ele>
        <time>2019-05-21T09:41:44Z</time>
      </trkpt>
      <trkpt lat="40.1774" lon="-8.45118">
        <ele>183.27</ele>
        <time>2019-05-21T09:41:45Z</time>
      </trkpt>
      <trkpt lat="40.17741" lon="-8.45118">
        <ele>183.27</ele>
        <time>2019-05-21T09:41:46Z</time>
      </trkpt>
      <trkpt lat="40.17742" lon="-8.45119">
        <ele>182.79</ele>
        <time>2019-05-21T09:41:47Z</time>
      </trkpt>
      <trkpt lat="40.17744" lon="-8.4512">
        <ele>182.31</ele>
        <time>2019-05-21T09:41:49Z</time>
      </trkpt>
      <trkpt lat="40.17745" lon="-8.4512">
        <ele>182.31</ele>
        <time>2019-05-21T09:41:50Z</time>
      </trkpt>
      <trkpt lat="40.17753" lon="-8.45123">
        <ele>180.87</ele>
        <time>2019-05-21T09:41:57Z</time>
      </trkpt>
      <trkpt lat="40.17758" lon="-8.45125">
        <ele>179.9</ele>
        <time>2019-05-21T09:42:03Z</time>
      </trkpt>
      <trkpt lat="40.17759" lon="-8.45126">
        <ele>179.9</ele>
        <time>2019-05-21T09:42:04Z</time>
      </trkpt>
      <trkpt lat="40.1776" lon="-8.45128">
        <ele>179.9</ele>
        <time>2019-05-21T09:42:05Z</time>
      </trkpt>
      <trkpt lat="40.17761" lon="-8.45129">
        <ele>179.42</ele>
        <time>2019-05-21T09:42:06Z</time>
      </trkpt>
      <trkpt lat="40.17762" lon="-8.45131">
        <ele>179.9</ele>
        <time>2019-05-21T09:42:21Z</time>
      </trkpt>
      <trkpt lat="40.17759" lon="-8.45141">
        <ele>181.83</ele>
        <time>2019-05-21T09:42:38Z</time>
      </trkpt>
      <trkpt lat="40.1776" lon="-8.4516">
        <ele>183.75</ele>
        <time>2019-05-21T09:42:52Z</time>
      </trkpt>
      <trkpt lat="40.17761" lon="-8.45164">
        <ele>183.75</ele>
        <time>2019-05-21T09:42:55Z</time>
      </trkpt>
      <trkpt lat="40.17761" lon="-8.45165">
        <ele>184.23</ele>
        <time>2019-05-21T09:42:56Z</time>
      </trkpt>
      <trkpt lat="40.17761" lon="-8.45167">
        <ele>185.19</ele>
        <time>2019-05-21T09:42:57Z</time>
      </trkpt>
      <trkpt lat="40.17764" lon="-8.45175">
        <ele>186.15</ele>
        <time>2019-05-21T09:43:04Z</time>
      </trkpt>
      <trkpt lat="40.17775" lon="-8.45185">
        <ele>187.59</ele>
        <time>2019-05-21T09:43:19Z</time>
      </trkpt>
      <trkpt lat="40.17785" lon="-8.45195">
        <ele>189.52</ele>
        <time>2019-05-21T09:43:32Z</time>
      </trkpt>
      <trkpt lat="40.17797" lon="-8.45205">
        <ele>191.92</ele>
        <time>2019-05-21T09:43:47Z</time>
      </trkpt>
      <trkpt lat="40.17808" lon="-8.45211">
        <ele>193.36</ele>
        <time>2019-05-21T09:44:01Z</time>
      </trkpt>
      <trkpt lat="40.17817" lon="-8.45211">
        <ele>193.36</ele>
        <time>2019-05-21T09:44:09Z</time>
      </trkpt>
      <trkpt lat="40.17829" lon="-8.4521">
        <ele>194.32</ele>
        <time>2019-05-21T09:44:22Z</time>
      </trkpt>
      <trkpt lat="40.17841" lon="-8.45205">
        <ele>196.25</ele>
        <time>2019-05-21T09:44:36Z</time>
      </trkpt>
      <trkpt lat="40.17858" lon="-8.45206">
        <ele>198.17</ele>
        <time>2019-05-21T09:44:52Z</time>
      </trkpt>
      <trkpt lat="40.17872" lon="-8.4521">
        <ele>200.09</ele>
        <time>2019-05-21T09:45:06Z</time>
      </trkpt>
      <trkpt lat="40.17887" lon="-8.45209">
        <ele>201.05</ele>
        <time>2019-05-21T09:45:20Z</time>
      </trkpt>
      <trkpt lat="40.17892" lon="-8.45207">
        <ele>201.05</ele>
        <time>2019-05-21T09:45:25Z</time>
      </trkpt>
      <trkpt lat="40.17908" lon="-8.45204">
        <ele>202.98</ele>
        <time>2019-05-21T09:45:38Z</time>
      </trkpt>
      <trkpt lat="40.17923" lon="-8.45201">
        <ele>202.98</ele>
        <time>2019-05-21T09:45:52Z</time>
      </trkpt>
      <trkpt lat="40.17938" lon="-8.45202">
        <ele>203.94</ele>
        <time>2019-05-21T09:46:05Z</time>
      </trkpt>
      <trkpt lat="40.17943" lon="-8.45204">
        <ele>204.9</ele>
        <time>2019-05-21T09:46:10Z</time>
      </trkpt>
      <trkpt lat="40.17945" lon="-8.45203">
        <ele>204.9</ele>
        <time>2019-05-21T09:46:12Z</time>
      </trkpt>
      <trkpt lat="40.17957" lon="-8.45196">
        <ele>205.86</ele>
        <time>2019-05-21T09:46:23Z</time>
      </trkpt>
      <trkpt lat="40.1797" lon="-8.4519">
        <ele>207.3</ele>
        <time>2019-05-21T09:46:36Z</time>
      </trkpt>
      <trkpt lat="40.17976" lon="-8.45187">
        <ele>208.26</ele>
        <time>2019-05-21T09:46:42Z</time>
      </trkpt>
      <trkpt lat="40.17991" lon="-8.45187">
        <ele>207.78</ele>
        <time>2019-05-21T09:46:55Z</time>
      </trkpt>
      <trkpt lat="40.17994" lon="-8.45189">
        <ele>207.78</ele>
        <time>2019-05-21T09:46:58Z</time>
      </trkpt>
      <trkpt lat="40.18003" lon="-8.45191">
        <ele>207.3</ele>
        <time>2019-05-21T09:47:10Z</time>
      </trkpt>
      <trkpt lat="40.18003" lon="-8.45191">
        <ele>207.78</ele>
        <time>2019-05-21T09:47:43Z</time>
      </trkpt>
      <trkpt lat="40.18005" lon="-8.45198">
        <ele>206.82</ele>
        <time>2019-05-21T09:47:48Z</time>
      </trkpt>
      <trkpt lat="40.18008" lon="-8.45203">
        <ele>206.82</ele>
        <time>2019-05-21T09:47:53Z</time>
      </trkpt>
      <trkpt lat="40.18009" lon="-8.45205">
        <ele>206.34</ele>
        <time>2019-05-21T09:47:54Z</time>
      </trkpt>
      <trkpt lat="40.18021" lon="-8.45218">
        <ele>203.94</ele>
        <time>2019-05-21T09:48:08Z</time>
      </trkpt>
      <trkpt lat="40.18023" lon="-8.45218">
        <ele>203.94</ele>
        <time>2019-05-21T09:48:10Z</time>
      </trkpt>
      <trkpt lat="40.18025" lon="-8.45218">
        <ele>202.98</ele>
        <time>2019-05-21T09:48:11Z</time>
      </trkpt>
      <trkpt lat="40.18026" lon="-8.45218">
        <ele>202.98</ele>
        <time>2019-05-21T09:48:12Z</time>
      </trkpt>
      <trkpt lat="40.18028" lon="-8.45218">
        <ele>203.46</ele>
        <time>2019-05-21T09:48:15Z</time>
      </trkpt>
      <trkpt lat="40.18043" lon="-8.4521">
        <ele>203.94</ele>
        <time>2019-05-21T09:48:27Z</time>
      </trkpt>
      <trkpt lat="40.1805" lon="-8.45212">
        <ele>203.94</ele>
        <time>2019-05-21T09:48:31Z</time>
      </trkpt>
      <trkpt lat="40.18053" lon="-8.45211">
        <ele>203.46</ele>
        <time>2019-05-21T09:48:35Z</time>
      </trkpt>
      <trkpt lat="40.18063" lon="-8.45193">
        <ele>203.94</ele>
        <time>2019-05-21T09:48:48Z</time>
      </trkpt>
      <trkpt lat="40.18074" lon="-8.45183">
        <ele>204.42</ele>
        <time>2019-05-21T09:49:01Z</time>
      </trkpt>
      <trkpt lat="40.18084" lon="-8.4518">
        <ele>204.42</ele>
        <time>2019-05-21T09:49:11Z</time>
      </trkpt>
      <trkpt lat="40.18092" lon="-8.45179">
        <ele>203.94</ele>
        <time>2019-05-21T09:49:18Z</time>
      </trkpt>
      <trkpt lat="40.18105" lon="-8.45182">
        <ele>203.46</ele>
        <time>2019-05-21T09:49:31Z</time>
      </trkpt>
      <trkpt lat="40.18106" lon="-8.45179">
        <ele>203.46</ele>
        <time>2019-05-21T09:49:46Z</time>
      </trkpt>
      <trkpt lat="40.18106" lon="-8.45176">
        <ele>203.46</ele>
        <time>2019-05-21T09:50:13Z</time>
      </trkpt>
      <trkpt lat="40.18104" lon="-8.45175">
        <ele>203.46</ele>
        <time>2019-05-21T09:50:41Z</time>
      </trkpt>
      <trkpt lat="40.18105" lon="-8.45177">
        <ele>203.46</ele>
        <time>2019-05-21T09:51:10Z</time>
      </trkpt>
      <trkpt lat="40.18106" lon="-8.45176">
        <ele>203.46</ele>
        <time>2019-05-21T09:51:34Z</time>
      </trkpt>
      <trkpt lat="40.18106" lon="-8.45177">
        <ele>203.46</ele>
        <time>2019-05-21T09:51:52Z</time>
      </trkpt>
      <trkpt lat="40.18106" lon="-8.45178">
        <ele>203.94</ele>
        <time>2019-05-21T09:52:21Z</time>
      </trkpt>
      <trkpt lat="40.18106" lon="-8.4518">
        <ele>203.94</ele>
        <time>2019-05-21T09:52:47Z</time>
      </trkpt>
      <trkpt lat="40.18106" lon="-8.45185">
        <ele>203.94</ele>
        <time>2019-05-21T09:53:16Z</time>
      </trkpt>
      <trkpt lat="40.18105" lon="-8.45182">
        <ele>204.42</ele>
        <time>2019-05-21T09:53:51Z</time>
      </trkpt>
      <trkpt lat="40.18119" lon="-8.45184">
        <ele>204.42</ele>
        <time>2019-05-21T09:54:03Z</time>
      </trkpt>
      <trkpt lat="40.1812" lon="-8.45184">
        <ele>204.42</ele>
        <time>2019-05-21T09:54:04Z</time>
      </trkpt>
      <trkpt lat="40.18122" lon="-8.45184">
        <ele>204.42</ele>
        <time>2019-05-21T09:54:05Z</time>
      </trkpt>
      <trkpt lat="40.18138" lon="-8.45177">
        <ele>206.34</ele>
        <time>2019-05-21T09:54:20Z</time>
      </trkpt>
      <trkpt lat="40.18145" lon="-8.45174">
        <ele>205.86</ele>
        <time>2019-05-21T09:54:25Z</time>
      </trkpt>
      <trkpt lat="40.18146" lon="-8.45173">
        <ele>205.86</ele>
        <time>2019-05-21T09:54:26Z</time>
      </trkpt>
      <trkpt lat="40.18148" lon="-8.4517">
        <ele>205.38</ele>
        <time>2019-05-21T09:54:28Z</time>
      </trkpt>
      <trkpt lat="40.18153" lon="-8.45154">
        <ele>202.49</ele>
        <time>2019-05-21T09:54:38Z</time>
      </trkpt>
      <trkpt lat="40.18156" lon="-8.45148">
        <ele>201.53</ele>
        <time>2019-05-21T09:54:42Z</time>
      </trkpt>
      <trkpt lat="40.18157" lon="-8.45146">
        <ele>201.53</ele>
        <time>2019-05-21T09:54:43Z</time>
      </trkpt>
      <trkpt lat="40.18158" lon="-8.45145">
        <ele>202.01</ele>
        <time>2019-05-21T09:54:44Z</time>
      </trkpt>
      <trkpt lat="40.1816" lon="-8.45144">
        <ele>202.01</ele>
        <time>2019-05-21T09:54:45Z</time>
      </trkpt>
      <trkpt lat="40.18161" lon="-8.45143">
        <ele>201.05</ele>
        <time>2019-05-21T09:54:46Z</time>
      </trkpt>
      <trkpt lat="40.18162" lon="-8.45143">
        <ele>201.53</ele>
        <time>2019-05-21T09:54:47Z</time>
      </trkpt>
      <trkpt lat="40.18177" lon="-8.4515">
        <ele>199.61</ele>
        <time>2019-05-21T09:55:01Z</time>
      </trkpt>
      <trkpt lat="40.18179" lon="-8.4515">
        <ele>199.13</ele>
        <time>2019-05-21T09:55:08Z</time>
      </trkpt>
      <trkpt lat="40.1818" lon="-8.45151">
        <ele>199.13</ele>
        <time>2019-05-21T09:55:09Z</time>
      </trkpt>
      <trkpt lat="40.18181" lon="-8.45152">
        <ele>199.13</ele>
        <time>2019-05-21T09:55:10Z</time>
      </trkpt>
      <trkpt lat="40.18182" lon="-8.45153">
        <ele>199.13</ele>
        <time>2019-05-21T09:55:11Z</time>
      </trkpt>
      <trkpt lat="40.18183" lon="-8.45154">
        <ele>199.13</ele>
        <time>2019-05-21T09:55:12Z</time>
      </trkpt>
      <trkpt lat="40.18183" lon="-8.45155">
        <ele>198.65</ele>
        <time>2019-05-21T09:55:13Z</time>
      </trkpt>
      <trkpt lat="40.18198" lon="-8.45156">
        <ele>195.28</ele>
        <time>2019-05-21T09:55:25Z</time>
      </trkpt>
      <trkpt lat="40.182" lon="-8.45156">
        <ele>195.77</ele>
        <time>2019-05-21T09:55:26Z</time>
      </trkpt>
      <trkpt lat="40.18215" lon="-8.45144">
        <ele>192.88</ele>
        <time>2019-05-21T09:55:41Z</time>
      </trkpt>
      <trkpt lat="40.18228" lon="-8.45131">
        <ele>189.52</ele>
        <time>2019-05-21T09:55:56Z</time>
      </trkpt>
      <trkpt lat="40.18243" lon="-8.45119">
        <ele>186.63</ele>
        <time>2019-05-21T09:56:11Z</time>
      </trkpt>
      <trkpt lat="40.18246" lon="-8.45117">
        <ele>185.67</ele>
        <time>2019-05-21T09:56:15Z</time>
      </trkpt>
      <trkpt lat="40.18248" lon="-8.45117">
        <ele>185.67</ele>
        <time>2019-05-21T09:56:16Z</time>
      </trkpt>
      <trkpt lat="40.18249" lon="-8.45116">
        <ele>185.67</ele>
        <time>2019-05-21T09:56:17Z</time>
      </trkpt>
      <trkpt lat="40.18255" lon="-8.45111">
        <ele>184.71</ele>
        <time>2019-05-21T09:56:23Z</time>
      </trkpt>
      <trkpt lat="40.18258" lon="-8.45108">
        <ele>184.23</ele>
        <time>2019-05-21T09:56:26Z</time>
      </trkpt>
      <trkpt lat="40.18268" lon="-8.45102">
        <ele>183.27</ele>
        <time>2019-05-21T09:56:34Z</time>
      </trkpt>
      <trkpt lat="40.18269" lon="-8.45101">
        <ele>183.27</ele>
        <time>2019-05-21T09:56:35Z</time>
      </trkpt>
      <trkpt lat="40.18271" lon="-8.451">
        <ele>183.27</ele>
        <time>2019-05-21T09:56:36Z</time>
      </trkpt>
      <trkpt lat="40.18272" lon="-8.45099">
        <ele>182.79</ele>
        <time>2019-05-21T09:56:37Z</time>
      </trkpt>
      <trkpt lat="40.18273" lon="-8.45098">
        <ele>182.79</ele>
        <time>2019-05-21T09:56:38Z</time>
      </trkpt>
      <trkpt lat="40.18274" lon="-8.45097">
        <ele>181.83</ele>
        <time>2019-05-21T09:56:39Z</time>
      </trkpt>
      <trkpt lat="40.18275" lon="-8.45095">
        <ele>181.83</ele>
        <time>2019-05-21T09:56:40Z</time>
      </trkpt>
      <trkpt lat="40.18277" lon="-8.45094">
        <ele>181.83</ele>
        <time>2019-05-21T09:56:41Z</time>
      </trkpt>
      <trkpt lat="40.18278" lon="-8.45093">
        <ele>181.83</ele>
        <time>2019-05-21T09:56:42Z</time>
      </trkpt>
      <trkpt lat="40.18279" lon="-8.45091">
        <ele>181.35</ele>
        <time>2019-05-21T09:56:43Z</time>
      </trkpt>
      <trkpt lat="40.18279" lon="-8.4509">
        <ele>181.35</ele>
        <time>2019-05-21T09:56:44Z</time>
      </trkpt>
      <trkpt lat="40.18279" lon="-8.45088">
        <ele>180.38</ele>
        <time>2019-05-21T09:56:45Z</time>
      </trkpt>
      <trkpt lat="40.18279" lon="-8.45087">
        <ele>180.87</ele>
        <time>2019-05-21T09:56:46Z</time>
      </trkpt>
      <trkpt lat="40.18279" lon="-8.45085">
        <ele>180.87</ele>
        <time>2019-05-21T09:56:47Z</time>
      </trkpt>
      <trkpt lat="40.1828" lon="-8.45084">
        <ele>180.38</ele>
        <time>2019-05-21T09:56:48Z</time>
      </trkpt>
      <trkpt lat="40.1828" lon="-8.45082">
        <ele>180.87</ele>
        <time>2019-05-21T09:56:49Z</time>
      </trkpt>
      <trkpt lat="40.1828" lon="-8.45081">
        <ele>180.87</ele>
        <time>2019-05-21T09:56:50Z</time>
      </trkpt>
      <trkpt lat="40.18281" lon="-8.45079">
        <ele>180.87</ele>
        <time>2019-05-21T09:56:51Z</time>
      </trkpt>
      <trkpt lat="40.18284" lon="-8.4507">
        <ele>179.9</ele>
        <time>2019-05-21T09:56:57Z</time>
      </trkpt>
      <trkpt lat="40.18284" lon="-8.45068">
        <ele>179.9</ele>
        <time>2019-05-21T09:56:58Z</time>
      </trkpt>
      <trkpt lat="40.18288" lon="-8.45045">
        <ele>178.94</ele>
        <time>2019-05-21T09:57:12Z</time>
      </trkpt>
      <trkpt lat="40.18287" lon="-8.45032">
        <ele>177.98</ele>
        <time>2019-05-21T09:57:20Z</time>
      </trkpt>
      <trkpt lat="40.18286" lon="-8.45031">
        <ele>177.5</ele>
        <time>2019-05-21T09:57:21Z</time>
      </trkpt>
      <trkpt lat="40.18271" lon="-8.45023">
        <ele>174.14</ele>
        <time>2019-05-21T09:57:34Z</time>
      </trkpt>
      <trkpt lat="40.18255" lon="-8.45022">
        <ele>171.73</ele>
        <time>2019-05-21T09:57:47Z</time>
      </trkpt>
      <trkpt lat="40.18253" lon="-8.45019">
        <ele>171.25</ele>
        <time>2019-05-21T09:57:50Z</time>
      </trkpt>
      <trkpt lat="40.18252" lon="-8.45016">
        <ele>170.77</ele>
        <time>2019-05-21T09:57:52Z</time>
      </trkpt>
      <trkpt lat="40.18252" lon="-8.44995">
        <ele>168.37</ele>
        <time>2019-05-21T09:58:05Z</time>
      </trkpt>
      <trkpt lat="40.18254" lon="-8.44972">
        <ele>165.96</ele>
        <time>2019-05-21T09:58:19Z</time>
      </trkpt>
      <trkpt lat="40.18258" lon="-8.44949">
        <ele>164.04</ele>
        <time>2019-05-21T09:58:33Z</time>
      </trkpt>
      <trkpt lat="40.18262" lon="-8.44919">
        <ele>162.12</ele>
        <time>2019-05-21T09:58:50Z</time>
      </trkpt>
      <trkpt lat="40.18264" lon="-8.44908">
        <ele>161.16</ele>
        <time>2019-05-21T09:58:57Z</time>
      </trkpt>
      <trkpt lat="40.18264" lon="-8.44906">
        <ele>160.68</ele>
        <time>2019-05-21T09:58:58Z</time>
      </trkpt>
      <trkpt lat="40.18264" lon="-8.44905">
        <ele>161.16</ele>
        <time>2019-05-21T09:58:59Z</time>
      </trkpt>
      <trkpt lat="40.18264" lon="-8.44903">
        <ele>161.16</ele>
        <time>2019-05-21T09:59:00Z</time>
      </trkpt>
      <trkpt lat="40.18265" lon="-8.44902">
        <ele>161.16</ele>
        <time>2019-05-21T09:59:01Z</time>
      </trkpt>
      <trkpt lat="40.18265" lon="-8.449">
        <ele>161.16</ele>
        <time>2019-05-21T09:59:02Z</time>
      </trkpt>
      <trkpt lat="40.18266" lon="-8.44898">
        <ele>161.16</ele>
        <time>2019-05-21T09:59:03Z</time>
      </trkpt>
      <trkpt lat="40.18266" lon="-8.44897">
        <ele>160.2</ele>
        <time>2019-05-21T09:59:04Z</time>
      </trkpt>
      <trkpt lat="40.18267" lon="-8.44895">
        <ele>160.68</ele>
        <time>2019-05-21T09:59:05Z</time>
      </trkpt>
      <trkpt lat="40.18268" lon="-8.44894">
        <ele>160.68</ele>
        <time>2019-05-21T09:59:06Z</time>
      </trkpt>
      <trkpt lat="40.18268" lon="-8.44892">
        <ele>160.68</ele>
        <time>2019-05-21T09:59:07Z</time>
      </trkpt>
      <trkpt lat="40.18269" lon="-8.44891">
        <ele>160.68</ele>
        <time>2019-05-21T09:59:08Z</time>
      </trkpt>
      <trkpt lat="40.18273" lon="-8.4488">
        <ele>160.68</ele>
        <time>2019-05-21T09:59:23Z</time>
      </trkpt>
      <trkpt lat="40.18274" lon="-8.4488">
        <ele>160.2</ele>
        <time>2019-05-21T09:59:39Z</time>
      </trkpt>
      <trkpt lat="40.18275" lon="-8.4488">
        <ele>159.24</ele>
        <time>2019-05-21T09:59:41Z</time>
      </trkpt>
      <trkpt lat="40.18276" lon="-8.44881">
        <ele>160.2</ele>
        <time>2019-05-21T09:59:59Z</time>
      </trkpt>
      <trkpt lat="40.1828" lon="-8.44881">
        <ele>158.75</ele>
        <time>2019-05-21T10:00:04Z</time>
      </trkpt>
      <trkpt lat="40.18286" lon="-8.44878">
        <ele>158.27</ele>
        <time>2019-05-21T10:00:14Z</time>
      </trkpt>
      <trkpt lat="40.18287" lon="-8.44878">
        <ele>157.79</ele>
        <time>2019-05-21T10:00:15Z</time>
      </trkpt>
      <trkpt lat="40.18289" lon="-8.44878">
        <ele>157.79</ele>
        <time>2019-05-21T10:00:16Z</time>
      </trkpt>
      <trkpt lat="40.18312" lon="-8.44878">
        <ele>154.43</ele>
        <time>2019-05-21T10:00:31Z</time>
      </trkpt>
      <trkpt lat="40.18331" lon="-8.44878">
        <ele>152.99</ele>
        <time>2019-05-21T10:00:45Z</time>
      </trkpt>
      <trkpt lat="40.18335" lon="-8.44879">
        <ele>151.54</ele>
        <time>2019-05-21T10:00:55Z</time>
      </trkpt>
      <trkpt lat="40.18357" lon="-8.44881">
        <ele>149.62</ele>
        <time>2019-05-21T10:01:11Z</time>
      </trkpt>
      <trkpt lat="40.18373" lon="-8.44882">
        <ele>148.18</ele>
        <time>2019-05-21T10:01:25Z</time>
      </trkpt>
      <trkpt lat="40.18388" lon="-8.44882">
        <ele>145.3</ele>
        <time>2019-05-21T10:01:38Z</time>
      </trkpt>
      <trkpt lat="40.18394" lon="-8.44882">
        <ele>145.3</ele>
        <time>2019-05-21T10:01:50Z</time>
      </trkpt>
      <trkpt lat="40.18401" lon="-8.44883">
        <ele>143.85</ele>
        <time>2019-05-21T10:01:56Z</time>
      </trkpt>
      <trkpt lat="40.1841" lon="-8.44885">
        <ele>142.41</ele>
        <time>2019-05-21T10:02:03Z</time>
      </trkpt>
      <trkpt lat="40.18421" lon="-8.44887">
        <ele>140.97</ele>
        <time>2019-05-21T10:02:11Z</time>
      </trkpt>
      <trkpt lat="40.18439" lon="-8.44889">
        <ele>139.05</ele>
        <time>2019-05-21T10:02:25Z</time>
      </trkpt>
      <trkpt lat="40.18455" lon="-8.44889">
        <ele>138.09</ele>
        <time>2019-05-21T10:02:38Z</time>
      </trkpt>
      <trkpt lat="40.18474" lon="-8.44893">
        <ele>135.68</ele>
        <time>2019-05-21T10:02:53Z</time>
      </trkpt>
      <trkpt lat="40.18485" lon="-8.44894">
        <ele>135.68</ele>
        <time>2019-05-21T10:03:04Z</time>
      </trkpt>
      <trkpt lat="40.18505" lon="-8.44894">
        <ele>133.76</ele>
        <time>2019-05-21T10:03:18Z</time>
      </trkpt>
      <trkpt lat="40.18532" lon="-8.44897">
        <ele>134.24</ele>
        <time>2019-05-21T10:03:36Z</time>
      </trkpt>
      <trkpt lat="40.18555" lon="-8.44902">
        <ele>133.76</ele>
        <time>2019-05-21T10:03:53Z</time>
      </trkpt>
      <trkpt lat="40.18569" lon="-8.44905">
        <ele>133.76</ele>
        <time>2019-05-21T10:04:08Z</time>
      </trkpt>
      <trkpt lat="40.18583" lon="-8.44911">
        <ele>133.28</ele>
        <time>2019-05-21T10:04:20Z</time>
      </trkpt>
      <trkpt lat="40.18607" lon="-8.44917">
        <ele>132.32</ele>
        <time>2019-05-21T10:04:38Z</time>
      </trkpt>
      <trkpt lat="40.18627" lon="-8.44918">
        <ele>132.8</ele>
        <time>2019-05-21T10:04:54Z</time>
      </trkpt>
      <trkpt lat="40.18638" lon="-8.44912">
        <ele>133.28</ele>
        <time>2019-05-21T10:05:07Z</time>
      </trkpt>
      <trkpt lat="40.18647" lon="-8.44903">
        <ele>132.8</ele>
        <time>2019-05-21T10:05:21Z</time>
      </trkpt>
      <trkpt lat="40.18664" lon="-8.4489">
        <ele>132.8</ele>
        <time>2019-05-21T10:05:36Z</time>
      </trkpt>
      <trkpt lat="40.18679" lon="-8.44878">
        <ele>131.84</ele>
        <time>2019-05-21T10:05:50Z</time>
      </trkpt>
      <trkpt lat="40.18684" lon="-8.44873">
        <ele>131.84</ele>
        <time>2019-05-21T10:06:04Z</time>
      </trkpt>
      <trkpt lat="40.18696" lon="-8.44865">
        <ele>131.36</ele>
        <time>2019-05-21T10:06:18Z</time>
      </trkpt>
      <trkpt lat="40.18715" lon="-8.44867">
        <ele>129.92</ele>
        <time>2019-05-21T10:06:34Z</time>
      </trkpt>
      <trkpt lat="40.18716" lon="-8.44869">
        <ele>129.92</ele>
        <time>2019-05-21T10:06:37Z</time>
      </trkpt>
      <trkpt lat="40.18717" lon="-8.4487">
        <ele>129.92</ele>
        <time>2019-05-21T10:06:38Z</time>
      </trkpt>
      <trkpt lat="40.18743" lon="-8.44886">
        <ele>127.99</ele>
        <time>2019-05-21T10:06:58Z</time>
      </trkpt>
      <trkpt lat="40.18754" lon="-8.44891">
        <ele>126.55</ele>
        <time>2019-05-21T10:07:06Z</time>
      </trkpt>
      <trkpt lat="40.18777" lon="-8.44903">
        <ele>124.63</ele>
        <time>2019-05-21T10:07:23Z</time>
      </trkpt>
      <trkpt lat="40.18795" lon="-8.44912">
        <ele>122.71</ele>
        <time>2019-05-21T10:07:37Z</time>
      </trkpt>
      <trkpt lat="40.18815" lon="-8.44925">
        <ele>121.26</ele>
        <time>2019-05-21T10:07:54Z</time>
      </trkpt>
      <trkpt lat="40.18835" lon="-8.44932">
        <ele>118.86</ele>
        <time>2019-05-21T10:08:09Z</time>
      </trkpt>
      <trkpt lat="40.18852" lon="-8.44937">
        <ele>117.42</ele>
        <time>2019-05-21T10:08:23Z</time>
      </trkpt>
      <trkpt lat="40.18853" lon="-8.44937">
        <ele>117.42</ele>
        <time>2019-05-21T10:08:24Z</time>
      </trkpt>
      <trkpt lat="40.18854" lon="-8.44937">
        <ele>117.42</ele>
        <time>2019-05-21T10:08:25Z</time>
      </trkpt>
      <trkpt lat="40.18874" lon="-8.4494">
        <ele>115.01</ele>
        <time>2019-05-21T10:08:40Z</time>
      </trkpt>
      <trkpt lat="40.18889" lon="-8.44937">
        <ele>113.57</ele>
        <time>2019-05-21T10:08:56Z</time>
      </trkpt>
      <trkpt lat="40.18897" lon="-8.44935">
        <ele>112.13</ele>
        <time>2019-05-21T10:09:03Z</time>
      </trkpt>
      <trkpt lat="40.18899" lon="-8.44935">
        <ele>111.65</ele>
        <time>2019-05-21T10:09:04Z</time>
      </trkpt>
      <trkpt lat="40.18901" lon="-8.44935">
        <ele>112.13</ele>
        <time>2019-05-21T10:09:05Z</time>
      </trkpt>
      <trkpt lat="40.18922" lon="-8.44935">
        <ele>110.69</ele>
        <time>2019-05-21T10:09:18Z</time>
      </trkpt>
      <trkpt lat="40.18944" lon="-8.44933">
        <ele>108.77</ele>
        <time>2019-05-21T10:09:33Z</time>
      </trkpt>
      <trkpt lat="40.18964" lon="-8.4493">
        <ele>106.84</ele>
        <time>2019-05-21T10:09:48Z</time>
      </trkpt>
      <trkpt lat="40.18983" lon="-8.44926">
        <ele>105.4</ele>
        <time>2019-05-21T10:10:02Z</time>
      </trkpt>
      <trkpt lat="40.19003" lon="-8.44924">
        <ele>103.96</ele>
        <time>2019-05-21T10:10:18Z</time>
      </trkpt>
      <trkpt lat="40.19022" lon="-8.44922">
        <ele>102.52</ele>
        <time>2019-05-21T10:10:31Z</time>
      </trkpt>
      <trkpt lat="40.19033" lon="-8.44922">
        <ele>101.56</ele>
        <time>2019-05-21T10:10:44Z</time>
      </trkpt>
      <trkpt lat="40.19045" lon="-8.44921">
        <ele>100.11</ele>
        <time>2019-05-21T10:10:58Z</time>
      </trkpt>
      <trkpt lat="40.19046" lon="-8.44922">
        <ele>100.11</ele>
        <time>2019-05-21T10:11:15Z</time>
      </trkpt>
      <trkpt lat="40.19047" lon="-8.44922">
        <ele>100.11</ele>
        <time>2019-05-21T10:11:42Z</time>
      </trkpt>
      <trkpt lat="40.19047" lon="-8.44922">
        <ele>100.11</ele>
        <time>2019-05-21T10:12:01Z</time>
      </trkpt>
      <trkpt lat="40.19061" lon="-8.44919">
        <ele>99.15</ele>
        <time>2019-05-21T10:12:14Z</time>
      </trkpt>
      <trkpt lat="40.19082" lon="-8.44915">
        <ele>97.23</ele>
        <time>2019-05-21T10:12:30Z</time>
      </trkpt>
      <trkpt lat="40.19106" lon="-8.44908">
        <ele>95.79</ele>
        <time>2019-05-21T10:12:48Z</time>
      </trkpt>
      <trkpt lat="40.19127" lon="-8.449">
        <ele>94.83</ele>
        <time>2019-05-21T10:13:05Z</time>
      </trkpt>
      <trkpt lat="40.19142" lon="-8.44894">
        <ele>93.87</ele>
        <time>2019-05-21T10:13:18Z</time>
      </trkpt>
      <trkpt lat="40.19163" lon="-8.44888">
        <ele>92.9</ele>
        <time>2019-05-21T10:13:32Z</time>
      </trkpt>
      <trkpt lat="40.19176" lon="-8.44885">
        <ele>92.42</ele>
        <time>2019-05-21T10:13:45Z</time>
      </trkpt>
      <trkpt lat="40.19176" lon="-8.44885">
        <ele>92.42</ele>
        <time>2019-05-21T10:13:49Z</time>
      </trkpt>
      <trkpt lat="40.19177" lon="-8.44885">
        <ele>91.94</ele>
        <time>2019-05-21T10:13:50Z</time>
      </trkpt>
      <trkpt lat="40.19197" lon="-8.44878">
        <ele>90.98</ele>
        <time>2019-05-21T10:14:06Z</time>
      </trkpt>
      <trkpt lat="40.1922" lon="-8.4487">
        <ele>90.02</ele>
        <time>2019-05-21T10:14:24Z</time>
      </trkpt>
      <trkpt lat="40.1924" lon="-8.44863">
        <ele>90.02</ele>
        <time>2019-05-21T10:14:40Z</time>
      </trkpt>
      <trkpt lat="40.19259" lon="-8.44849">
        <ele>88.58</ele>
        <time>2019-05-21T10:14:57Z</time>
      </trkpt>
      <trkpt lat="40.19264" lon="-8.44846">
        <ele>88.1</ele>
        <time>2019-05-21T10:15:11Z</time>
      </trkpt>
      <trkpt lat="40.19281" lon="-8.44838">
        <ele>87.14</ele>
        <time>2019-05-21T10:15:26Z</time>
      </trkpt>
      <trkpt lat="40.19286" lon="-8.44838">
        <ele>87.14</ele>
        <time>2019-05-21T10:15:31Z</time>
      </trkpt>
      <trkpt lat="40.19287" lon="-8.44839">
        <ele>86.18</ele>
        <time>2019-05-21T10:15:32Z</time>
      </trkpt>
      <trkpt lat="40.19303" lon="-8.44848">
        <ele>85.69</ele>
        <time>2019-05-21T10:15:45Z</time>
      </trkpt>
      <trkpt lat="40.19318" lon="-8.44857">
        <ele>85.69</ele>
        <time>2019-05-21T10:15:59Z</time>
      </trkpt>
      <trkpt lat="40.19323" lon="-8.4486">
        <ele>85.21</ele>
        <time>2019-05-21T10:16:07Z</time>
      </trkpt>
      <trkpt lat="40.19324" lon="-8.44861">
        <ele>84.73</ele>
        <time>2019-05-21T10:16:08Z</time>
      </trkpt>
      <trkpt lat="40.19338" lon="-8.44868">
        <ele>83.29</ele>
        <time>2019-05-21T10:16:23Z</time>
      </trkpt>
      <trkpt lat="40.1935" lon="-8.44875">
        <ele>81.85</ele>
        <time>2019-05-21T10:16:34Z</time>
      </trkpt>
      <trkpt lat="40.19359" lon="-8.44883">
        <ele>81.37</ele>
        <time>2019-05-21T10:16:42Z</time>
      </trkpt>
      <trkpt lat="40.1936" lon="-8.44885">
        <ele>80.89</ele>
        <time>2019-05-21T10:16:44Z</time>
      </trkpt>
      <trkpt lat="40.19376" lon="-8.44895">
        <ele>79.93</ele>
        <time>2019-05-21T10:16:57Z</time>
      </trkpt>
      <trkpt lat="40.19397" lon="-8.44906">
        <ele>79.93</ele>
        <time>2019-05-21T10:17:13Z</time>
      </trkpt>
      <trkpt lat="40.19413" lon="-8.44913">
        <ele>79.45</ele>
        <time>2019-05-21T10:17:27Z</time>
      </trkpt>
      <trkpt lat="40.19432" lon="-8.4492">
        <ele>79.45</ele>
        <time>2019-05-21T10:17:42Z</time>
      </trkpt>
      <trkpt lat="40.19452" lon="-8.44925">
        <ele>78.48</ele>
        <time>2019-05-21T10:17:57Z</time>
      </trkpt>
      <trkpt lat="40.19464" lon="-8.44932">
        <ele>76.08</ele>
        <time>2019-05-21T10:18:09Z</time>
      </trkpt>
      <trkpt lat="40.19466" lon="-8.44933">
        <ele>77.04</ele>
        <time>2019-05-21T10:18:11Z</time>
      </trkpt>
      <trkpt lat="40.19467" lon="-8.44933">
        <ele>76.08</ele>
        <time>2019-05-21T10:18:12Z</time>
      </trkpt>
      <trkpt lat="40.19469" lon="-8.44934">
        <ele>76.08</ele>
        <time>2019-05-21T10:18:13Z</time>
      </trkpt>
      <trkpt lat="40.19485" lon="-8.44941">
        <ele>75.6</ele>
        <time>2019-05-21T10:18:26Z</time>
      </trkpt>
      <trkpt lat="40.19489" lon="-8.44942">
        <ele>76.08</ele>
        <time>2019-05-21T10:18:29Z</time>
      </trkpt>
      <trkpt lat="40.19493" lon="-8.44944">
        <ele>75.6</ele>
        <time>2019-05-21T10:18:32Z</time>
      </trkpt>
      <trkpt lat="40.19507" lon="-8.44939">
        <ele>76.56</ele>
        <time>2019-05-21T10:18:45Z</time>
      </trkpt>
      <trkpt lat="40.19515" lon="-8.44936">
        <ele>77.04</ele>
        <time>2019-05-21T10:18:58Z</time>
      </trkpt>
      <trkpt lat="40.1952" lon="-8.44934">
        <ele>77.04</ele>
        <time>2019-05-21T10:19:05Z</time>
      </trkpt>
      <trkpt lat="40.19521" lon="-8.44933">
        <ele>77.04</ele>
        <time>2019-05-21T10:19:06Z</time>
      </trkpt>
      <trkpt lat="40.19525" lon="-8.44925">
        <ele>77.04</ele>
        <time>2019-05-21T10:19:18Z</time>
      </trkpt>
      <trkpt lat="40.19526" lon="-8.44915">
        <ele>78</ele>
        <time>2019-05-21T10:19:30Z</time>
      </trkpt>
      <trkpt lat="40.19529" lon="-8.44899">
        <ele>78.97</ele>
        <time>2019-05-21T10:19:43Z</time>
      </trkpt>
      <trkpt lat="40.19529" lon="-8.44883">
        <ele>78.97</ele>
        <time>2019-05-21T10:19:55Z</time>
      </trkpt>
      <trkpt lat="40.19532" lon="-8.44863">
        <ele>80.89</ele>
        <time>2019-05-21T10:20:11Z</time>
      </trkpt>
      <trkpt lat="40.19534" lon="-8.4486">
        <ele>80.89</ele>
        <time>2019-05-21T10:20:13Z</time>
      </trkpt>
      <trkpt lat="40.19536" lon="-8.44848">
        <ele>81.37</ele>
        <time>2019-05-21T10:20:21Z</time>
      </trkpt>
      <trkpt lat="40.19536" lon="-8.44846">
        <ele>81.85</ele>
        <time>2019-05-21T10:20:22Z</time>
      </trkpt>
      <trkpt lat="40.19537" lon="-8.44844">
        <ele>81.37</ele>
        <time>2019-05-21T10:20:24Z</time>
      </trkpt>
      <trkpt lat="40.19537" lon="-8.44829">
        <ele>82.81</ele>
        <time>2019-05-21T10:20:38Z</time>
      </trkpt>
      <trkpt lat="40.19537" lon="-8.44816">
        <ele>83.29</ele>
        <time>2019-05-21T10:20:46Z</time>
      </trkpt>
      <trkpt lat="40.19538" lon="-8.44809">
        <ele>83.29</ele>
        <time>2019-05-21T10:20:51Z</time>
      </trkpt>
      <trkpt lat="40.1954" lon="-8.44791">
        <ele>84.73</ele>
        <time>2019-05-21T10:21:04Z</time>
      </trkpt>
      <trkpt lat="40.19542" lon="-8.44773">
        <ele>85.69</ele>
        <time>2019-05-21T10:21:18Z</time>
      </trkpt>
      <trkpt lat="40.19542" lon="-8.44771">
        <ele>86.18</ele>
        <time>2019-05-21T10:21:19Z</time>
      </trkpt>
      <trkpt lat="40.19542" lon="-8.44768">
        <ele>86.18</ele>
        <time>2019-05-21T10:21:21Z</time>
      </trkpt>
      <trkpt lat="40.19544" lon="-8.44751">
        <ele>87.14</ele>
        <time>2019-05-21T10:21:34Z</time>
      </trkpt>
      <trkpt lat="40.19552" lon="-8.44733">
        <ele>88.1</ele>
        <time>2019-05-21T10:21:49Z</time>
      </trkpt>
      <trkpt lat="40.19561" lon="-8.44721">
        <ele>88.1</ele>
        <time>2019-05-21T10:22:02Z</time>
      </trkpt>
      <trkpt lat="40.19574" lon="-8.44706">
        <ele>89.54</ele>
        <time>2019-05-21T10:22:17Z</time>
      </trkpt>
      <trkpt lat="40.19585" lon="-8.44692">
        <ele>90.5</ele>
        <time>2019-05-21T10:22:32Z</time>
      </trkpt>
      <trkpt lat="40.19592" lon="-8.4468">
        <ele>91.94</ele>
        <time>2019-05-21T10:22:46Z</time>
      </trkpt>
      <trkpt lat="40.19599" lon="-8.44671">
        <ele>92.9</ele>
        <time>2019-05-21T10:22:57Z</time>
      </trkpt>
      <trkpt lat="40.19601" lon="-8.4467">
        <ele>93.39</ele>
        <time>2019-05-21T10:22:58Z</time>
      </trkpt>
      <trkpt lat="40.19609" lon="-8.44665">
        <ele>92.9</ele>
        <time>2019-05-21T10:23:05Z</time>
      </trkpt>
      <trkpt lat="40.19621" lon="-8.44657">
        <ele>94.35</ele>
        <time>2019-05-21T10:23:16Z</time>
      </trkpt>
      <trkpt lat="40.19634" lon="-8.44642">
        <ele>95.31</ele>
        <time>2019-05-21T10:23:33Z</time>
      </trkpt>
      <trkpt lat="40.19642" lon="-8.4463">
        <ele>96.75</ele>
        <time>2019-05-21T10:23:47Z</time>
      </trkpt>
      <trkpt lat="40.19654" lon="-8.44618">
        <ele>96.75</ele>
        <time>2019-05-21T10:24:02Z</time>
      </trkpt>
      <trkpt lat="40.19658" lon="-8.44616">
        <ele>97.23</ele>
        <time>2019-05-21T10:24:05Z</time>
      </trkpt>
      <trkpt lat="40.19659" lon="-8.44614">
        <ele>96.27</ele>
        <time>2019-05-21T10:24:06Z</time>
      </trkpt>
      <trkpt lat="40.1966" lon="-8.44613">
        <ele>96.27</ele>
        <time>2019-05-21T10:24:07Z</time>
      </trkpt>
      <trkpt lat="40.19661" lon="-8.44612">
        <ele>96.27</ele>
        <time>2019-05-21T10:24:08Z</time>
      </trkpt>
      <trkpt lat="40.19662" lon="-8.44611">
        <ele>96.75</ele>
        <time>2019-05-21T10:24:09Z</time>
      </trkpt>
      <trkpt lat="40.19662" lon="-8.4461">
        <ele>96.75</ele>
        <time>2019-05-21T10:24:10Z</time>
      </trkpt>
      <trkpt lat="40.19663" lon="-8.44608">
        <ele>96.75</ele>
        <time>2019-05-21T10:24:11Z</time>
      </trkpt>
      <trkpt lat="40.19663" lon="-8.44607">
        <ele>96.27</ele>
        <time>2019-05-21T10:24:12Z</time>
      </trkpt>
      <trkpt lat="40.19673" lon="-8.44591">
        <ele>95.31</ele>
        <time>2019-05-21T10:24:27Z</time>
      </trkpt>
      <trkpt lat="40.19686" lon="-8.44573">
        <ele>93.87</ele>
        <time>2019-05-21T10:24:44Z</time>
      </trkpt>
      <trkpt lat="40.19696" lon="-8.44561">
        <ele>93.39</ele>
        <time>2019-05-21T10:24:58Z</time>
      </trkpt>
      <trkpt lat="40.19702" lon="-8.4455">
        <ele>92.9</ele>
        <time>2019-05-21T10:25:08Z</time>
      </trkpt>
      <trkpt lat="40.19713" lon="-8.4454">
        <ele>91.94</ele>
        <time>2019-05-21T10:25:19Z</time>
      </trkpt>
      <trkpt lat="40.19714" lon="-8.44539">
        <ele>91.94</ele>
        <time>2019-05-21T10:25:20Z</time>
      </trkpt>
      <trkpt lat="40.19715" lon="-8.44538">
        <ele>91.94</ele>
        <time>2019-05-21T10:25:21Z</time>
      </trkpt>
      <trkpt lat="40.19733" lon="-8.44525">
        <ele>90.98</ele>
        <time>2019-05-21T10:25:35Z</time>
      </trkpt>
      <trkpt lat="40.19746" lon="-8.44511">
        <ele>91.46</ele>
        <time>2019-05-21T10:25:49Z</time>
      </trkpt>
      <trkpt lat="40.19748" lon="-8.4451">
        <ele>91.94</ele>
        <time>2019-05-21T10:25:51Z</time>
      </trkpt>
      <trkpt lat="40.19752" lon="-8.44508">
        <ele>91.46</ele>
        <time>2019-05-21T10:25:54Z</time>
      </trkpt>
      <trkpt lat="40.19756" lon="-8.44505">
        <ele>91.46</ele>
        <time>2019-05-21T10:25:57Z</time>
      </trkpt>
      <trkpt lat="40.19768" lon="-8.44486">
        <ele>92.42</ele>
        <time>2019-05-21T10:26:13Z</time>
      </trkpt>
      <trkpt lat="40.19773" lon="-8.44474">
        <ele>92.42</ele>
        <time>2019-05-21T10:26:22Z</time>
      </trkpt>
      <trkpt lat="40.19774" lon="-8.44471">
        <ele>92.42</ele>
        <time>2019-05-21T10:26:24Z</time>
      </trkpt>
      <trkpt lat="40.19779" lon="-8.44466">
        <ele>92.42</ele>
        <time>2019-05-21T10:26:31Z</time>
      </trkpt>
      <trkpt lat="40.1978" lon="-8.44465">
        <ele>91.94</ele>
        <time>2019-05-21T10:26:32Z</time>
      </trkpt>
      <trkpt lat="40.19793" lon="-8.44458">
        <ele>92.42</ele>
        <time>2019-05-21T10:26:43Z</time>
      </trkpt>
      <trkpt lat="40.19793" lon="-8.44457">
        <ele>92.9</ele>
        <time>2019-05-21T10:26:44Z</time>
      </trkpt>
      <trkpt lat="40.19802" lon="-8.44441">
        <ele>93.87</ele>
        <time>2019-05-21T10:26:59Z</time>
      </trkpt>
      <trkpt lat="40.1981" lon="-8.44418">
        <ele>94.83</ele>
        <time>2019-05-21T10:27:13Z</time>
      </trkpt>
      <trkpt lat="40.1982" lon="-8.44399">
        <ele>95.79</ele>
        <time>2019-05-21T10:27:27Z</time>
      </trkpt>
      <trkpt lat="40.1983" lon="-8.44382">
        <ele>97.23</ele>
        <time>2019-05-21T10:27:41Z</time>
      </trkpt>
      <trkpt lat="40.19839" lon="-8.44368">
        <ele>96.75</ele>
        <time>2019-05-21T10:27:54Z</time>
      </trkpt>
      <trkpt lat="40.19851" lon="-8.4435">
        <ele>99.15</ele>
        <time>2019-05-21T10:28:10Z</time>
      </trkpt>
      <trkpt lat="40.19861" lon="-8.44333">
        <ele>100.11</ele>
        <time>2019-05-21T10:28:24Z</time>
      </trkpt>
      <trkpt lat="40.1987" lon="-8.44314">
        <ele>100.6</ele>
        <time>2019-05-21T10:28:39Z</time>
      </trkpt>
      <trkpt lat="40.19879" lon="-8.44292">
        <ele>101.56</ele>
        <time>2019-05-21T10:28:55Z</time>
      </trkpt>
      <trkpt lat="40.19884" lon="-8.44286">
        <ele>102.52</ele>
        <time>2019-05-21T10:29:08Z</time>
      </trkpt>
      <trkpt lat="40.19883" lon="-8.44283">
        <ele>102.52</ele>
        <time>2019-05-21T10:29:14Z</time>
      </trkpt>
      <trkpt lat="40.19888" lon="-8.44273">
        <ele>103.48</ele>
        <time>2019-05-21T10:29:22Z</time>
      </trkpt>
      <trkpt lat="40.19894" lon="-8.44253">
        <ele>103.96</ele>
        <time>2019-05-21T10:29:36Z</time>
      </trkpt>
      <trkpt lat="40.19896" lon="-8.44236">
        <ele>104.92</ele>
        <time>2019-05-21T10:29:48Z</time>
      </trkpt>
      <trkpt lat="40.19896" lon="-8.44235">
        <ele>104.92</ele>
        <time>2019-05-21T10:29:49Z</time>
      </trkpt>
      <trkpt lat="40.19896" lon="-8.44233">
        <ele>104.92</ele>
        <time>2019-05-21T10:29:50Z</time>
      </trkpt>
      <trkpt lat="40.19897" lon="-8.44218">
        <ele>105.4</ele>
        <time>2019-05-21T10:30:02Z</time>
      </trkpt>
      <trkpt lat="40.19898" lon="-8.44202">
        <ele>106.84</ele>
        <time>2019-05-21T10:30:14Z</time>
      </trkpt>
      <trkpt lat="40.19896" lon="-8.44182">
        <ele>107.32</ele>
        <time>2019-05-21T10:30:28Z</time>
      </trkpt>
      <trkpt lat="40.19897" lon="-8.44167">
        <ele>107.81</ele>
        <time>2019-05-21T10:30:39Z</time>
      </trkpt>
      <trkpt lat="40.19897" lon="-8.44147">
        <ele>109.25</ele>
        <time>2019-05-21T10:30:53Z</time>
      </trkpt>
      <trkpt lat="40.19899" lon="-8.44144">
        <ele>109.25</ele>
        <time>2019-05-21T10:30:55Z</time>
      </trkpt>
      <trkpt lat="40.19901" lon="-8.44142">
        <ele>108.29</ele>
        <time>2019-05-21T10:30:56Z</time>
      </trkpt>
      <trkpt lat="40.19911" lon="-8.44129">
        <ele>108.77</ele>
        <time>2019-05-21T10:31:07Z</time>
      </trkpt>
      <trkpt lat="40.19913" lon="-8.44126">
        <ele>108.77</ele>
        <time>2019-05-21T10:31:09Z</time>
      </trkpt>
      <trkpt lat="40.19914" lon="-8.44124">
        <ele>109.25</ele>
        <time>2019-05-21T10:31:10Z</time>
      </trkpt>
      <trkpt lat="40.19917" lon="-8.44116">
        <ele>109.25</ele>
        <time>2019-05-21T10:31:14Z</time>
      </trkpt>
      <trkpt lat="40.19918" lon="-8.44115">
        <ele>109.25</ele>
        <time>2019-05-21T10:31:15Z</time>
      </trkpt>
      <trkpt lat="40.19936" lon="-8.44096">
        <ele>109.25</ele>
        <time>2019-05-21T10:31:31Z</time>
      </trkpt>
      <trkpt lat="40.19937" lon="-8.44095">
        <ele>108.77</ele>
        <time>2019-05-21T10:31:32Z</time>
      </trkpt>
      <trkpt lat="40.19942" lon="-8.44089">
        <ele>108.77</ele>
        <time>2019-05-21T10:31:38Z</time>
      </trkpt>
      <trkpt lat="40.19943" lon="-8.44087">
        <ele>108.77</ele>
        <time>2019-05-21T10:31:40Z</time>
      </trkpt>
      <trkpt lat="40.19944" lon="-8.44086">
        <ele>108.77</ele>
        <time>2019-05-21T10:31:41Z</time>
      </trkpt>
      <trkpt lat="40.19946" lon="-8.44085">
        <ele>108.77</ele>
        <time>2019-05-21T10:31:42Z</time>
      </trkpt>
      <trkpt lat="40.19947" lon="-8.44084">
        <ele>108.77</ele>
        <time>2019-05-21T10:31:43Z</time>
      </trkpt>
      <trkpt lat="40.19948" lon="-8.44083">
        <ele>108.77</ele>
        <time>2019-05-21T10:31:44Z</time>
      </trkpt>
      <trkpt lat="40.19949" lon="-8.44082">
        <ele>108.77</ele>
        <time>2019-05-21T10:31:45Z</time>
      </trkpt>
      <trkpt lat="40.1995" lon="-8.44081">
        <ele>107.81</ele>
        <time>2019-05-21T10:31:46Z</time>
      </trkpt>
      <trkpt lat="40.19962" lon="-8.44071">
        <ele>107.32</ele>
        <time>2019-05-21T10:31:57Z</time>
      </trkpt>
      <trkpt lat="40.19973" lon="-8.44057">
        <ele>106.84</ele>
        <time>2019-05-21T10:32:12Z</time>
      </trkpt>
      <trkpt lat="40.19973" lon="-8.44047">
        <ele>106.84</ele>
        <time>2019-05-21T10:32:24Z</time>
      </trkpt>
      <trkpt lat="40.19973" lon="-8.44046">
        <ele>106.36</ele>
        <time>2019-05-21T10:32:25Z</time>
      </trkpt>
      <trkpt lat="40.19972" lon="-8.44044">
        <ele>106.36</ele>
        <time>2019-05-21T10:32:26Z</time>
      </trkpt>
      <trkpt lat="40.19971" lon="-8.44043">
        <ele>106.36</ele>
        <time>2019-05-21T10:32:27Z</time>
      </trkpt>
      <trkpt lat="40.1997" lon="-8.44026">
        <ele>106.36</ele>
        <time>2019-05-21T10:32:38Z</time>
      </trkpt>
      <trkpt lat="40.19969" lon="-8.44024">
        <ele>105.88</ele>
        <time>2019-05-21T10:32:39Z</time>
      </trkpt>
      <trkpt lat="40.19969" lon="-8.44011">
        <ele>105.4</ele>
        <time>2019-05-21T10:32:49Z</time>
      </trkpt>
      <trkpt lat="40.19969" lon="-8.44001">
        <ele>105.4</ele>
        <time>2019-05-21T10:32:57Z</time>
      </trkpt>
      <trkpt lat="40.19975" lon="-8.43988">
        <ele>104.92</ele>
        <time>2019-05-21T10:33:08Z</time>
      </trkpt>
      <trkpt lat="40.19978" lon="-8.43987">
        <ele>104.92</ele>
        <time>2019-05-21T10:33:10Z</time>
      </trkpt>
      <trkpt lat="40.19979" lon="-8.43987">
        <ele>104.44</ele>
        <time>2019-05-21T10:33:11Z</time>
      </trkpt>
      <trkpt lat="40.1999" lon="-8.43985">
        <ele>103.96</ele>
        <time>2019-05-21T10:33:25Z</time>
      </trkpt>
      <trkpt lat="40.19992" lon="-8.43983">
        <ele>103.96</ele>
        <time>2019-05-21T10:33:28Z</time>
      </trkpt>
      <trkpt lat="40.19993" lon="-8.43983">
        <ele>103.96</ele>
        <time>2019-05-21T10:33:29Z</time>
      </trkpt>
      <trkpt lat="40.19995" lon="-8.43982">
        <ele>103.96</ele>
        <time>2019-05-21T10:33:30Z</time>
      </trkpt>
      <trkpt lat="40.20002" lon="-8.43976">
        <ele>103</ele>
        <time>2019-05-21T10:33:37Z</time>
      </trkpt>
      <trkpt lat="40.20004" lon="-8.43973">
        <ele>103</ele>
        <time>2019-05-21T10:33:40Z</time>
      </trkpt>
      <trkpt lat="40.20004" lon="-8.43972">
        <ele>103</ele>
        <time>2019-05-21T10:33:41Z</time>
      </trkpt>
      <trkpt lat="40.20011" lon="-8.43965">
        <ele>102.04</ele>
        <time>2019-05-21T10:33:55Z</time>
      </trkpt>
      <trkpt lat="40.20013" lon="-8.43953">
        <ele>100.6</ele>
        <time>2019-05-21T10:34:08Z</time>
      </trkpt>
      <trkpt lat="40.20012" lon="-8.43949">
        <ele>100.11</ele>
        <time>2019-05-21T10:34:13Z</time>
      </trkpt>
      <trkpt lat="40.2001" lon="-8.43945">
        <ele>100.6</ele>
        <time>2019-05-21T10:34:26Z</time>
      </trkpt>
      <trkpt lat="40.20009" lon="-8.43942">
        <ele>100.11</ele>
        <time>2019-05-21T10:34:44Z</time>
      </trkpt>
      <trkpt lat="40.20011" lon="-8.43928">
        <ele>99.15</ele>
        <time>2019-05-21T10:34:59Z</time>
      </trkpt>
      <trkpt lat="40.20012" lon="-8.43912">
        <ele>97.71</ele>
        <time>2019-05-21T10:35:11Z</time>
      </trkpt>
      <trkpt lat="40.20012" lon="-8.43893">
        <ele>96.75</ele>
        <time>2019-05-21T10:35:23Z</time>
      </trkpt>
      <trkpt lat="40.20013" lon="-8.43874">
        <ele>95.31</ele>
        <time>2019-05-21T10:35:36Z</time>
      </trkpt>
      <trkpt lat="40.20013" lon="-8.4385">
        <ele>94.35</ele>
        <time>2019-05-21T10:35:52Z</time>
      </trkpt>
      <trkpt lat="40.20013" lon="-8.43848">
        <ele>93.87</ele>
        <time>2019-05-21T10:35:53Z</time>
      </trkpt>
      <trkpt lat="40.20013" lon="-8.43846">
        <ele>94.35</ele>
        <time>2019-05-21T10:35:54Z</time>
      </trkpt>
      <trkpt lat="40.2001" lon="-8.43822">
        <ele>92.9</ele>
        <time>2019-05-21T10:36:08Z</time>
      </trkpt>
      <trkpt lat="40.20011" lon="-8.43817">
        <ele>92.9</ele>
        <time>2019-05-21T10:36:13Z</time>
      </trkpt>
      <trkpt lat="40.2002" lon="-8.43803">
        <ele>90.5</ele>
        <time>2019-05-21T10:36:24Z</time>
      </trkpt>
      <trkpt lat="40.20024" lon="-8.43799">
        <ele>90.98</ele>
        <time>2019-05-21T10:36:29Z</time>
      </trkpt>
      <trkpt lat="40.20026" lon="-8.43799">
        <ele>90.5</ele>
        <time>2019-05-21T10:36:30Z</time>
      </trkpt>
      <trkpt lat="40.20027" lon="-8.43798">
        <ele>89.54</ele>
        <time>2019-05-21T10:36:31Z</time>
      </trkpt>
      <trkpt lat="40.20038" lon="-8.43785">
        <ele>89.06</ele>
        <time>2019-05-21T10:36:44Z</time>
      </trkpt>
      <trkpt lat="40.20049" lon="-8.43773">
        <ele>88.1</ele>
        <time>2019-05-21T10:36:56Z</time>
      </trkpt>
      <trkpt lat="40.20056" lon="-8.43767">
        <ele>87.62</ele>
        <time>2019-05-21T10:37:04Z</time>
      </trkpt>
      <trkpt lat="40.20058" lon="-8.43762">
        <ele>87.62</ele>
        <time>2019-05-21T10:37:08Z</time>
      </trkpt>
      <trkpt lat="40.20065" lon="-8.43753">
        <ele>87.14</ele>
        <time>2019-05-21T10:37:23Z</time>
      </trkpt>
      <trkpt lat="40.20069" lon="-8.43745">
        <ele>87.14</ele>
        <time>2019-05-21T10:37:39Z</time>
      </trkpt>
      <trkpt lat="40.20076" lon="-8.43742">
        <ele>85.69</ele>
        <time>2019-05-21T10:37:49Z</time>
      </trkpt>
      <trkpt lat="40.20076" lon="-8.43742">
        <ele>85.21</ele>
        <time>2019-05-21T10:37:50Z</time>
      </trkpt>
      <trkpt lat="40.20077" lon="-8.4374">
        <ele>85.21</ele>
        <time>2019-05-21T10:37:51Z</time>
      </trkpt>
      <trkpt lat="40.20078" lon="-8.43739">
        <ele>85.21</ele>
        <time>2019-05-21T10:37:52Z</time>
      </trkpt>
      <trkpt lat="40.20079" lon="-8.43738">
        <ele>85.69</ele>
        <time>2019-05-21T10:37:53Z</time>
      </trkpt>
      <trkpt lat="40.2008" lon="-8.43737">
        <ele>85.21</ele>
        <time>2019-05-21T10:37:54Z</time>
      </trkpt>
      <trkpt lat="40.20089" lon="-8.43732">
        <ele>84.73</ele>
        <time>2019-05-21T10:38:01Z</time>
      </trkpt>
      <trkpt lat="40.20101" lon="-8.43722">
        <ele>83.29</ele>
        <time>2019-05-21T10:38:15Z</time>
      </trkpt>
      <trkpt lat="40.20114" lon="-8.43715">
        <ele>82.81</ele>
        <time>2019-05-21T10:38:32Z</time>
      </trkpt>
      <trkpt lat="40.20123" lon="-8.4371">
        <ele>81.37</ele>
        <time>2019-05-21T10:38:48Z</time>
      </trkpt>
      <trkpt lat="40.20126" lon="-8.43709">
        <ele>82.81</ele>
        <time>2019-05-21T10:38:55Z</time>
      </trkpt>
      <trkpt lat="40.20134" lon="-8.43706">
        <ele>81.85</ele>
        <time>2019-05-21T10:39:04Z</time>
      </trkpt>
      <trkpt lat="40.20141" lon="-8.43705">
        <ele>81.85</ele>
        <time>2019-05-21T10:39:17Z</time>
      </trkpt>
      <trkpt lat="40.20142" lon="-8.43702">
        <ele>80.89</ele>
        <time>2019-05-21T10:39:22Z</time>
      </trkpt>
      <trkpt lat="40.20143" lon="-8.43699">
        <ele>81.37</ele>
        <time>2019-05-21T10:39:25Z</time>
      </trkpt>
      <trkpt lat="40.20144" lon="-8.43698">
        <ele>80.89</ele>
        <time>2019-05-21T10:39:26Z</time>
      </trkpt>
      <trkpt lat="40.20154" lon="-8.43685">
        <ele>79.93</ele>
        <time>2019-05-21T10:39:40Z</time>
      </trkpt>
      <trkpt lat="40.20165" lon="-8.43681">
        <ele>77.52</ele>
        <time>2019-05-21T10:39:49Z</time>
      </trkpt>
      <trkpt lat="40.2018" lon="-8.43679">
        <ele>75.6</ele>
        <time>2019-05-21T10:40:02Z</time>
      </trkpt>
      <trkpt lat="40.20193" lon="-8.43677">
        <ele>73.68</ele>
        <time>2019-05-21T10:40:13Z</time>
      </trkpt>
      <trkpt lat="40.20198" lon="-8.4368">
        <ele>72.72</ele>
        <time>2019-05-21T10:40:24Z</time>
      </trkpt>
      <trkpt lat="40.20204" lon="-8.43681">
        <ele>72.72</ele>
        <time>2019-05-21T10:40:38Z</time>
      </trkpt>
      <trkpt lat="40.20206" lon="-8.4368">
        <ele>71.76</ele>
        <time>2019-05-21T10:40:39Z</time>
      </trkpt>
      <trkpt lat="40.20211" lon="-8.43674">
        <ele>71.27</ele>
        <time>2019-05-21T10:40:50Z</time>
      </trkpt>
      <trkpt lat="40.20213" lon="-8.43673">
        <ele>70.79</ele>
        <time>2019-05-21T10:40:52Z</time>
      </trkpt>
      <trkpt lat="40.20214" lon="-8.43673">
        <ele>70.79</ele>
        <time>2019-05-21T10:40:53Z</time>
      </trkpt>
      <trkpt lat="40.20231" lon="-8.4367">
        <ele>68.39</ele>
        <time>2019-05-21T10:41:06Z</time>
      </trkpt>
      <trkpt lat="40.20235" lon="-8.43669">
        <ele>68.39</ele>
        <time>2019-05-21T10:41:21Z</time>
      </trkpt>
      <trkpt lat="40.20246" lon="-8.43666">
        <ele>66.47</ele>
        <time>2019-05-21T10:41:32Z</time>
      </trkpt>
      <trkpt lat="40.20255" lon="-8.43667">
        <ele>65.03</ele>
        <time>2019-05-21T10:41:45Z</time>
      </trkpt>
      <trkpt lat="40.20256" lon="-8.43668">
        <ele>65.51</ele>
        <time>2019-05-21T10:41:46Z</time>
      </trkpt>
      <trkpt lat="40.20257" lon="-8.43669">
        <ele>65.03</ele>
        <time>2019-05-21T10:41:47Z</time>
      </trkpt>
      <trkpt lat="40.20258" lon="-8.43669">
        <ele>65.03</ele>
        <time>2019-05-21T10:41:48Z</time>
      </trkpt>
      <trkpt lat="40.20277" lon="-8.43674">
        <ele>62.62</ele>
        <time>2019-05-21T10:42:02Z</time>
      </trkpt>
      <trkpt lat="40.20294" lon="-8.43679">
        <ele>61.18</ele>
        <time>2019-05-21T10:42:15Z</time>
      </trkpt>
      <trkpt lat="40.20302" lon="-8.43678">
        <ele>58.78</ele>
        <time>2019-05-21T10:42:23Z</time>
      </trkpt>
      <trkpt lat="40.2031" lon="-8.43672">
        <ele>58.3</ele>
        <time>2019-05-21T10:42:34Z</time>
      </trkpt>
      <trkpt lat="40.20303" lon="-8.43672">
        <ele>58.3</ele>
        <time>2019-05-21T10:42:51Z</time>
      </trkpt>
      <trkpt lat="40.20295" lon="-8.43665">
        <ele>54.93</ele>
        <time>2019-05-21T10:43:04Z</time>
      </trkpt>
      <trkpt lat="40.20294" lon="-8.43664">
        <ele>54.93</ele>
        <time>2019-05-21T10:43:05Z</time>
      </trkpt>
      <trkpt lat="40.20293" lon="-8.43663">
        <ele>54.93</ele>
        <time>2019-05-21T10:43:06Z</time>
      </trkpt>
      <trkpt lat="40.20288" lon="-8.43658">
        <ele>53.01</ele>
        <time>2019-05-21T10:43:12Z</time>
      </trkpt>
      <trkpt lat="40.20282" lon="-8.4365">
        <ele>52.05</ele>
        <time>2019-05-21T10:43:25Z</time>
      </trkpt>
      <trkpt lat="40.2028" lon="-8.43648">
        <ele>51.57</ele>
        <time>2019-05-21T10:43:30Z</time>
      </trkpt>
      <trkpt lat="40.20269" lon="-8.43637">
        <ele>48.68</ele>
        <time>2019-05-21T10:43:44Z</time>
      </trkpt>
      <trkpt lat="40.20264" lon="-8.43633">
        <ele>46.76</ele>
        <time>2019-05-21T10:43:50Z</time>
      </trkpt>
      <trkpt lat="40.20263" lon="-8.43633">
        <ele>46.76</ele>
        <time>2019-05-21T10:43:51Z</time>
      </trkpt>
      <trkpt lat="40.20253" lon="-8.43626">
        <ele>43.88</ele>
        <time>2019-05-21T10:44:04Z</time>
      </trkpt>
      <trkpt lat="40.20241" lon="-8.43616">
        <ele>40.99</ele>
        <time>2019-05-21T10:44:17Z</time>
      </trkpt>
      <trkpt lat="40.20235" lon="-8.43601">
        <ele>40.03</ele>
        <time>2019-05-21T10:44:30Z</time>
      </trkpt>
      <trkpt lat="40.20241" lon="-8.43592">
        <ele>36.67</ele>
        <time>2019-05-21T10:44:44Z</time>
      </trkpt>
      <trkpt lat="40.20251" lon="-8.43584">
        <ele>35.71</ele>
        <time>2019-05-21T10:44:58Z</time>
      </trkpt>
      <trkpt lat="40.20262" lon="-8.43579">
        <ele>33.3</ele>
        <time>2019-05-21T10:45:11Z</time>
      </trkpt>
      <trkpt lat="40.20263" lon="-8.43577">
        <ele>33.3</ele>
        <time>2019-05-21T10:45:31Z</time>
      </trkpt>
      <trkpt lat="40.2026" lon="-8.43578">
        <ele>33.3</ele>
        <time>2019-05-21T10:45:56Z</time>
      </trkpt>
      <trkpt lat="40.20266" lon="-8.43573">
        <ele>33.3</ele>
        <time>2019-05-21T10:46:25Z</time>
      </trkpt>
      <trkpt lat="40.20278" lon="-8.43565">
        <ele>30.42</ele>
        <time>2019-05-21T10:46:38Z</time>
      </trkpt>
      <trkpt lat="40.20279" lon="-8.43563">
        <ele>30.42</ele>
        <time>2019-05-21T10:46:39Z</time>
      </trkpt>
      <trkpt lat="40.20281" lon="-8.43563">
        <ele>29.94</ele>
        <time>2019-05-21T10:46:40Z</time>
      </trkpt>
      <trkpt lat="40.20298" lon="-8.43554">
        <ele>28.98</ele>
        <time>2019-05-21T10:46:51Z</time>
      </trkpt>
      <trkpt lat="40.20313" lon="-8.43542">
        <ele>28.5</ele>
        <time>2019-05-21T10:47:03Z</time>
      </trkpt>
      <trkpt lat="40.20314" lon="-8.43541">
        <ele>28.5</ele>
        <time>2019-05-21T10:47:04Z</time>
      </trkpt>
      <trkpt lat="40.20315" lon="-8.43539">
        <ele>28.98</ele>
        <time>2019-05-21T10:47:05Z</time>
      </trkpt>
      <trkpt lat="40.20317" lon="-8.43536">
        <ele>28.5</ele>
        <time>2019-05-21T10:47:08Z</time>
      </trkpt>
      <trkpt lat="40.20317" lon="-8.43534">
        <ele>28.02</ele>
        <time>2019-05-21T10:47:09Z</time>
      </trkpt>
      <trkpt lat="40.20314" lon="-8.43529">
        <ele>28.02</ele>
        <time>2019-05-21T10:47:19Z</time>
      </trkpt>
      <trkpt lat="40.20314" lon="-8.43528">
        <ele>28.02</ele>
        <time>2019-05-21T10:47:20Z</time>
      </trkpt>
      <trkpt lat="40.20308" lon="-8.43516">
        <ele>27.05</ele>
        <time>2019-05-21T10:47:30Z</time>
      </trkpt>
      <trkpt lat="40.20311" lon="-8.43494">
        <ele>26.09</ele>
        <time>2019-05-21T10:47:44Z</time>
      </trkpt>
      <trkpt lat="40.20311" lon="-8.43492">
        <ele>26.57</ele>
        <time>2019-05-21T10:47:45Z</time>
      </trkpt>
      <trkpt lat="40.20311" lon="-8.4349">
        <ele>26.09</ele>
        <time>2019-05-21T10:47:46Z</time>
      </trkpt>
      <trkpt lat="40.20311" lon="-8.43488">
        <ele>26.09</ele>
        <time>2019-05-21T10:47:47Z</time>
      </trkpt>
      <trkpt lat="40.20312" lon="-8.43472">
        <ele>25.61</ele>
        <time>2019-05-21T10:48:02Z</time>
      </trkpt>
      <trkpt lat="40.20313" lon="-8.4347">
        <ele>25.13</ele>
        <time>2019-05-21T10:48:04Z</time>
      </trkpt>
      <trkpt lat="40.20313" lon="-8.43468">
        <ele>25.61</ele>
        <time>2019-05-21T10:48:05Z</time>
      </trkpt>
      <trkpt lat="40.20314" lon="-8.43466">
        <ele>25.13</ele>
        <time>2019-05-21T10:48:06Z</time>
      </trkpt>
      <trkpt lat="40.20312" lon="-8.43455">
        <ele>25.61</ele>
        <time>2019-05-21T10:48:14Z</time>
      </trkpt>
      <trkpt lat="40.20311" lon="-8.43449">
        <ele>25.13</ele>
        <time>2019-05-21T10:48:28Z</time>
      </trkpt>
      <trkpt lat="40.20315" lon="-8.43441">
        <ele>25.61</ele>
        <time>2019-05-21T10:48:42Z</time>
      </trkpt>
      <trkpt lat="40.20316" lon="-8.43435">
        <ele>25.61</ele>
        <time>2019-05-21T10:48:47Z</time>
      </trkpt>
      <trkpt lat="40.20313" lon="-8.4343">
        <ele>25.13</ele>
        <time>2019-05-21T10:48:50Z</time>
      </trkpt>
      <trkpt lat="40.20315" lon="-8.43426">
        <ele>26.09</ele>
        <time>2019-05-21T10:48:54Z</time>
      </trkpt>
      <trkpt lat="40.20316" lon="-8.43424">
        <ele>25.13</ele>
        <time>2019-05-21T10:48:55Z</time>
      </trkpt>
      <trkpt lat="40.20317" lon="-8.43423">
        <ele>25.13</ele>
        <time>2019-05-21T10:48:56Z</time>
      </trkpt>
      <trkpt lat="40.2032" lon="-8.43418">
        <ele>25.61</ele>
        <time>2019-05-21T10:48:59Z</time>
      </trkpt>
      <trkpt lat="40.20324" lon="-8.43407">
        <ele>25.13</ele>
        <time>2019-05-21T10:49:06Z</time>
      </trkpt>
      <trkpt lat="40.20324" lon="-8.43406">
        <ele>24.65</ele>
        <time>2019-05-21T10:49:07Z</time>
      </trkpt>
      <trkpt lat="40.20325" lon="-8.43404">
        <ele>24.65</ele>
        <time>2019-05-21T10:49:08Z</time>
      </trkpt>
      <trkpt lat="40.20328" lon="-8.43397">
        <ele>25.13</ele>
        <time>2019-05-21T10:49:12Z</time>
      </trkpt>
      <trkpt lat="40.20327" lon="-8.43395">
        <ele>25.13</ele>
        <time>2019-05-21T10:49:13Z</time>
      </trkpt>
      <trkpt lat="40.20329" lon="-8.43392">
        <ele>24.65</ele>
        <time>2019-05-21T10:49:15Z</time>
      </trkpt>
      <trkpt lat="40.2033" lon="-8.4339">
        <ele>25.13</ele>
        <time>2019-05-21T10:49:16Z</time>
      </trkpt>
      <trkpt lat="40.2033" lon="-8.43389">
        <ele>24.65</ele>
        <time>2019-05-21T10:49:17Z</time>
      </trkpt>
      <trkpt lat="40.20331" lon="-8.43387">
        <ele>24.65</ele>
        <time>2019-05-21T10:49:18Z</time>
      </trkpt>
      <trkpt lat="40.20334" lon="-8.43386">
        <ele>24.65</ele>
        <time>2019-05-21T10:49:19Z</time>
      </trkpt>
      <trkpt lat="40.20336" lon="-8.43383">
        <ele>25.13</ele>
        <time>2019-05-21T10:49:20Z</time>
      </trkpt>
      <trkpt lat="40.20337" lon="-8.43381">
        <ele>24.65</ele>
        <time>2019-05-21T10:49:21Z</time>
      </trkpt>
      <trkpt lat="40.20338" lon="-8.43379">
        <ele>24.65</ele>
        <time>2019-05-21T10:49:22Z</time>
      </trkpt>
      <trkpt lat="40.20345" lon="-8.4335">
        <ele>25.13</ele>
        <time>2019-05-21T10:49:37Z</time>
      </trkpt>
      <trkpt lat="40.20353" lon="-8.43333">
        <ele>25.13</ele>
        <time>2019-05-21T10:49:51Z</time>
      </trkpt>
      <trkpt lat="40.20354" lon="-8.43331">
        <ele>25.13</ele>
        <time>2019-05-21T10:50:08Z</time>
      </trkpt>
      <trkpt lat="40.20354" lon="-8.43332">
        <ele>25.13</ele>
        <time>2019-05-21T10:50:33Z</time>
      </trkpt>
      <trkpt lat="40.20351" lon="-8.43338">
        <ele>25.13</ele>
        <time>2019-05-21T10:50:51Z</time>
      </trkpt>
      <trkpt lat="40.20348" lon="-8.43345">
        <ele>25.13</ele>
        <time>2019-05-21T10:50:58Z</time>
      </trkpt>
      <trkpt lat="40.20342" lon="-8.43365">
        <ele>24.65</ele>
        <time>2019-05-21T10:51:11Z</time>
      </trkpt>
      <trkpt lat="40.20336" lon="-8.43382">
        <ele>25.13</ele>
        <time>2019-05-21T10:51:23Z</time>
      </trkpt>
      <trkpt lat="40.20334" lon="-8.43386">
        <ele>24.65</ele>
        <time>2019-05-21T10:51:26Z</time>
      </trkpt>
      <trkpt lat="40.20334" lon="-8.43388">
        <ele>24.65</ele>
        <time>2019-05-21T10:51:27Z</time>
      </trkpt>
      <trkpt lat="40.20332" lon="-8.43396">
        <ele>25.61</ele>
        <time>2019-05-21T10:51:32Z</time>
      </trkpt>
      <trkpt lat="40.20331" lon="-8.43399">
        <ele>25.13</ele>
        <time>2019-05-21T10:51:34Z</time>
      </trkpt>
      <trkpt lat="40.2033" lon="-8.43401">
        <ele>25.61</ele>
        <time>2019-05-21T10:51:35Z</time>
      </trkpt>
      <trkpt lat="40.20329" lon="-8.43403">
        <ele>25.61</ele>
        <time>2019-05-21T10:51:37Z</time>
      </trkpt>
      <trkpt lat="40.20329" lon="-8.43405">
        <ele>25.13</ele>
        <time>2019-05-21T10:51:38Z</time>
      </trkpt>
      <trkpt lat="40.20323" lon="-8.43416">
        <ele>25.13</ele>
        <time>2019-05-21T10:51:46Z</time>
      </trkpt>
      <trkpt lat="40.20315" lon="-8.43429">
        <ele>25.13</ele>
        <time>2019-05-21T10:51:58Z</time>
      </trkpt>
      <trkpt lat="40.20311" lon="-8.43427">
        <ele>25.13</ele>
        <time>2019-05-21T10:52:03Z</time>
      </trkpt>
      <trkpt lat="40.20309" lon="-8.43425">
        <ele>25.13</ele>
        <time>2019-05-21T10:52:07Z</time>
      </trkpt>
      <trkpt lat="40.20308" lon="-8.43425">
        <ele>25.13</ele>
        <time>2019-05-21T10:52:09Z</time>
      </trkpt>
      <trkpt lat="40.20297" lon="-8.43426">
        <ele>24.65</ele>
        <time>2019-05-21T10:52:21Z</time>
      </trkpt>
      <trkpt lat="40.20293" lon="-8.43422">
        <ele>25.13</ele>
        <time>2019-05-21T10:52:32Z</time>
      </trkpt>
      <trkpt lat="40.20288" lon="-8.43418">
        <ele>26.09</ele>
        <time>2019-05-21T10:52:51Z</time>
      </trkpt>
      <trkpt lat="40.20286" lon="-8.43416">
        <ele>25.61</ele>
        <time>2019-05-21T10:53:23Z</time>
      </trkpt>
      <trkpt lat="40.20293" lon="-8.4342">
        <ele>26.09</ele>
        <time>2019-05-21T10:53:47Z</time>
      </trkpt>
      <trkpt lat="40.20298" lon="-8.43428">
        <ele>25.61</ele>
        <time>2019-05-21T10:54:13Z</time>
      </trkpt>
      <trkpt lat="40.2029" lon="-8.4342">
        <ele>26.57</ele>
        <time>2019-05-21T10:54:40Z</time>
      </trkpt>
      <trkpt lat="40.20294" lon="-8.43422">
        <ele>26.57</ele>
        <time>2019-05-21T10:55:06Z</time>
      </trkpt>
      <trkpt lat="40.20284" lon="-8.43414">
        <ele>26.09</ele>
        <time>2019-05-21T10:55:35Z</time>
      </trkpt>
      <trkpt lat="40.20284" lon="-8.43426">
        <ele>24.65</ele>
        <time>2019-05-21T10:55:56Z</time>
      </trkpt>
      <trkpt lat="40.2029" lon="-8.43432">
        <ele>24.65</ele>
        <time>2019-05-21T10:56:05Z</time>
      </trkpt>
      <trkpt lat="40.20298" lon="-8.43433">
        <ele>25.13</ele>
        <time>2019-05-21T10:56:17Z</time>
      </trkpt>
      <trkpt lat="40.20303" lon="-8.43435">
        <ele>25.13</ele>
        <time>2019-05-21T10:56:20Z</time>
      </trkpt>
      <trkpt lat="40.20306" lon="-8.43435">
        <ele>24.65</ele>
        <time>2019-05-21T10:56:23Z</time>
      </trkpt>
      <trkpt lat="40.20307" lon="-8.43435">
        <ele>25.13</ele>
        <time>2019-05-21T10:56:24Z</time>
      </trkpt>
      <trkpt lat="40.20309" lon="-8.43436">
        <ele>25.13</ele>
        <time>2019-05-21T10:56:26Z</time>
      </trkpt>
      <trkpt lat="40.20312" lon="-8.43431">
        <ele>25.13</ele>
        <time>2019-05-21T10:56:36Z</time>
      </trkpt>
      <trkpt lat="40.20316" lon="-8.43418">
        <ele>25.61</ele>
        <time>2019-05-21T10:56:49Z</time>
      </trkpt>
      <trkpt lat="40.20317" lon="-8.43416">
        <ele>25.61</ele>
        <time>2019-05-21T10:56:50Z</time>
      </trkpt>
      <trkpt lat="40.20321" lon="-8.43405">
        <ele>24.65</ele>
        <time>2019-05-21T10:56:59Z</time>
      </trkpt>
      <trkpt lat="40.20321" lon="-8.43403">
        <ele>24.65</ele>
        <time>2019-05-21T10:57:00Z</time>
      </trkpt>
      <trkpt lat="40.20321" lon="-8.43394">
        <ele>25.13</ele>
        <time>2019-05-21T10:57:07Z</time>
      </trkpt>
      <trkpt lat="40.20323" lon="-8.43389">
        <ele>25.13</ele>
        <time>2019-05-21T10:57:11Z</time>
      </trkpt>
      <trkpt lat="40.20336" lon="-8.43379">
        <ele>25.13</ele>
        <time>2019-05-21T10:57:22Z</time>
      </trkpt>
      <trkpt lat="40.20343" lon="-8.4336">
        <ele>25.13</ele>
        <time>2019-05-21T10:57:35Z</time>
      </trkpt>
      <trkpt lat="40.20351" lon="-8.43343">
        <ele>24.17</ele>
        <time>2019-05-21T10:57:49Z</time>
      </trkpt>
      <trkpt lat="40.2036" lon="-8.43323">
        <ele>24.17</ele>
        <time>2019-05-21T10:58:03Z</time>
      </trkpt>
      <trkpt lat="40.20367" lon="-8.43313">
        <ele>24.65</ele>
        <time>2019-05-21T10:58:10Z</time>
      </trkpt>
      <trkpt lat="40.20367" lon="-8.43312">
        <ele>24.65</ele>
        <time>2019-05-21T10:58:11Z</time>
      </trkpt>
      <trkpt lat="40.20374" lon="-8.43293">
        <ele>25.13</ele>
        <time>2019-05-21T10:58:24Z</time>
      </trkpt>
      <trkpt lat="40.2038" lon="-8.43286">
        <ele>25.13</ele>
        <time>2019-05-21T10:58:33Z</time>
      </trkpt>
      <trkpt lat="40.20387" lon="-8.4329">
        <ele>24.65</ele>
        <time>2019-05-21T10:58:43Z</time>
      </trkpt>
      <trkpt lat="40.20394" lon="-8.43289">
        <ele>25.13</ele>
        <time>2019-05-21T10:58:54Z</time>
      </trkpt>
      <trkpt lat="40.20399" lon="-8.43284">
        <ele>25.13</ele>
        <time>2019-05-21T10:59:01Z</time>
      </trkpt>
      <trkpt lat="40.20411" lon="-8.43272">
        <ele>24.65</ele>
        <time>2019-05-21T10:59:13Z</time>
      </trkpt>
      <trkpt lat="40.20422" lon="-8.43258">
        <ele>25.13</ele>
        <time>2019-05-21T10:59:28Z</time>
      </trkpt>
      <trkpt lat="40.20432" lon="-8.43246">
        <ele>25.61</ele>
        <time>2019-05-21T10:59:42Z</time>
      </trkpt>
      <trkpt lat="40.20441" lon="-8.43229">
        <ele>25.13</ele>
        <time>2019-05-21T10:59:56Z</time>
      </trkpt>
      <trkpt lat="40.20455" lon="-8.43213">
        <ele>25.61</ele>
        <time>2019-05-21T11:00:12Z</time>
      </trkpt>
      <trkpt lat="40.20465" lon="-8.43201">
        <ele>25.61</ele>
        <time>2019-05-21T11:00:26Z</time>
      </trkpt>
      <trkpt lat="40.20472" lon="-8.43192">
        <ele>25.61</ele>
        <time>2019-05-21T11:00:37Z</time>
      </trkpt>
      <trkpt lat="40.20483" lon="-8.4318">
        <ele>25.61</ele>
        <time>2019-05-21T11:00:51Z</time>
      </trkpt>
      <trkpt lat="40.20484" lon="-8.43179">
        <ele>25.13</ele>
        <time>2019-05-21T11:00:52Z</time>
      </trkpt>
      <trkpt lat="40.20499" lon="-8.43169">
        <ele>25.61</ele>
        <time>2019-05-21T11:01:06Z</time>
      </trkpt>
      <trkpt lat="40.2051" lon="-8.4316">
        <ele>25.61</ele>
        <time>2019-05-21T11:01:17Z</time>
      </trkpt>
      <trkpt lat="40.20513" lon="-8.43152">
        <ele>26.57</ele>
        <time>2019-05-21T11:01:28Z</time>
      </trkpt>
      <trkpt lat="40.20517" lon="-8.43148">
        <ele>26.09</ele>
        <time>2019-05-21T11:01:42Z</time>
      </trkpt>
      <trkpt lat="40.20522" lon="-8.43141">
        <ele>26.09</ele>
        <time>2019-05-21T11:01:56Z</time>
      </trkpt>
      <trkpt lat="40.20531" lon="-8.43131">
        <ele>26.57</ele>
        <time>2019-05-21T11:02:09Z</time>
      </trkpt>
      <trkpt lat="40.20542" lon="-8.43118">
        <ele>26.57</ele>
        <time>2019-05-21T11:02:21Z</time>
      </trkpt>
      <trkpt lat="40.20549" lon="-8.43111">
        <ele>27.53</ele>
        <time>2019-05-21T11:02:33Z</time>
      </trkpt>
      <trkpt lat="40.20554" lon="-8.43106">
        <ele>27.05</ele>
        <time>2019-05-21T11:02:51Z</time>
      </trkpt>
      <trkpt lat="40.20561" lon="-8.43098">
        <ele>27.05</ele>
        <time>2019-05-21T11:03:08Z</time>
      </trkpt>
      <trkpt lat="40.2057" lon="-8.43088">
        <ele>27.53</ele>
        <time>2019-05-21T11:03:21Z</time>
      </trkpt>
      <trkpt lat="40.20585" lon="-8.43075">
        <ele>27.53</ele>
        <time>2019-05-21T11:03:39Z</time>
      </trkpt>
      <trkpt lat="40.206" lon="-8.43064">
        <ele>28.02</ele>
        <time>2019-05-21T11:03:54Z</time>
      </trkpt>
      <trkpt lat="40.20612" lon="-8.43055">
        <ele>27.05</ele>
        <time>2019-05-21T11:04:09Z</time>
      </trkpt>
      <trkpt lat="40.20622" lon="-8.43046">
        <ele>27.53</ele>
        <time>2019-05-21T11:04:21Z</time>
      </trkpt>
      <trkpt lat="40.20636" lon="-8.43031">
        <ele>27.53</ele>
        <time>2019-05-21T11:04:38Z</time>
      </trkpt>
      <trkpt lat="40.20648" lon="-8.43018">
        <ele>27.05</ele>
        <time>2019-05-21T11:04:53Z</time>
      </trkpt>
      <trkpt lat="40.20662" lon="-8.43005">
        <ele>27.05</ele>
        <time>2019-05-21T11:05:09Z</time>
      </trkpt>
      <trkpt lat="40.20675" lon="-8.42991">
        <ele>26.57</ele>
        <time>2019-05-21T11:05:24Z</time>
      </trkpt>
      <trkpt lat="40.20687" lon="-8.42985">
        <ele>26.57</ele>
        <time>2019-05-21T11:05:38Z</time>
      </trkpt>
      <trkpt lat="40.20688" lon="-8.42985">
        <ele>26.57</ele>
        <time>2019-05-21T11:05:39Z</time>
      </trkpt>
      <trkpt lat="40.20694" lon="-8.42986">
        <ele>26.57</ele>
        <time>2019-05-21T11:05:45Z</time>
      </trkpt>
      <trkpt lat="40.207" lon="-8.42989">
        <ele>26.09</ele>
        <time>2019-05-21T11:05:55Z</time>
      </trkpt>
      <trkpt lat="40.20702" lon="-8.4299">
        <ele>26.09</ele>
        <time>2019-05-21T11:06:09Z</time>
      </trkpt>
      <trkpt lat="40.20708" lon="-8.42989">
        <ele>26.09</ele>
        <time>2019-05-21T11:06:31Z</time>
      </trkpt>
      <trkpt lat="40.20713" lon="-8.4299">
        <ele>26.09</ele>
        <time>2019-05-21T11:06:51Z</time>
      </trkpt>
      <trkpt lat="40.20715" lon="-8.42989">
        <ele>26.09</ele>
        <time>2019-05-21T11:07:05Z</time>
      </trkpt>
      <trkpt lat="40.20719" lon="-8.42975">
        <ele>25.61</ele>
        <time>2019-05-21T11:07:18Z</time>
      </trkpt>
      <trkpt lat="40.20723" lon="-8.42968">
        <ele>26.09</ele>
        <time>2019-05-21T11:07:24Z</time>
      </trkpt>
      <trkpt lat="40.20729" lon="-8.42958">
        <ele>26.57</ele>
        <time>2019-05-21T11:07:38Z</time>
      </trkpt>
      <trkpt lat="40.20737" lon="-8.42955">
        <ele>25.61</ele>
        <time>2019-05-21T11:07:51Z</time>
      </trkpt>
      <trkpt lat="40.20733" lon="-8.42944">
        <ele>27.05</ele>
        <time>2019-05-21T11:08:04Z</time>
      </trkpt>
      <trkpt lat="40.20733" lon="-8.42936">
        <ele>27.05</ele>
        <time>2019-05-21T11:08:15Z</time>
      </trkpt>
      <trkpt lat="40.20736" lon="-8.42934">
        <ele>27.05</ele>
        <time>2019-05-21T11:08:27Z</time>
      </trkpt>
      <trkpt lat="40.20739" lon="-8.42932">
        <ele>27.05</ele>
        <time>2019-05-21T11:08:36Z</time>
      </trkpt>
      <trkpt lat="40.20741" lon="-8.42936">
        <ele>27.53</ele>
        <time>2019-05-21T11:08:53Z</time>
      </trkpt>
      <trkpt lat="40.2077" lon="-8.42943">
        <ele>27.53</ele>
        <time>2019-05-21T11:09:17Z</time>
      </trkpt>
    </trkseg>
  </trk>
</gpx>